<?xml version='1.0' encoding='UTF-8'?><gpx version="1.1" creator="JPX - https://github.com/jenetics/jpx" xmlns="http://www.topografix.com/GPX/1/1"><trk><trkseg><trkpt lat="43.9234338" lon="8.1099834"><ele>7.833333333333333</ele><time>2026-04-08T09:17:13.282Z</time></trkpt><trkpt lat="43.9234552" lon="8.1098956"><ele>7.666666666666666</ele><time>2026-04-08T09:21:04.248Z</time></trkpt><trkpt lat="43.9234635" lon="8.1097711"><ele>7.5</ele><time>2026-04-08T09:21:08.24Z</time></trkpt><trkpt lat="43.9234552" lon="8.1096503"><ele>7.333333333333334</ele><time>2026-04-08T09:21:11.967Z</time></trkpt><trkpt lat="43.9234279" lon="8.1095601"><ele>7.166666666666667</ele><time>2026-04-08T09:21:15.263Z</time></trkpt><trkpt lat="43.9233978" lon="8.109462"><ele>7.0</ele><time>2026-04-08T09:21:19.246Z</time></trkpt><trkpt lat="43.9233813" lon="8.1093662"><ele>7.0</ele><time>2026-04-08T09:21:23.24Z</time></trkpt><trkpt lat="43.9234265" lon="8.1092966"><ele>7.0</ele><time>2026-04-08T09:21:28.213Z</time></trkpt><trkpt lat="43.9234812" lon="8.1093416"><ele>7.0</ele><time>2026-04-08T09:22:19.263Z</time></trkpt><trkpt lat="43.9235021" lon="8.1094291"><ele>7.0</ele><time>2026-04-08T09:22:23.242Z</time></trkpt><trkpt lat="43.923521" lon="8.1095543"><ele>7.0</ele><time>2026-04-08T09:22:27.215Z</time></trkpt><trkpt lat="43.9235424" lon="8.1096762"><ele>7.0</ele><time>2026-04-08T09:22:30.251Z</time></trkpt><trkpt lat="43.9235575" lon="8.1097686"><ele>7.0</ele><time>2026-04-08T09:22:32.232Z</time></trkpt><trkpt lat="43.9235766" lon="8.1098846"><ele>7.166666666666667</ele><time>2026-04-08T09:22:34.268Z</time></trkpt><trkpt lat="43.9235954" lon="8.1099911"><ele>7.333333333333334</ele><time>2026-04-08T09:22:36.257Z</time></trkpt><trkpt lat="43.9236151" lon="8.1100775"><ele>7.5</ele><time>2026-04-08T09:22:38.276Z</time></trkpt><trkpt lat="43.92364" lon="8.1101966"><ele>7.666666666666666</ele><time>2026-04-08T09:22:41.212Z</time></trkpt><trkpt lat="43.9236615" lon="8.1102941"><ele>7.833333333333333</ele><time>2026-04-08T09:22:44.27Z</time></trkpt><trkpt lat="43.9236768" lon="8.1104028"><ele>8.0</ele><time>2026-04-08T09:22:47.222Z</time></trkpt><trkpt lat="43.9236958" lon="8.1104952"><ele>8.0</ele><time>2026-04-08T09:22:49.6Z</time></trkpt><trkpt lat="43.9237188" lon="8.1106133"><ele>7.999999999999999</ele><time>2026-04-08T09:22:52.297Z</time></trkpt><trkpt lat="43.9237334" lon="8.1107042"><ele>8.0</ele><time>2026-04-08T09:22:54.29Z</time></trkpt><trkpt lat="43.9237477" lon="8.1107904"><ele>8.0</ele><time>2026-04-08T09:22:56.24Z</time></trkpt><trkpt lat="43.923765" lon="8.1108806"><ele>7.999999999999999</ele><time>2026-04-08T09:22:58.26Z</time></trkpt><trkpt lat="43.9237811" lon="8.1109727"><ele>8.0</ele><time>2026-04-08T09:23:00.22Z</time></trkpt><trkpt lat="43.9237938" lon="8.1110657"><ele>8.0</ele><time>2026-04-08T09:23:02.253Z</time></trkpt><trkpt lat="43.923804" lon="8.1111576"><ele>7.999999999999999</ele><time>2026-04-08T09:23:04.258Z</time></trkpt><trkpt lat="43.9238173" lon="8.1112471"><ele>8.0</ele><time>2026-04-08T09:23:06.215Z</time></trkpt><trkpt lat="43.9238278" lon="8.1113354"><ele>8.0</ele><time>2026-04-08T09:23:08.25Z</time></trkpt><trkpt lat="43.9238399" lon="8.1114601"><ele>8.0</ele><time>2026-04-08T09:23:11.18Z</time></trkpt><trkpt lat="43.9238611" lon="8.111586"><ele>7.999999999999999</ele><time>2026-04-08T09:23:14.378Z</time></trkpt><trkpt lat="43.9238905" lon="8.1116935"><ele>8.0</ele><time>2026-04-08T09:23:17.232Z</time></trkpt><trkpt lat="43.923924" lon="8.1117975"><ele>7.999999999999999</ele><time>2026-04-08T09:23:20.284Z</time></trkpt><trkpt lat="43.9239916" lon="8.1118234"><ele>8.0</ele><time>2026-04-08T09:23:24.262Z</time></trkpt><trkpt lat="43.9240632" lon="8.1118757"><ele>8.0</ele><time>2026-04-08T09:23:37.303Z</time></trkpt><trkpt lat="43.9240934" lon="8.1119697"><ele>8.0</ele><time>2026-04-08T09:23:40.234Z</time></trkpt><trkpt lat="43.9241312" lon="8.1120651"><ele>7.999999999999999</ele><time>2026-04-08T09:23:42.25Z</time></trkpt><trkpt lat="43.9241543" lon="8.1121648"><ele>8.0</ele><time>2026-04-08T09:23:44.243Z</time></trkpt><trkpt lat="43.9241817" lon="8.1122861"><ele>8.0</ele><time>2026-04-08T09:23:46.265Z</time></trkpt><trkpt lat="43.9242087" lon="8.1123827"><ele>7.999999999999999</ele><time>2026-04-08T09:23:48.279Z</time></trkpt><trkpt lat="43.9242148" lon="8.1124814"><ele>8.0</ele><time>2026-04-08T09:23:50.165Z</time></trkpt><trkpt lat="43.9242289" lon="8.1125865"><ele>8.0</ele><time>2026-04-08T09:23:52.268Z</time></trkpt><trkpt lat="43.9242799" lon="8.1126543"><ele>7.999999999999999</ele><time>2026-04-08T09:23:54.24Z</time></trkpt><trkpt lat="43.9243412" lon="8.1126974"><ele>8.0</ele><time>2026-04-08T09:23:56.23Z</time></trkpt><trkpt lat="43.9243926" lon="8.1126194"><ele>8.0</ele><time>2026-04-08T09:24:00.232Z</time></trkpt><trkpt lat="43.9243578" lon="8.1125276"><ele>9.142857142857142</ele><time>2026-04-08T09:24:04.25Z</time></trkpt><trkpt lat="43.92435" lon="8.1124341"><ele>10.285714285714285</ele><time>2026-04-08T09:24:08.273Z</time></trkpt><trkpt lat="43.9243449" lon="8.1123339"><ele>11.428571428571427</ele><time>2026-04-08T09:24:11.232Z</time></trkpt><trkpt lat="43.924334" lon="8.1122346"><ele>12.571428571428571</ele><time>2026-04-08T09:24:14.275Z</time></trkpt><trkpt lat="43.9243244" lon="8.112137"><ele>13.714285714285712</ele><time>2026-04-08T09:24:18.216Z</time></trkpt><trkpt lat="43.9243061" lon="8.1120513"><ele>14.857142857142856</ele><time>2026-04-08T09:24:22.264Z</time></trkpt><trkpt lat="43.9242846" lon="8.1119444"><ele>16.0</ele><time>2026-04-08T09:24:26.244Z</time></trkpt><trkpt lat="43.924293" lon="8.1118531"><ele>16.0</ele><time>2026-04-08T09:24:29.247Z</time></trkpt><trkpt lat="43.924298" lon="8.1117485"><ele>15.999999999999998</ele><time>2026-04-08T09:24:32.24Z</time></trkpt><trkpt lat="43.9242706" lon="8.1116424"><ele>16.0</ele><time>2026-04-08T09:24:35.24Z</time></trkpt><trkpt lat="43.9242371" lon="8.11156"><ele>16.0</ele><time>2026-04-08T09:24:37.257Z</time></trkpt><trkpt lat="43.9242111" lon="8.1114733"><ele>15.999999999999998</ele><time>2026-04-08T09:24:39.249Z</time></trkpt><trkpt lat="43.924154" lon="8.1113838"><ele>16.0</ele><time>2026-04-08T09:24:42.221Z</time></trkpt><trkpt lat="43.9240894" lon="8.1114011"><ele>16.0</ele><time>2026-04-08T09:24:44.279Z</time></trkpt><trkpt lat="43.924025" lon="8.1113483"><ele>14.666666666666666</ele><time>2026-04-08T09:24:52.226Z</time></trkpt><trkpt lat="43.924" lon="8.11124"><ele>13.333333333333332</ele><time>2026-04-08T09:24:56.349Z</time></trkpt><trkpt lat="43.924" lon="8.1111383"><ele>12.0</ele><time>2026-04-08T09:24:58.215Z</time></trkpt><trkpt lat="43.9239967" lon="8.1110483"><ele>10.666666666666666</ele><time>2026-04-08T09:25:00.225Z</time></trkpt><trkpt lat="43.9239983" lon="8.1109183"><ele>9.333333333333332</ele><time>2026-04-08T09:25:03.278Z</time></trkpt><trkpt lat="43.9239917" lon="8.110825"><ele>8.0</ele><time>2026-04-08T09:25:05.216Z</time></trkpt><trkpt lat="43.923995" lon="8.110705"><ele>8.0</ele><time>2026-04-08T09:25:07.31Z</time></trkpt><trkpt lat="43.9239833" lon="8.110585"><ele>8.0</ele><time>2026-04-08T09:25:09.269Z</time></trkpt><trkpt lat="43.9239667" lon="8.1104083"><ele>8.0</ele><time>2026-04-08T09:25:12.21Z</time></trkpt><trkpt lat="43.9239733" lon="8.1102967"><ele>8.0</ele><time>2026-04-08T09:25:15.252Z</time></trkpt><trkpt lat="43.9239583" lon="8.1101883"><ele>8.0</ele><time>2026-04-08T09:25:18.272Z</time></trkpt><trkpt lat="43.9239333" lon="8.1100783"><ele>8.0</ele><time>2026-04-08T09:25:21.249Z</time></trkpt><trkpt lat="43.9239267" lon="8.1099533"><ele>7.999999999999999</ele><time>2026-04-08T09:25:24.253Z</time></trkpt><trkpt lat="43.9239183" lon="8.1098633"><ele>8.0</ele><time>2026-04-08T09:25:26.237Z</time></trkpt><trkpt lat="43.9239083" lon="8.1097767"><ele>8.0</ele><time>2026-04-08T09:25:28.254Z</time></trkpt><trkpt lat="43.9239017" lon="8.1096867"><ele>7.999999999999999</ele><time>2026-04-08T09:25:30.261Z</time></trkpt><trkpt lat="43.9238983" lon="8.109595"><ele>8.0</ele><time>2026-04-08T09:25:32.383Z</time></trkpt><trkpt lat="43.923895" lon="8.1094967"><ele>8.0</ele><time>2026-04-08T09:25:34.209Z</time></trkpt><trkpt lat="43.9238967" lon="8.1094083"><ele>7.857142857142857</ele><time>2026-04-08T09:25:36.234Z</time></trkpt><trkpt lat="43.9238933" lon="8.109305"><ele>7.7142857142857135</ele><time>2026-04-08T09:25:38.253Z</time></trkpt><trkpt lat="43.923885" lon="8.1092183"><ele>7.571428571428571</ele><time>2026-04-08T09:25:40.25Z</time></trkpt><trkpt lat="43.9238833" lon="8.10913"><ele>7.428571428571429</ele><time>2026-04-08T09:25:42.209Z</time></trkpt><trkpt lat="43.9238817" lon="8.1090183"><ele>7.285714285714286</ele><time>2026-04-08T09:25:45.239Z</time></trkpt><trkpt lat="43.9238733" lon="8.1089267"><ele>7.142857142857142</ele><time>2026-04-08T09:25:47.249Z</time></trkpt><trkpt lat="43.9238417" lon="8.1088083"><ele>7.0</ele><time>2026-04-08T09:25:49.251Z</time></trkpt><trkpt lat="43.9238233" lon="8.108705"><ele>7.0</ele><time>2026-04-08T09:25:51.257Z</time></trkpt><trkpt lat="43.9238083" lon="8.1086083"><ele>7.0</ele><time>2026-04-08T09:25:53.266Z</time></trkpt><trkpt lat="43.9237933" lon="8.1085117"><ele>7.0</ele><time>2026-04-08T09:25:55.247Z</time></trkpt><trkpt lat="43.9237783" lon="8.10842"><ele>7.0</ele><time>2026-04-08T09:25:57.223Z</time></trkpt><trkpt lat="43.9237533" lon="8.1083267"><ele>7.0</ele><time>2026-04-08T09:25:59.227Z</time></trkpt><trkpt lat="43.9237317" lon="8.108235"><ele>7.0</ele><time>2026-04-08T09:26:01.215Z</time></trkpt><trkpt lat="43.92371" lon="8.108145"><ele>7.0</ele><time>2026-04-08T09:26:03.228Z</time></trkpt><trkpt lat="43.923695" lon="8.1080567"><ele>7.0</ele><time>2026-04-08T09:26:05.291Z</time></trkpt><trkpt lat="43.92369" lon="8.1079617"><ele>7.0</ele><time>2026-04-08T09:26:07.254Z</time></trkpt><trkpt lat="43.923685" lon="8.1078733"><ele>7.0</ele><time>2026-04-08T09:26:09.264Z</time></trkpt><trkpt lat="43.92368" lon="8.10778"><ele>7.0</ele><time>2026-04-08T09:26:11.221Z</time></trkpt><trkpt lat="43.9236667" lon="8.107685"><ele>7.0</ele><time>2026-04-08T09:26:13.26Z</time></trkpt><trkpt lat="43.9236517" lon="8.1075817"><ele>7.0</ele><time>2026-04-08T09:26:15.213Z</time></trkpt><trkpt lat="43.9236433" lon="8.1074767"><ele>7.0</ele><time>2026-04-08T09:26:17.251Z</time></trkpt><trkpt lat="43.92362" lon="8.1073717"><ele>7.0</ele><time>2026-04-08T09:26:19.241Z</time></trkpt><trkpt lat="43.9235983" lon="8.1072733"><ele>7.0</ele><time>2026-04-08T09:26:21.243Z</time></trkpt><trkpt lat="43.9235833" lon="8.10717"><ele>7.0</ele><time>2026-04-08T09:26:23.248Z</time></trkpt><trkpt lat="43.923565" lon="8.10706"><ele>7.0</ele><time>2026-04-08T09:26:25.226Z</time></trkpt><trkpt lat="43.9235517" lon="8.1069633"><ele>7.0</ele><time>2026-04-08T09:26:27.267Z</time></trkpt><trkpt lat="43.9235283" lon="8.106875"><ele>7.0</ele><time>2026-04-08T09:26:29.234Z</time></trkpt><trkpt lat="43.9235033" lon="8.106785"><ele>7.0</ele><time>2026-04-08T09:26:31.206Z</time></trkpt><trkpt lat="43.9234817" lon="8.1066917"><ele>7.0</ele><time>2026-04-08T09:26:33.239Z</time></trkpt><trkpt lat="43.9234633" lon="8.1066067"><ele>7.0</ele><time>2026-04-08T09:26:35.248Z</time></trkpt><trkpt lat="43.9234233" lon="8.1065033"><ele>7.0</ele><time>2026-04-08T09:26:38.281Z</time></trkpt><trkpt lat="43.923385" lon="8.1064267"><ele>7.0</ele><time>2026-04-08T09:26:41.252Z</time></trkpt><trkpt lat="43.9233583" lon="8.10632"><ele>7.0</ele><time>2026-04-08T09:26:44.286Z</time></trkpt><trkpt lat="43.9233467" lon="8.1062317"><ele>7.0</ele><time>2026-04-08T09:26:46.251Z</time></trkpt><trkpt lat="43.923345" lon="8.10611"><ele>7.0</ele><time>2026-04-08T09:26:49.286Z</time></trkpt><trkpt lat="43.92332" lon="8.1060183"><ele>6.571428571428571</ele><time>2026-04-08T09:26:51.216Z</time></trkpt><trkpt lat="43.9233033" lon="8.1059183"><ele>6.142857142857142</ele><time>2026-04-08T09:26:53.27Z</time></trkpt><trkpt lat="43.9232867" lon="8.105815"><ele>5.714285714285714</ele><time>2026-04-08T09:26:55.23Z</time></trkpt><trkpt lat="43.9232683" lon="8.1057167"><ele>5.285714285714286</ele><time>2026-04-08T09:26:57.212Z</time></trkpt><trkpt lat="43.923245" lon="8.10562"><ele>4.857142857142857</ele><time>2026-04-08T09:26:59.253Z</time></trkpt><trkpt lat="43.923225" lon="8.1055267"><ele>4.428571428571429</ele><time>2026-04-08T09:27:01.259Z</time></trkpt><trkpt lat="43.9231983" lon="8.1054367"><ele>4.0</ele><time>2026-04-08T09:27:03.277Z</time></trkpt><trkpt lat="43.9231717" lon="8.1053067"><ele>3.9999999999999996</ele><time>2026-04-08T09:27:06.232Z</time></trkpt><trkpt lat="43.92315" lon="8.10521"><ele>4.0</ele><time>2026-04-08T09:27:08.278Z</time></trkpt><trkpt lat="43.9231433" lon="8.10508"><ele>4.0</ele><time>2026-04-08T09:27:11.234Z</time></trkpt><trkpt lat="43.9231067" lon="8.1049867"><ele>4.0</ele><time>2026-04-08T09:27:13.24Z</time></trkpt><trkpt lat="43.923075" lon="8.1048933"><ele>3.9999999999999996</ele><time>2026-04-08T09:27:15.267Z</time></trkpt><trkpt lat="43.923045" lon="8.104795"><ele>4.0</ele><time>2026-04-08T09:27:17.215Z</time></trkpt><trkpt lat="43.923015" lon="8.1046917"><ele>4.285714285714286</ele><time>2026-04-08T09:27:19.274Z</time></trkpt><trkpt lat="43.9229867" lon="8.1045967"><ele>4.571428571428571</ele><time>2026-04-08T09:27:21.218Z</time></trkpt><trkpt lat="43.9229583" lon="8.1045017"><ele>4.857142857142857</ele><time>2026-04-08T09:27:23.258Z</time></trkpt><trkpt lat="43.9229283" lon="8.1044033"><ele>5.142857142857142</ele><time>2026-04-08T09:27:25.321Z</time></trkpt><trkpt lat="43.92291" lon="8.104315"><ele>5.428571428571429</ele><time>2026-04-08T09:27:27.257Z</time></trkpt><trkpt lat="43.9228933" lon="8.104225"><ele>5.7142857142857135</ele><time>2026-04-08T09:27:29.213Z</time></trkpt><trkpt lat="43.922875" lon="8.1041383"><ele>6.0</ele><time>2026-04-08T09:27:31.209Z</time></trkpt><trkpt lat="43.9228467" lon="8.1040083"><ele>6.333333333333333</ele><time>2026-04-08T09:27:34.264Z</time></trkpt><trkpt lat="43.9228217" lon="8.1039117"><ele>6.666666666666666</ele><time>2026-04-08T09:27:36.254Z</time></trkpt><trkpt lat="43.9227917" lon="8.1038"><ele>7.0</ele><time>2026-04-08T09:27:38.293Z</time></trkpt><trkpt lat="43.92277" lon="8.103705"><ele>7.333333333333333</ele><time>2026-04-08T09:27:40.364Z</time></trkpt><trkpt lat="43.922745" lon="8.103605"><ele>7.666666666666666</ele><time>2026-04-08T09:27:42.22Z</time></trkpt><trkpt lat="43.9227133" lon="8.1034767"><ele>8.0</ele><time>2026-04-08T09:27:45.308Z</time></trkpt><trkpt lat="43.9226933" lon="8.1033883"><ele>7.999999999999999</ele><time>2026-04-08T09:27:47.214Z</time></trkpt><trkpt lat="43.9226583" lon="8.1033033"><ele>8.0</ele><time>2026-04-08T09:27:49.221Z</time></trkpt><trkpt lat="43.9226317" lon="8.1032183"><ele>8.0</ele><time>2026-04-08T09:27:51.254Z</time></trkpt><trkpt lat="43.922585" lon="8.10309"><ele>8.0</ele><time>2026-04-08T09:27:54.278Z</time></trkpt><trkpt lat="43.922555" lon="8.10297"><ele>7.999999999999999</ele><time>2026-04-08T09:27:57.246Z</time></trkpt><trkpt lat="43.9225183" lon="8.1028633"><ele>8.0</ele><time>2026-04-08T09:28:00.259Z</time></trkpt><trkpt lat="43.9224817" lon="8.10275"><ele>7.999999999999999</ele><time>2026-04-08T09:28:03.211Z</time></trkpt><trkpt lat="43.92246" lon="8.102645"><ele>8.0</ele><time>2026-04-08T09:28:05.212Z</time></trkpt><trkpt lat="43.9224283" lon="8.1025317"><ele>8.0</ele><time>2026-04-08T09:28:07.255Z</time></trkpt><trkpt lat="43.9223967" lon="8.102415"><ele>8.0</ele><time>2026-04-08T09:28:09.211Z</time></trkpt><trkpt lat="43.9223567" lon="8.1023033"><ele>7.999999999999999</ele><time>2026-04-08T09:28:11.223Z</time></trkpt><trkpt lat="43.922325" lon="8.1021867"><ele>8.0</ele><time>2026-04-08T09:28:13.216Z</time></trkpt><trkpt lat="43.9223" lon="8.1020667"><ele>7.999999999999999</ele><time>2026-04-08T09:28:15.255Z</time></trkpt><trkpt lat="43.9222717" lon="8.1019583"><ele>8.0</ele><time>2026-04-08T09:28:17.282Z</time></trkpt><trkpt lat="43.92225" lon="8.1018733"><ele>8.0</ele><time>2026-04-08T09:28:19.305Z</time></trkpt><trkpt lat="43.9222233" lon="8.1017533"><ele>8.0</ele><time>2026-04-08T09:28:22.358Z</time></trkpt><trkpt lat="43.9222017" lon="8.101655"><ele>7.999999999999999</ele><time>2026-04-08T09:28:24.343Z</time></trkpt><trkpt lat="43.92218" lon="8.1015517"><ele>8.0</ele><time>2026-04-08T09:28:26.281Z</time></trkpt><trkpt lat="43.9221583" lon="8.1014517"><ele>8.0</ele><time>2026-04-08T09:28:28.263Z</time></trkpt><trkpt lat="43.922135" lon="8.101365"><ele>7.999999999999999</ele><time>2026-04-08T09:28:30.288Z</time></trkpt><trkpt lat="43.9221083" lon="8.101265"><ele>8.0</ele><time>2026-04-08T09:28:32.3Z</time></trkpt><trkpt lat="43.9220883" lon="8.101165"><ele>8.0</ele><time>2026-04-08T09:28:34.236Z</time></trkpt><trkpt lat="43.9220633" lon="8.1010617"><ele>7.999999999999999</ele><time>2026-04-08T09:28:36.256Z</time></trkpt><trkpt lat="43.922035" lon="8.1009683"><ele>8.0</ele><time>2026-04-08T09:28:38.317Z</time></trkpt><trkpt lat="43.9220067" lon="8.1008767"><ele>8.0</ele><time>2026-04-08T09:28:40.262Z</time></trkpt><trkpt lat="43.9219733" lon="8.10079"><ele>8.833333333333332</ele><time>2026-04-08T09:28:42.246Z</time></trkpt><trkpt lat="43.921955" lon="8.1006967"><ele>9.666666666666666</ele><time>2026-04-08T09:28:44.338Z</time></trkpt><trkpt lat="43.9219383" lon="8.100605"><ele>10.5</ele><time>2026-04-08T09:28:46.259Z</time></trkpt><trkpt lat="43.9219067" lon="8.1005033"><ele>11.333333333333332</ele><time>2026-04-08T09:28:48.338Z</time></trkpt><trkpt lat="43.92187" lon="8.1004"><ele>12.166666666666666</ele><time>2026-04-08T09:28:50.296Z</time></trkpt><trkpt lat="43.921835" lon="8.1002883"><ele>13.0</ele><time>2026-04-08T09:28:52.394Z</time></trkpt><trkpt lat="43.9217967" lon="8.100175"><ele>12.999999999999998</ele><time>2026-04-08T09:28:54.291Z</time></trkpt><trkpt lat="43.9217617" lon="8.1000583"><ele>13.0</ele><time>2026-04-08T09:28:56.24Z</time></trkpt><trkpt lat="43.92174" lon="8.099955"><ele>13.0</ele><time>2026-04-08T09:28:58.255Z</time></trkpt><trkpt lat="43.92171" lon="8.0998417"><ele>13.0</ele><time>2026-04-08T09:29:00.333Z</time></trkpt><trkpt lat="43.921685" lon="8.0997333"><ele>12.999999999999998</ele><time>2026-04-08T09:29:02.346Z</time></trkpt><trkpt lat="43.9216617" lon="8.09963"><ele>13.0</ele><time>2026-04-08T09:29:04.299Z</time></trkpt><trkpt lat="43.921635" lon="8.0995233"><ele>12.333333333333332</ele><time>2026-04-08T09:29:06.289Z</time></trkpt><trkpt lat="43.921605" lon="8.0994133"><ele>11.666666666666666</ele><time>2026-04-08T09:29:09.313Z</time></trkpt><trkpt lat="43.92156" lon="8.0992883"><ele>11.0</ele><time>2026-04-08T09:29:12.237Z</time></trkpt><trkpt lat="43.9215367" lon="8.0991967"><ele>10.333333333333332</ele><time>2026-04-08T09:29:14.273Z</time></trkpt><trkpt lat="43.9215017" lon="8.0991"><ele>9.666666666666666</ele><time>2026-04-08T09:29:16.226Z</time></trkpt><trkpt lat="43.9214717" lon="8.099"><ele>9.0</ele><time>2026-04-08T09:29:18.263Z</time></trkpt><trkpt lat="43.9214533" lon="8.098895"><ele>9.0</ele><time>2026-04-08T09:29:20.287Z</time></trkpt><trkpt lat="43.9214283" lon="8.0987967"><ele>9.0</ele><time>2026-04-08T09:29:22.257Z</time></trkpt><trkpt lat="43.9214117" lon="8.09868"><ele>9.0</ele><time>2026-04-08T09:29:24.315Z</time></trkpt><trkpt lat="43.9213933" lon="8.09858"><ele>9.0</ele><time>2026-04-08T09:29:26.246Z</time></trkpt><trkpt lat="43.92138" lon="8.0984833"><ele>9.0</ele><time>2026-04-08T09:29:28.252Z</time></trkpt><trkpt lat="43.92134" lon="8.09837"><ele>9.0</ele><time>2026-04-08T09:29:31.242Z</time></trkpt><trkpt lat="43.9213017" lon="8.0982783"><ele>9.833333333333334</ele><time>2026-04-08T09:29:34.247Z</time></trkpt><trkpt lat="43.921265" lon="8.0981883"><ele>10.666666666666668</ele><time>2026-04-08T09:29:37.246Z</time></trkpt><trkpt lat="43.9212233" lon="8.09808"><ele>11.5</ele><time>2026-04-08T09:29:40.216Z</time></trkpt><trkpt lat="43.9211967" lon="8.098"><ele>12.333333333333334</ele><time>2026-04-08T09:29:42.236Z</time></trkpt><trkpt lat="43.921165" lon="8.0978867"><ele>13.166666666666668</ele><time>2026-04-08T09:29:45.267Z</time></trkpt><trkpt lat="43.9211367" lon="8.0977817"><ele>14.0</ele><time>2026-04-08T09:29:48.224Z</time></trkpt><trkpt lat="43.9211133" lon="8.0976567"><ele>14.000000000000002</ele><time>2026-04-08T09:29:51.207Z</time></trkpt><trkpt lat="43.921085" lon="8.0975683"><ele>14.0</ele><time>2026-04-08T09:29:53.292Z</time></trkpt><trkpt lat="43.921055" lon="8.097445"><ele>14.0</ele><time>2026-04-08T09:29:56.351Z</time></trkpt><trkpt lat="43.92102" lon="8.0973633"><ele>14.0</ele><time>2026-04-08T09:29:58.238Z</time></trkpt><trkpt lat="43.920985" lon="8.0972817"><ele>14.000000000000002</ele><time>2026-04-08T09:30:00.279Z</time></trkpt><trkpt lat="43.920945" lon="8.0971933"><ele>14.0</ele><time>2026-04-08T09:30:02.296Z</time></trkpt><trkpt lat="43.920905" lon="8.097095"><ele>14.0</ele><time>2026-04-08T09:30:04.217Z</time></trkpt><trkpt lat="43.920855" lon="8.09698"><ele>14.0</ele><time>2026-04-08T09:30:07.231Z</time></trkpt><trkpt lat="43.920825" lon="8.0968917"><ele>14.0</ele><time>2026-04-08T09:30:09.243Z</time></trkpt><trkpt lat="43.9207983" lon="8.0968067"><ele>14.0</ele><time>2026-04-08T09:30:11.219Z</time></trkpt><trkpt lat="43.9207683" lon="8.096725"><ele>14.0</ele><time>2026-04-08T09:30:13.244Z</time></trkpt><trkpt lat="43.9207267" lon="8.0966383"><ele>14.0</ele><time>2026-04-08T09:30:15.262Z</time></trkpt><trkpt lat="43.92068" lon="8.0965617"><ele>14.0</ele><time>2026-04-08T09:30:17.214Z</time></trkpt><trkpt lat="43.920635" lon="8.0964883"><ele>14.333333333333334</ele><time>2026-04-08T09:30:19.249Z</time></trkpt><trkpt lat="43.9205933" lon="8.0963817"><ele>14.666666666666668</ele><time>2026-04-08T09:30:22.233Z</time></trkpt><trkpt lat="43.9205417" lon="8.0963067"><ele>15.0</ele><time>2026-04-08T09:30:25.21Z</time></trkpt><trkpt lat="43.9205033" lon="8.09619"><ele>15.333333333333332</ele><time>2026-04-08T09:30:27.244Z</time></trkpt><trkpt lat="43.9204717" lon="8.096105"><ele>15.666666666666666</ele><time>2026-04-08T09:30:29.213Z</time></trkpt><trkpt lat="43.9204367" lon="8.09603"><ele>16.0</ele><time>2026-04-08T09:30:31.245Z</time></trkpt><trkpt lat="43.920395" lon="8.0959483"><ele>15.999999999999998</ele><time>2026-04-08T09:30:33.242Z</time></trkpt><trkpt lat="43.9203483" lon="8.095855"><ele>16.0</ele><time>2026-04-08T09:30:35.213Z</time></trkpt><trkpt lat="43.9203033" lon="8.095775"><ele>16.0</ele><time>2026-04-08T09:30:37.234Z</time></trkpt><trkpt lat="43.92026" lon="8.095685"><ele>16.0</ele><time>2026-04-08T09:30:39.315Z</time></trkpt><trkpt lat="43.9202117" lon="8.095595"><ele>15.999999999999998</ele><time>2026-04-08T09:30:41.211Z</time></trkpt><trkpt lat="43.9201717" lon="8.095495"><ele>16.0</ele><time>2026-04-08T09:30:43.254Z</time></trkpt><trkpt lat="43.9201283" lon="8.0953883"><ele>15.333333333333332</ele><time>2026-04-08T09:30:45.276Z</time></trkpt><trkpt lat="43.9200667" lon="8.09528"><ele>14.666666666666666</ele><time>2026-04-08T09:30:47.209Z</time></trkpt><trkpt lat="43.9200117" lon="8.0951867"><ele>14.0</ele><time>2026-04-08T09:30:49.233Z</time></trkpt><trkpt lat="43.9199717" lon="8.0950717"><ele>13.333333333333332</ele><time>2026-04-08T09:30:52.248Z</time></trkpt><trkpt lat="43.9199433" lon="8.0949867"><ele>12.666666666666666</ele><time>2026-04-08T09:30:54.213Z</time></trkpt><trkpt lat="43.9199067" lon="8.0949"><ele>12.0</ele><time>2026-04-08T09:30:56.289Z</time></trkpt><trkpt lat="43.9198683" lon="8.0948217"><ele>12.0</ele><time>2026-04-08T09:30:58.283Z</time></trkpt><trkpt lat="43.9198217" lon="8.0947383"><ele>12.0</ele><time>2026-04-08T09:31:00.257Z</time></trkpt><trkpt lat="43.9197767" lon="8.094635"><ele>12.0</ele><time>2026-04-08T09:31:03.255Z</time></trkpt><trkpt lat="43.919735" lon="8.0945267"><ele>12.0</ele><time>2026-04-08T09:31:06.219Z</time></trkpt><trkpt lat="43.9196983" lon="8.094445"><ele>12.0</ele><time>2026-04-08T09:31:08.313Z</time></trkpt><trkpt lat="43.9196517" lon="8.094355"><ele>12.0</ele><time>2026-04-08T09:31:10.239Z</time></trkpt><trkpt lat="43.9196067" lon="8.0942767"><ele>11.999999999999998</ele><time>2026-04-08T09:31:12.241Z</time></trkpt><trkpt lat="43.919565" lon="8.0942017"><ele>12.0</ele><time>2026-04-08T09:31:14.286Z</time></trkpt><trkpt lat="43.9195317" lon="8.0941267"><ele>12.0</ele><time>2026-04-08T09:31:16.315Z</time></trkpt><trkpt lat="43.919495" lon="8.0940233"><ele>12.0</ele><time>2026-04-08T09:31:18.259Z</time></trkpt><trkpt lat="43.9194567" lon="8.0939317"><ele>12.0</ele><time>2026-04-08T09:31:20.24Z</time></trkpt><trkpt lat="43.9194117" lon="8.093835"><ele>11.999999999999998</ele><time>2026-04-08T09:31:22.249Z</time></trkpt><trkpt lat="43.9193733" lon="8.093755"><ele>12.0</ele><time>2026-04-08T09:31:24.234Z</time></trkpt><trkpt lat="43.91933" lon="8.0936533"><ele>12.333333333333334</ele><time>2026-04-08T09:31:27.257Z</time></trkpt><trkpt lat="43.9192983" lon="8.0935767"><ele>12.666666666666668</ele><time>2026-04-08T09:31:29.22Z</time></trkpt><trkpt lat="43.9192683" lon="8.0934617"><ele>13.0</ele><time>2026-04-08T09:31:32.291Z</time></trkpt><trkpt lat="43.9192333" lon="8.09335"><ele>13.333333333333334</ele><time>2026-04-08T09:31:35.265Z</time></trkpt><trkpt lat="43.91919" lon="8.0932683"><ele>13.666666666666668</ele><time>2026-04-08T09:31:37.207Z</time></trkpt><trkpt lat="43.919145" lon="8.09318"><ele>14.0</ele><time>2026-04-08T09:31:39.267Z</time></trkpt><trkpt lat="43.919095" lon="8.0930667"><ele>13.000000000000002</ele><time>2026-04-08T09:31:42.249Z</time></trkpt><trkpt lat="43.9190467" lon="8.09299"><ele>12.0</ele><time>2026-04-08T09:31:44.456Z</time></trkpt><trkpt lat="43.9190067" lon="8.09291"><ele>11.0</ele><time>2026-04-08T09:31:46.245Z</time></trkpt><trkpt lat="43.91896" lon="8.0928317"><ele>10.0</ele><time>2026-04-08T09:31:48.253Z</time></trkpt><trkpt lat="43.9189183" lon="8.0927417"><ele>9.0</ele><time>2026-04-08T09:31:50.434Z</time></trkpt><trkpt lat="43.9188767" lon="8.0926433"><ele>8.0</ele><time>2026-04-08T09:31:52.213Z</time></trkpt><trkpt lat="43.9188383" lon="8.0925533"><ele>7.999999999999999</ele><time>2026-04-08T09:31:54.242Z</time></trkpt><trkpt lat="43.9187967" lon="8.092465"><ele>8.0</ele><time>2026-04-08T09:31:56.303Z</time></trkpt><trkpt lat="43.9187533" lon="8.0923767"><ele>8.0</ele><time>2026-04-08T09:31:58.326Z</time></trkpt><trkpt lat="43.918715" lon="8.09229"><ele>8.0</ele><time>2026-04-08T09:32:00.213Z</time></trkpt><trkpt lat="43.9186733" lon="8.092165"><ele>7.999999999999999</ele><time>2026-04-08T09:32:03.209Z</time></trkpt><trkpt lat="43.9186333" lon="8.0920817"><ele>8.0</ele><time>2026-04-08T09:32:05.241Z</time></trkpt><trkpt lat="43.9185933" lon="8.0920033"><ele>7.999999999999999</ele><time>2026-04-08T09:32:07.235Z</time></trkpt><trkpt lat="43.9185567" lon="8.0919183"><ele>8.0</ele><time>2026-04-08T09:32:09.221Z</time></trkpt><trkpt lat="43.9184983" lon="8.091845"><ele>8.0</ele><time>2026-04-08T09:32:11.249Z</time></trkpt><trkpt lat="43.9184517" lon="8.0917533"><ele>8.0</ele><time>2026-04-08T09:32:13.247Z</time></trkpt><trkpt lat="43.918405" lon="8.0916667"><ele>7.999999999999999</ele><time>2026-04-08T09:32:15.27Z</time></trkpt><trkpt lat="43.9183633" lon="8.0915833"><ele>8.0</ele><time>2026-04-08T09:32:17.231Z</time></trkpt><trkpt lat="43.9183183" lon="8.0915083"><ele>7.999999999999999</ele><time>2026-04-08T09:32:19.227Z</time></trkpt><trkpt lat="43.9182817" lon="8.0914233"><ele>8.0</ele><time>2026-04-08T09:32:21.245Z</time></trkpt><trkpt lat="43.91824" lon="8.0913467"><ele>8.0</ele><time>2026-04-08T09:32:23.248Z</time></trkpt><trkpt lat="43.9181883" lon="8.0912333"><ele>8.0</ele><time>2026-04-08T09:32:26.321Z</time></trkpt><trkpt lat="43.918135" lon="8.09113"><ele>7.999999999999999</ele><time>2026-04-08T09:32:29.289Z</time></trkpt><trkpt lat="43.9180867" lon="8.0910217"><ele>8.0</ele><time>2026-04-08T09:32:32.286Z</time></trkpt><trkpt lat="43.91805" lon="8.0909467"><ele>8.0</ele><time>2026-04-08T09:32:34.229Z</time></trkpt><trkpt lat="43.91801" lon="8.0908617"><ele>7.999999999999999</ele><time>2026-04-08T09:32:36.256Z</time></trkpt><trkpt lat="43.9179633" lon="8.0907817"><ele>8.0</ele><time>2026-04-08T09:32:38.265Z</time></trkpt><trkpt lat="43.9179217" lon="8.0907"><ele>8.0</ele><time>2026-04-08T09:32:40.251Z</time></trkpt><trkpt lat="43.917875" lon="8.0906233"><ele>7.999999999999999</ele><time>2026-04-08T09:32:42.235Z</time></trkpt><trkpt lat="43.917835" lon="8.0905417"><ele>8.0</ele><time>2026-04-08T09:32:44.282Z</time></trkpt><trkpt lat="43.9178" lon="8.090465"><ele>8.0</ele><time>2026-04-08T09:32:46.225Z</time></trkpt><trkpt lat="43.9177433" lon="8.0903767"><ele>7.999999999999999</ele><time>2026-04-08T09:32:49.22Z</time></trkpt><trkpt lat="43.917755" lon="8.090475"><ele>8.0</ele><time>2026-04-08T09:34:36.233Z</time></trkpt><trkpt lat="43.9177967" lon="8.0905467"><ele>8.0</ele><time>2026-04-08T09:34:38.358Z</time></trkpt><trkpt lat="43.9178483" lon="8.090615"><ele>8.0</ele><time>2026-04-08T09:34:40.221Z</time></trkpt><trkpt lat="43.9179033" lon="8.0907017"><ele>7.999999999999999</ele><time>2026-04-08T09:34:42.239Z</time></trkpt><trkpt lat="43.9179617" lon="8.0907967"><ele>8.0</ele><time>2026-04-08T09:34:44.318Z</time></trkpt><trkpt lat="43.9180233" lon="8.0908983"><ele>7.999999999999999</ele><time>2026-04-08T09:34:46.228Z</time></trkpt><trkpt lat="43.9180767" lon="8.090995"><ele>8.0</ele><time>2026-04-08T09:34:48.243Z</time></trkpt><trkpt lat="43.918135" lon="8.0910767"><ele>8.0</ele><time>2026-04-08T09:34:50.308Z</time></trkpt><trkpt lat="43.9181817" lon="8.0911617"><ele>8.0</ele><time>2026-04-08T09:34:52.277Z</time></trkpt><trkpt lat="43.9182133" lon="8.0912517"><ele>7.999999999999999</ele><time>2026-04-08T09:34:54.286Z</time></trkpt><trkpt lat="43.9182433" lon="8.09133"><ele>8.0</ele><time>2026-04-08T09:34:56.387Z</time></trkpt><trkpt lat="43.9182683" lon="8.091415"><ele>8.0</ele><time>2026-04-08T09:34:59.282Z</time></trkpt><trkpt lat="43.9182333" lon="8.0913267"><ele>7.999999999999999</ele><time>2026-04-08T09:35:05.274Z</time></trkpt><trkpt lat="43.9181883" lon="8.0912333"><ele>8.0</ele><time>2026-04-08T09:35:07.256Z</time></trkpt><trkpt lat="43.9181417" lon="8.0911383"><ele>8.0</ele><time>2026-04-08T09:35:09.244Z</time></trkpt><trkpt lat="43.9181017" lon="8.0910467"><ele>7.999999999999999</ele><time>2026-04-08T09:35:11.247Z</time></trkpt><trkpt lat="43.918065" lon="8.0909667"><ele>8.0</ele><time>2026-04-08T09:35:13.256Z</time></trkpt><trkpt lat="43.9180217" lon="8.090895"><ele>8.0</ele><time>2026-04-08T09:35:15.281Z</time></trkpt><trkpt lat="43.9179717" lon="8.0908183"><ele>7.999999999999999</ele><time>2026-04-08T09:35:17.251Z</time></trkpt><trkpt lat="43.9179333" lon="8.0907383"><ele>8.0</ele><time>2026-04-08T09:35:19.235Z</time></trkpt><trkpt lat="43.9178883" lon="8.09066"><ele>8.0</ele><time>2026-04-08T09:35:21.229Z</time></trkpt><trkpt lat="43.917845" lon="8.0905833"><ele>8.0</ele><time>2026-04-08T09:35:23.254Z</time></trkpt><trkpt lat="43.917795" lon="8.0904883"><ele>7.999999999999999</ele><time>2026-04-08T09:35:25.251Z</time></trkpt><trkpt lat="43.9177417" lon="8.0903883"><ele>8.0</ele><time>2026-04-08T09:35:27.288Z</time></trkpt><trkpt lat="43.9176867" lon="8.0902933"><ele>7.999999999999999</ele><time>2026-04-08T09:35:29.265Z</time></trkpt><trkpt lat="43.9176267" lon="8.0901983"><ele>8.0</ele><time>2026-04-08T09:35:31.233Z</time></trkpt><trkpt lat="43.917565" lon="8.09011"><ele>8.0</ele><time>2026-04-08T09:35:33.264Z</time></trkpt><trkpt lat="43.9175183" lon="8.0900483"><ele>8.0</ele><time>2026-04-08T09:35:35.262Z</time></trkpt><trkpt lat="43.9174567" lon="8.089965"><ele>7.999999999999999</ele><time>2026-04-08T09:35:38.301Z</time></trkpt><trkpt lat="43.9174017" lon="8.0898817"><ele>8.0</ele><time>2026-04-08T09:35:41.463Z</time></trkpt><trkpt lat="43.9173617" lon="8.0898117"><ele>7.833333333333333</ele><time>2026-04-08T09:35:43.302Z</time></trkpt><trkpt lat="43.9172983" lon="8.08971"><ele>7.666666666666666</ele><time>2026-04-08T09:35:46.253Z</time></trkpt><trkpt lat="43.9172533" lon="8.08964"><ele>7.5</ele><time>2026-04-08T09:35:48.249Z</time></trkpt><trkpt lat="43.917205" lon="8.089565"><ele>7.333333333333334</ele><time>2026-04-08T09:35:50.393Z</time></trkpt><trkpt lat="43.9171533" lon="8.0894883"><ele>7.166666666666667</ele><time>2026-04-08T09:35:52.288Z</time></trkpt><trkpt lat="43.9170833" lon="8.089395"><ele>7.0</ele><time>2026-04-08T09:35:55.231Z</time></trkpt><trkpt lat="43.917035" lon="8.0893217"><ele>7.000000000000001</ele><time>2026-04-08T09:35:57.236Z</time></trkpt><trkpt lat="43.9169833" lon="8.0892433"><ele>7.0</ele><time>2026-04-08T09:35:59.264Z</time></trkpt><trkpt lat="43.9169217" lon="8.0891667"><ele>7.0</ele><time>2026-04-08T09:36:01.302Z</time></trkpt><trkpt lat="43.916855" lon="8.0890883"><ele>7.0</ele><time>2026-04-08T09:36:03.233Z</time></trkpt><trkpt lat="43.9167967" lon="8.08901"><ele>7.000000000000001</ele><time>2026-04-08T09:36:05.234Z</time></trkpt><trkpt lat="43.9167483" lon="8.0889467"><ele>7.0</ele><time>2026-04-08T09:36:07.239Z</time></trkpt><trkpt lat="43.9167" lon="8.0888733"><ele>6.714285714285714</ele><time>2026-04-08T09:36:09.274Z</time></trkpt><trkpt lat="43.9166467" lon="8.0888033"><ele>6.428571428571429</ele><time>2026-04-08T09:36:11.261Z</time></trkpt><trkpt lat="43.9165933" lon="8.0887333"><ele>6.142857142857142</ele><time>2026-04-08T09:36:13.244Z</time></trkpt><trkpt lat="43.9165483" lon="8.0886533"><ele>5.857142857142858</ele><time>2026-04-08T09:36:15.231Z</time></trkpt><trkpt lat="43.9165" lon="8.08859"><ele>5.571428571428571</ele><time>2026-04-08T09:36:17.251Z</time></trkpt><trkpt lat="43.9164517" lon="8.08853"><ele>5.285714285714286</ele><time>2026-04-08T09:36:19.247Z</time></trkpt><trkpt lat="43.9163983" lon="8.088465"><ele>5.0</ele><time>2026-04-08T09:36:21.24Z</time></trkpt><trkpt lat="43.9163383" lon="8.0883933"><ele>5.0</ele><time>2026-04-08T09:36:23.24Z</time></trkpt><trkpt lat="43.9162767" lon="8.0883117"><ele>5.0</ele><time>2026-04-08T09:36:25.244Z</time></trkpt><trkpt lat="43.9162233" lon="8.0882267"><ele>5.0</ele><time>2026-04-08T09:36:27.259Z</time></trkpt><trkpt lat="43.9161733" lon="8.08816"><ele>5.0</ele><time>2026-04-08T09:36:29.251Z</time></trkpt><trkpt lat="43.9161183" lon="8.0880867"><ele>5.0</ele><time>2026-04-08T09:36:31.28Z</time></trkpt><trkpt lat="43.9160667" lon="8.08802"><ele>5.0</ele><time>2026-04-08T09:36:33.251Z</time></trkpt><trkpt lat="43.9160067" lon="8.0879333"><ele>5.0</ele><time>2026-04-08T09:36:36.236Z</time></trkpt><trkpt lat="43.9159483" lon="8.0878667"><ele>5.0</ele><time>2026-04-08T09:36:40.235Z</time></trkpt><trkpt lat="43.9158933" lon="8.0877917"><ele>5.0</ele><time>2026-04-08T09:36:43.251Z</time></trkpt><trkpt lat="43.9158467" lon="8.087725"><ele>5.0</ele><time>2026-04-08T09:36:45.211Z</time></trkpt><trkpt lat="43.9158017" lon="8.0876617"><ele>5.0</ele><time>2026-04-08T09:36:47.274Z</time></trkpt><trkpt lat="43.9157583" lon="8.087595"><ele>5.0</ele><time>2026-04-08T09:36:49.291Z</time></trkpt><trkpt lat="43.9156983" lon="8.0874933"><ele>5.0</ele><time>2026-04-08T09:36:52.219Z</time></trkpt><trkpt lat="43.9156533" lon="8.0874267"><ele>5.166666666666667</ele><time>2026-04-08T09:36:54.26Z</time></trkpt><trkpt lat="43.9156" lon="8.08735"><ele>5.333333333333334</ele><time>2026-04-08T09:36:56.317Z</time></trkpt><trkpt lat="43.9155433" lon="8.08726"><ele>5.5</ele><time>2026-04-08T09:36:58.208Z</time></trkpt><trkpt lat="43.9154917" lon="8.0871933"><ele>5.666666666666667</ele><time>2026-04-08T09:37:00.24Z</time></trkpt><trkpt lat="43.9154317" lon="8.08713"><ele>5.833333333333333</ele><time>2026-04-08T09:37:02.271Z</time></trkpt><trkpt lat="43.915375" lon="8.08707"><ele>6.0</ele><time>2026-04-08T09:37:04.206Z</time></trkpt><trkpt lat="43.91532" lon="8.087005"><ele>6.0</ele><time>2026-04-08T09:37:06.232Z</time></trkpt><trkpt lat="43.9152717" lon="8.0869483"><ele>6.0</ele><time>2026-04-08T09:37:08.308Z</time></trkpt><trkpt lat="43.91521" lon="8.086845"><ele>6.0</ele><time>2026-04-08T09:37:10.214Z</time></trkpt><trkpt lat="43.9151433" lon="8.0867417"><ele>6.0</ele><time>2026-04-08T09:37:12.247Z</time></trkpt><trkpt lat="43.9150733" lon="8.0866617"><ele>6.0</ele><time>2026-04-08T09:37:15.255Z</time></trkpt><trkpt lat="43.9150233" lon="8.0866"><ele>6.0</ele><time>2026-04-08T09:37:17.261Z</time></trkpt><trkpt lat="43.914965" lon="8.0865183"><ele>5.999999999999999</ele><time>2026-04-08T09:37:19.212Z</time></trkpt><trkpt lat="43.9149183" lon="8.0864483"><ele>6.0</ele><time>2026-04-08T09:37:21.232Z</time></trkpt><trkpt lat="43.9148683" lon="8.086345"><ele>6.0</ele><time>2026-04-08T09:37:24.241Z</time></trkpt><trkpt lat="43.9148167" lon="8.0862883"><ele>6.0</ele><time>2026-04-08T09:37:26.318Z</time></trkpt><trkpt lat="43.91476" lon="8.0862367"><ele>6.0</ele><time>2026-04-08T09:37:28.212Z</time></trkpt><trkpt lat="43.9147083" lon="8.0861733"><ele>5.999999999999999</ele><time>2026-04-08T09:37:30.256Z</time></trkpt><trkpt lat="43.9146483" lon="8.0860867"><ele>6.0</ele><time>2026-04-08T09:37:33.255Z</time></trkpt><trkpt lat="43.9145733" lon="8.0860217"><ele>6.0</ele><time>2026-04-08T09:37:36.223Z</time></trkpt><trkpt lat="43.9145267" lon="8.0859583"><ele>6.0</ele><time>2026-04-08T09:37:38.301Z</time></trkpt><trkpt lat="43.91448" lon="8.085895"><ele>6.0</ele><time>2026-04-08T09:37:40.206Z</time></trkpt><trkpt lat="43.9144167" lon="8.085825"><ele>6.0</ele><time>2026-04-08T09:37:42.262Z</time></trkpt><trkpt lat="43.9143483" lon="8.085725"><ele>6.0</ele><time>2026-04-08T09:37:44.253Z</time></trkpt><trkpt lat="43.9142917" lon="8.0856367"><ele>6.0</ele><time>2026-04-08T09:37:47.213Z</time></trkpt><trkpt lat="43.9142417" lon="8.0855767"><ele>6.0</ele><time>2026-04-08T09:37:49.236Z</time></trkpt><trkpt lat="43.9141917" lon="8.0854983"><ele>6.0</ele><time>2026-04-08T09:37:51.237Z</time></trkpt><trkpt lat="43.914135" lon="8.085425"><ele>6.0</ele><time>2026-04-08T09:37:53.249Z</time></trkpt><trkpt lat="43.9140783" lon="8.085345"><ele>6.0</ele><time>2026-04-08T09:37:55.234Z</time></trkpt><trkpt lat="43.9140233" lon="8.0852667"><ele>6.0</ele><time>2026-04-08T09:37:57.243Z</time></trkpt><trkpt lat="43.9139617" lon="8.0851883"><ele>6.0</ele><time>2026-04-08T09:37:59.372Z</time></trkpt><trkpt lat="43.9139033" lon="8.08511"><ele>6.0</ele><time>2026-04-08T09:38:01.234Z</time></trkpt><trkpt lat="43.9138417" lon="8.0850183"><ele>6.0</ele><time>2026-04-08T09:38:03.259Z</time></trkpt><trkpt lat="43.913785" lon="8.08492"><ele>6.0</ele><time>2026-04-08T09:38:05.21Z</time></trkpt><trkpt lat="43.9137217" lon="8.0848433"><ele>6.0</ele><time>2026-04-08T09:38:07.248Z</time></trkpt><trkpt lat="43.9136567" lon="8.0847517"><ele>6.0</ele><time>2026-04-08T09:38:09.219Z</time></trkpt><trkpt lat="43.9136117" lon="8.084685"><ele>6.0</ele><time>2026-04-08T09:38:10.279Z</time></trkpt><trkpt lat="43.91357" lon="8.0845933"><ele>6.0</ele><time>2026-04-08T09:38:11.246Z</time></trkpt><trkpt lat="43.9135267" lon="8.0844783"><ele>6.0</ele><time>2026-04-08T09:38:13.244Z</time></trkpt><trkpt lat="43.9134767" lon="8.0843983"><ele>6.0</ele><time>2026-04-08T09:38:16.212Z</time></trkpt><trkpt lat="43.913415" lon="8.0843233"><ele>6.0</ele><time>2026-04-08T09:38:19.216Z</time></trkpt><trkpt lat="43.9133633" lon="8.0842617"><ele>6.0</ele><time>2026-04-08T09:38:21.265Z</time></trkpt><trkpt lat="43.9133117" lon="8.0841883"><ele>6.0</ele><time>2026-04-08T09:38:24.227Z</time></trkpt><trkpt lat="43.9132533" lon="8.08412"><ele>6.0</ele><time>2026-04-08T09:39:38.373Z</time></trkpt><trkpt lat="43.9131833" lon="8.0840333"><ele>6.0</ele><time>2026-04-08T09:39:42.241Z</time></trkpt><trkpt lat="43.913125" lon="8.0839617"><ele>6.0</ele><time>2026-04-08T09:39:44.289Z</time></trkpt><trkpt lat="43.91306" lon="8.0838617"><ele>6.0</ele><time>2026-04-08T09:39:46.21Z</time></trkpt><trkpt lat="43.912985" lon="8.083735"><ele>6.0</ele><time>2026-04-08T09:39:48.231Z</time></trkpt><trkpt lat="43.9129133" lon="8.0836183"><ele>6.0</ele><time>2026-04-08T09:39:50.286Z</time></trkpt><trkpt lat="43.912845" lon="8.0835"><ele>6.0</ele><time>2026-04-08T09:39:52.204Z</time></trkpt><trkpt lat="43.9127783" lon="8.08337"><ele>6.0</ele><time>2026-04-08T09:39:54.199Z</time></trkpt><trkpt lat="43.912715" lon="8.0832467"><ele>6.0</ele><time>2026-04-08T09:39:56.292Z</time></trkpt><trkpt lat="43.9126633" lon="8.0831617"><ele>6.0</ele><time>2026-04-08T09:39:58.217Z</time></trkpt><trkpt lat="43.912625" lon="8.0830833"><ele>6.0</ele><time>2026-04-08T09:40:00.227Z</time></trkpt><trkpt lat="43.9125917" lon="8.0830017"><ele>6.0</ele><time>2026-04-08T09:40:03.219Z</time></trkpt><trkpt lat="43.91254" lon="8.0829067"><ele>6.0</ele><time>2026-04-08T09:40:07.237Z</time></trkpt><trkpt lat="43.9125017" lon="8.0828233"><ele>6.0</ele><time>2026-04-08T09:40:09.241Z</time></trkpt><trkpt lat="43.9124533" lon="8.08273"><ele>6.0</ele><time>2026-04-08T09:40:11.213Z</time></trkpt><trkpt lat="43.9123983" lon="8.0826217"><ele>6.0</ele><time>2026-04-08T09:40:13.213Z</time></trkpt><trkpt lat="43.9123367" lon="8.0825"><ele>5.75</ele><time>2026-04-08T09:40:15.205Z</time></trkpt><trkpt lat="43.9122733" lon="8.0823783"><ele>5.5</ele><time>2026-04-08T09:40:17.206Z</time></trkpt><trkpt lat="43.912205" lon="8.0822517"><ele>5.25</ele><time>2026-04-08T09:40:19.29Z</time></trkpt><trkpt lat="43.9121367" lon="8.0821183"><ele>5.0</ele><time>2026-04-08T09:40:21.217Z</time></trkpt><trkpt lat="43.9120667" lon="8.0819883"><ele>5.0</ele><time>2026-04-08T09:40:23.212Z</time></trkpt><trkpt lat="43.9120033" lon="8.0818517"><ele>5.0</ele><time>2026-04-08T09:40:25.211Z</time></trkpt><trkpt lat="43.9119383" lon="8.08172"><ele>5.0</ele><time>2026-04-08T09:40:27.306Z</time></trkpt><trkpt lat="43.9118767" lon="8.0816"><ele>5.0</ele><time>2026-04-08T09:40:29.249Z</time></trkpt><trkpt lat="43.911825" lon="8.081495"><ele>5.0</ele><time>2026-04-08T09:40:31.207Z</time></trkpt><trkpt lat="43.91178" lon="8.0814"><ele>5.166666666666667</ele><time>2026-04-08T09:40:33.28Z</time></trkpt><trkpt lat="43.9117317" lon="8.08133"><ele>5.333333333333334</ele><time>2026-04-08T09:40:35.224Z</time></trkpt><trkpt lat="43.9116533" lon="8.0813267"><ele>5.5</ele><time>2026-04-08T09:40:39.225Z</time></trkpt><trkpt lat="43.9115767" lon="8.0812883"><ele>5.666666666666667</ele><time>2026-04-08T09:40:42.211Z</time></trkpt><trkpt lat="43.9115383" lon="8.0812167"><ele>5.833333333333333</ele><time>2026-04-08T09:40:45.216Z</time></trkpt><trkpt lat="43.911485" lon="8.0811667"><ele>6.0</ele><time>2026-04-08T09:40:48.206Z</time></trkpt><trkpt lat="43.9114283" lon="8.081065"><ele>6.0</ele><time>2026-04-08T09:40:51.216Z</time></trkpt><trkpt lat="43.9114" lon="8.0809833"><ele>6.0</ele><time>2026-04-08T09:40:53.245Z</time></trkpt><trkpt lat="43.9113783" lon="8.0808717"><ele>6.0</ele><time>2026-04-08T09:40:55.233Z</time></trkpt><trkpt lat="43.9113183" lon="8.0807817"><ele>6.0</ele><time>2026-04-08T09:40:58.215Z</time></trkpt><trkpt lat="43.9112667" lon="8.080725"><ele>6.0</ele><time>2026-04-08T09:41:01.215Z</time></trkpt><trkpt lat="43.9112267" lon="8.0806467"><ele>6.0</ele><time>2026-04-08T09:41:04.235Z</time></trkpt><trkpt lat="43.9112067" lon="8.080535"><ele>6.0</ele><time>2026-04-08T09:41:07.221Z</time></trkpt><trkpt lat="43.9111417" lon="8.0804683"><ele>6.0</ele><time>2026-04-08T09:41:09.216Z</time></trkpt><trkpt lat="43.9110617" lon="8.0804017"><ele>6.0</ele><time>2026-04-08T09:41:11.218Z</time></trkpt><trkpt lat="43.9109933" lon="8.0803517"><ele>6.0</ele><time>2026-04-08T09:41:13.218Z</time></trkpt><trkpt lat="43.9109383" lon="8.0802967"><ele>6.0</ele><time>2026-04-08T09:41:15.212Z</time></trkpt><trkpt lat="43.9108917" lon="8.08023"><ele>6.0</ele><time>2026-04-08T09:41:17.218Z</time></trkpt><trkpt lat="43.91087" lon="8.0801383"><ele>6.0</ele><time>2026-04-08T09:41:19.243Z</time></trkpt><trkpt lat="43.910865" lon="8.0800083"><ele>6.0</ele><time>2026-04-08T09:41:22.251Z</time></trkpt><trkpt lat="43.91083" lon="8.079915"><ele>6.0</ele><time>2026-04-08T09:41:24.201Z</time></trkpt><trkpt lat="43.9107883" lon="8.0798083"><ele>6.0</ele><time>2026-04-08T09:41:26.248Z</time></trkpt><trkpt lat="43.9107383" lon="8.079745"><ele>6.0</ele><time>2026-04-08T09:41:28.218Z</time></trkpt><trkpt lat="43.9106883" lon="8.079685"><ele>6.0</ele><time>2026-04-08T09:41:30.22Z</time></trkpt><trkpt lat="43.9106333" lon="8.079625"><ele>5.833333333333333</ele><time>2026-04-08T09:41:32.253Z</time></trkpt><trkpt lat="43.910585" lon="8.0795483"><ele>5.666666666666667</ele><time>2026-04-08T09:41:34.342Z</time></trkpt><trkpt lat="43.9105333" lon="8.0794467"><ele>5.5</ele><time>2026-04-08T09:41:37.236Z</time></trkpt><trkpt lat="43.9104683" lon="8.0793617"><ele>5.333333333333334</ele><time>2026-04-08T09:41:40.249Z</time></trkpt><trkpt lat="43.9104183" lon="8.0792933"><ele>5.166666666666667</ele><time>2026-04-08T09:41:42.326Z</time></trkpt><trkpt lat="43.9103633" lon="8.0792117"><ele>5.0</ele><time>2026-04-08T09:41:44.259Z</time></trkpt><trkpt lat="43.9103017" lon="8.07912"><ele>5.0</ele><time>2026-04-08T09:41:46.227Z</time></trkpt><trkpt lat="43.9102467" lon="8.07905"><ele>5.0</ele><time>2026-04-08T09:41:48.243Z</time></trkpt><trkpt lat="43.91018" lon="8.0789983"><ele>5.0</ele><time>2026-04-08T09:41:50.271Z</time></trkpt><trkpt lat="43.9101217" lon="8.0789433"><ele>5.0</ele><time>2026-04-08T09:41:52.281Z</time></trkpt><trkpt lat="43.9100633" lon="8.07889"><ele>5.0</ele><time>2026-04-08T09:41:54.29Z</time></trkpt><trkpt lat="43.9100017" lon="8.07882"><ele>5.0</ele><time>2026-04-08T09:41:56.242Z</time></trkpt><trkpt lat="43.9099333" lon="8.078745"><ele>5.0</ele><time>2026-04-08T09:41:58.208Z</time></trkpt><trkpt lat="43.90987" lon="8.0786983"><ele>5.0</ele><time>2026-04-08T09:42:00.3Z</time></trkpt><trkpt lat="43.909805" lon="8.07865"><ele>5.0</ele><time>2026-04-08T09:42:03.271Z</time></trkpt><trkpt lat="43.9097533" lon="8.0785783"><ele>5.0</ele><time>2026-04-08T09:42:05.213Z</time></trkpt><trkpt lat="43.9096933" lon="8.078515"><ele>5.0</ele><time>2026-04-08T09:42:07.216Z</time></trkpt><trkpt lat="43.9096433" lon="8.0784583"><ele>5.0</ele><time>2026-04-08T09:42:09.24Z</time></trkpt><trkpt lat="43.9095867" lon="8.0784117"><ele>5.0</ele><time>2026-04-08T09:42:11.212Z</time></trkpt><trkpt lat="43.9095217" lon="8.07836"><ele>5.0</ele><time>2026-04-08T09:42:13.232Z</time></trkpt><trkpt lat="43.90946" lon="8.078305"><ele>5.0</ele><time>2026-04-08T09:42:15.329Z</time></trkpt><trkpt lat="43.9093833" lon="8.07825"><ele>5.0</ele><time>2026-04-08T09:42:17.213Z</time></trkpt><trkpt lat="43.9093283" lon="8.0782067"><ele>5.0</ele><time>2026-04-08T09:42:19.224Z</time></trkpt><trkpt lat="43.909265" lon="8.078155"><ele>5.0</ele><time>2026-04-08T09:42:21.25Z</time></trkpt><trkpt lat="43.9092033" lon="8.0781"><ele>5.0</ele><time>2026-04-08T09:42:23.219Z</time></trkpt><trkpt lat="43.9091433" lon="8.07805"><ele>5.0</ele><time>2026-04-08T09:42:25.22Z</time></trkpt><trkpt lat="43.9090883" lon="8.078"><ele>5.285714285714286</ele><time>2026-04-08T09:42:27.267Z</time></trkpt><trkpt lat="43.9090217" lon="8.0779517"><ele>5.571428571428571</ele><time>2026-04-08T09:42:29.214Z</time></trkpt><trkpt lat="43.9089567" lon="8.077905"><ele>5.857142857142858</ele><time>2026-04-08T09:42:31.246Z</time></trkpt><trkpt lat="43.9088917" lon="8.0778517"><ele>6.142857142857142</ele><time>2026-04-08T09:42:33.236Z</time></trkpt><trkpt lat="43.90883" lon="8.0778083"><ele>6.428571428571429</ele><time>2026-04-08T09:42:35.209Z</time></trkpt><trkpt lat="43.9087667" lon="8.0777533"><ele>6.714285714285714</ele><time>2026-04-08T09:42:37.266Z</time></trkpt><trkpt lat="43.9087117" lon="8.07771"><ele>7.0</ele><time>2026-04-08T09:42:39.209Z</time></trkpt><trkpt lat="43.90865" lon="8.0776717"><ele>7.0</ele><time>2026-04-08T09:42:41.247Z</time></trkpt><trkpt lat="43.9085867" lon="8.0776367"><ele>7.0</ele><time>2026-04-08T09:42:43.297Z</time></trkpt><trkpt lat="43.9085233" lon="8.0776067"><ele>7.0</ele><time>2026-04-08T09:42:45.289Z</time></trkpt><trkpt lat="43.9084583" lon="8.077575"><ele>7.0</ele><time>2026-04-08T09:42:47.242Z</time></trkpt><trkpt lat="43.90839" lon="8.07754"><ele>7.0</ele><time>2026-04-08T09:42:49.247Z</time></trkpt><trkpt lat="43.9083267" lon="8.0775017"><ele>7.0</ele><time>2026-04-08T09:42:51.271Z</time></trkpt><trkpt lat="43.908265" lon="8.0774583"><ele>7.0</ele><time>2026-04-08T09:42:53.226Z</time></trkpt><trkpt lat="43.9081233" lon="8.0773717"><ele>6.833333333333334</ele><time>2026-04-08T09:42:57.271Z</time></trkpt><trkpt lat="43.9080533" lon="8.0773233"><ele>6.666666666666667</ele><time>2026-04-08T09:42:59.323Z</time></trkpt><trkpt lat="43.9079667" lon="8.07727"><ele>6.5</ele><time>2026-04-08T09:43:02.28Z</time></trkpt><trkpt lat="43.9078933" lon="8.0772367"><ele>6.333333333333334</ele><time>2026-04-08T09:43:04.269Z</time></trkpt><trkpt lat="43.9078317" lon="8.0771967"><ele>6.166666666666667</ele><time>2026-04-08T09:43:06.267Z</time></trkpt><trkpt lat="43.90775" lon="8.077155"><ele>6.0</ele><time>2026-04-08T09:43:08.307Z</time></trkpt><trkpt lat="43.9076783" lon="8.0771317"><ele>6.0</ele><time>2026-04-08T09:43:10.246Z</time></trkpt><trkpt lat="43.9076083" lon="8.0771017"><ele>6.0</ele><time>2026-04-08T09:43:12.246Z</time></trkpt><trkpt lat="43.90753" lon="8.0770717"><ele>6.0</ele><time>2026-04-08T09:43:14.31Z</time></trkpt><trkpt lat="43.9074533" lon="8.07704"><ele>6.0</ele><time>2026-04-08T09:43:16.251Z</time></trkpt><trkpt lat="43.9073767" lon="8.0770017"><ele>6.0</ele><time>2026-04-08T09:43:18.214Z</time></trkpt><trkpt lat="43.9073017" lon="8.0769683"><ele>6.0</ele><time>2026-04-08T09:43:20.305Z</time></trkpt><trkpt lat="43.9072317" lon="8.076955"><ele>6.0</ele><time>2026-04-08T09:43:22.273Z</time></trkpt><trkpt lat="43.9071667" lon="8.0769567"><ele>6.0</ele><time>2026-04-08T09:43:24.252Z</time></trkpt><trkpt lat="43.90709" lon="8.076955"><ele>6.0</ele><time>2026-04-08T09:43:27.314Z</time></trkpt><trkpt lat="43.9070333" lon="8.0768967"><ele>6.0</ele><time>2026-04-08T09:43:30.217Z</time></trkpt><trkpt lat="43.9069483" lon="8.0768283"><ele>6.0</ele><time>2026-04-08T09:43:33.286Z</time></trkpt><trkpt lat="43.9068767" lon="8.0768"><ele>6.0</ele><time>2026-04-08T09:43:35.383Z</time></trkpt><trkpt lat="43.90677" lon="8.0767683"><ele>5.833333333333333</ele><time>2026-04-08T09:43:38.347Z</time></trkpt><trkpt lat="43.9066967" lon="8.0767383"><ele>5.666666666666667</ele><time>2026-04-08T09:43:40.317Z</time></trkpt><trkpt lat="43.9066217" lon="8.0767183"><ele>5.5</ele><time>2026-04-08T09:43:42.31Z</time></trkpt><trkpt lat="43.9065483" lon="8.0767017"><ele>5.333333333333334</ele><time>2026-04-08T09:43:44.363Z</time></trkpt><trkpt lat="43.9064817" lon="8.0766883"><ele>5.166666666666667</ele><time>2026-04-08T09:43:46.282Z</time></trkpt><trkpt lat="43.9064033" lon="8.0766783"><ele>5.0</ele><time>2026-04-08T09:43:48.331Z</time></trkpt><trkpt lat="43.9063167" lon="8.0766633"><ele>5.0</ele><time>2026-04-08T09:43:50.354Z</time></trkpt><trkpt lat="43.90625" lon="8.07667"><ele>5.0</ele><time>2026-04-08T09:43:52.277Z</time></trkpt><trkpt lat="43.9061817" lon="8.0766583"><ele>5.0</ele><time>2026-04-08T09:43:55.284Z</time></trkpt><trkpt lat="43.9061117" lon="8.0766533"><ele>5.0</ele><time>2026-04-08T09:43:57.334Z</time></trkpt><trkpt lat="43.9060417" lon="8.07664"><ele>5.0</ele><time>2026-04-08T09:43:59.235Z</time></trkpt><trkpt lat="43.9059517" lon="8.0766233"><ele>5.0</ele><time>2026-04-08T09:44:02.328Z</time></trkpt><trkpt lat="43.9058617" lon="8.0766183"><ele>5.833333333333334</ele><time>2026-04-08T09:44:05.249Z</time></trkpt><trkpt lat="43.9057683" lon="8.076595"><ele>6.666666666666667</ele><time>2026-04-08T09:44:08.301Z</time></trkpt><trkpt lat="43.905685" lon="8.0765633"><ele>7.5</ele><time>2026-04-08T09:44:11.237Z</time></trkpt><trkpt lat="43.9056083" lon="8.076555"><ele>8.333333333333334</ele><time>2026-04-08T09:44:13.267Z</time></trkpt><trkpt lat="43.9055317" lon="8.0765383"><ele>9.166666666666668</ele><time>2026-04-08T09:44:15.232Z</time></trkpt><trkpt lat="43.9054583" lon="8.0765233"><ele>10.0</ele><time>2026-04-08T09:44:17.269Z</time></trkpt><trkpt lat="43.9053867" lon="8.076505"><ele>10.0</ele><time>2026-04-08T09:44:19.233Z</time></trkpt><trkpt lat="43.9053133" lon="8.0764883"><ele>10.0</ele><time>2026-04-08T09:44:21.244Z</time></trkpt><trkpt lat="43.9052383" lon="8.0764717"><ele>10.0</ele><time>2026-04-08T09:44:23.25Z</time></trkpt><trkpt lat="43.905165" lon="8.0764633"><ele>10.0</ele><time>2026-04-08T09:44:25.215Z</time></trkpt><trkpt lat="43.9050917" lon="8.076455"><ele>10.0</ele><time>2026-04-08T09:44:27.278Z</time></trkpt><trkpt lat="43.9050183" lon="8.076445"><ele>10.0</ele><time>2026-04-08T09:44:29.282Z</time></trkpt><trkpt lat="43.9049433" lon="8.0764317"><ele>10.0</ele><time>2026-04-08T09:44:31.229Z</time></trkpt><trkpt lat="43.9048733" lon="8.07643"><ele>10.857142857142858</ele><time>2026-04-08T09:44:33.265Z</time></trkpt><trkpt lat="43.9047983" lon="8.0764217"><ele>11.714285714285715</ele><time>2026-04-08T09:44:35.262Z</time></trkpt><trkpt lat="43.9047183" lon="8.076405"><ele>12.571428571428571</ele><time>2026-04-08T09:44:37.269Z</time></trkpt><trkpt lat="43.9046383" lon="8.076385"><ele>13.428571428571427</ele><time>2026-04-08T09:44:40.261Z</time></trkpt><trkpt lat="43.904575" lon="8.0763833"><ele>14.285714285714285</ele><time>2026-04-08T09:44:42.253Z</time></trkpt><trkpt lat="43.90451" lon="8.0763783"><ele>15.142857142857142</ele><time>2026-04-08T09:44:44.259Z</time></trkpt><trkpt lat="43.9044367" lon="8.0763617"><ele>16.0</ele><time>2026-04-08T09:44:46.24Z</time></trkpt><trkpt lat="43.9043633" lon="8.076345"><ele>16.0</ele><time>2026-04-08T09:44:48.32Z</time></trkpt><trkpt lat="43.90429" lon="8.0763333"><ele>15.999999999999998</ele><time>2026-04-08T09:44:50.248Z</time></trkpt><trkpt lat="43.9042217" lon="8.0763183"><ele>16.0</ele><time>2026-04-08T09:44:52.246Z</time></trkpt><trkpt lat="43.9041433" lon="8.0763017"><ele>16.0</ele><time>2026-04-08T09:44:55.222Z</time></trkpt><trkpt lat="43.90408" lon="8.0763033"><ele>15.999999999999998</ele><time>2026-04-08T09:44:58.273Z</time></trkpt><trkpt lat="43.904015" lon="8.0762883"><ele>16.0</ele><time>2026-04-08T09:45:02.297Z</time></trkpt><trkpt lat="43.903935" lon="8.076275"><ele>16.0</ele><time>2026-04-08T09:45:05.255Z</time></trkpt><trkpt lat="43.9038417" lon="8.07625"><ele>15.428571428571427</ele><time>2026-04-08T09:45:08.262Z</time></trkpt><trkpt lat="43.9037733" lon="8.0762267"><ele>14.857142857142856</ele><time>2026-04-08T09:45:10.234Z</time></trkpt><trkpt lat="43.9037067" lon="8.0762067"><ele>14.285714285714285</ele><time>2026-04-08T09:45:12.254Z</time></trkpt><trkpt lat="43.90364" lon="8.0761817"><ele>13.714285714285714</ele><time>2026-04-08T09:45:14.256Z</time></trkpt><trkpt lat="43.9035683" lon="8.076165"><ele>13.142857142857142</ele><time>2026-04-08T09:45:16.255Z</time></trkpt><trkpt lat="43.9034967" lon="8.0761533"><ele>12.57142857142857</ele><time>2026-04-08T09:45:18.217Z</time></trkpt><trkpt lat="43.90343" lon="8.0761467"><ele>12.0</ele><time>2026-04-08T09:45:20.26Z</time></trkpt><trkpt lat="43.903365" lon="8.0761383"><ele>11.571428571428571</ele><time>2026-04-08T09:45:22.249Z</time></trkpt><trkpt lat="43.9032983" lon="8.0761233"><ele>11.142857142857142</ele><time>2026-04-08T09:45:24.257Z</time></trkpt><trkpt lat="43.90323" lon="8.0761017"><ele>10.714285714285715</ele><time>2026-04-08T09:45:26.275Z</time></trkpt><trkpt lat="43.9031533" lon="8.0760733"><ele>10.285714285714285</ele><time>2026-04-08T09:45:28.218Z</time></trkpt><trkpt lat="43.9030817" lon="8.07607"><ele>9.857142857142858</ele><time>2026-04-08T09:45:30.238Z</time></trkpt><trkpt lat="43.9030067" lon="8.0760783"><ele>9.428571428571429</ele><time>2026-04-08T09:45:32.339Z</time></trkpt><trkpt lat="43.9029267" lon="8.0760717"><ele>9.0</ele><time>2026-04-08T09:45:34.234Z</time></trkpt><trkpt lat="43.9028533" lon="8.076065"><ele>9.0</ele><time>2026-04-08T09:45:36.231Z</time></trkpt><trkpt lat="43.9027767" lon="8.0760583"><ele>9.0</ele><time>2026-04-08T09:45:38.296Z</time></trkpt><trkpt lat="43.9027033" lon="8.076055"><ele>9.0</ele><time>2026-04-08T09:45:40.254Z</time></trkpt><trkpt lat="43.9026283" lon="8.0760517"><ele>9.0</ele><time>2026-04-08T09:45:42.245Z</time></trkpt><trkpt lat="43.9025583" lon="8.0760383"><ele>9.0</ele><time>2026-04-08T09:45:44.281Z</time></trkpt><trkpt lat="43.902485" lon="8.0760367"><ele>9.0</ele><time>2026-04-08T09:45:46.234Z</time></trkpt><trkpt lat="43.9024033" lon="8.0760383"><ele>9.0</ele><time>2026-04-08T09:45:48.25Z</time></trkpt><trkpt lat="43.902285" lon="8.07605"><ele>9.0</ele><time>2026-04-08T09:45:51.301Z</time></trkpt><trkpt lat="43.902205" lon="8.076065"><ele>9.0</ele><time>2026-04-08T09:45:53.251Z</time></trkpt><trkpt lat="43.9021283" lon="8.0760833"><ele>9.0</ele><time>2026-04-08T09:45:55.267Z</time></trkpt><trkpt lat="43.9020517" lon="8.0761033"><ele>9.0</ele><time>2026-04-08T09:45:57.267Z</time></trkpt><trkpt lat="43.9019717" lon="8.0761233"><ele>9.0</ele><time>2026-04-08T09:45:59.256Z</time></trkpt><trkpt lat="43.90189" lon="8.0761367"><ele>9.0</ele><time>2026-04-08T09:46:01.222Z</time></trkpt><trkpt lat="43.90181" lon="8.0761533"><ele>9.0</ele><time>2026-04-08T09:46:03.253Z</time></trkpt><trkpt lat="43.9017317" lon="8.0761733"><ele>9.0</ele><time>2026-04-08T09:46:05.246Z</time></trkpt><trkpt lat="43.9016517" lon="8.0761933"><ele>9.0</ele><time>2026-04-08T09:46:07.268Z</time></trkpt><trkpt lat="43.9015833" lon="8.0762167"><ele>9.0</ele><time>2026-04-08T09:46:09.26Z</time></trkpt><trkpt lat="43.9015167" lon="8.0762383"><ele>9.0</ele><time>2026-04-08T09:46:11.245Z</time></trkpt><trkpt lat="43.901445" lon="8.0762583"><ele>10.166666666666666</ele><time>2026-04-08T09:46:14.287Z</time></trkpt><trkpt lat="43.901375" lon="8.0762633"><ele>11.333333333333332</ele><time>2026-04-08T09:46:38.269Z</time></trkpt><trkpt lat="43.9013133" lon="8.0762333"><ele>12.5</ele><time>2026-04-08T09:48:26.242Z</time></trkpt><trkpt lat="43.901245" lon="8.076295"><ele>13.666666666666666</ele><time>2026-04-08T09:48:30.272Z</time></trkpt><trkpt lat="43.9011717" lon="8.0763467"><ele>14.833333333333332</ele><time>2026-04-08T09:48:33.244Z</time></trkpt><trkpt lat="43.9011067" lon="8.0764083"><ele>16.0</ele><time>2026-04-08T09:48:35.282Z</time></trkpt><trkpt lat="43.901035" lon="8.0764683"><ele>15.999999999999998</ele><time>2026-04-08T09:48:37.269Z</time></trkpt><trkpt lat="43.900965" lon="8.0765183"><ele>16.0</ele><time>2026-04-08T09:48:39.231Z</time></trkpt><trkpt lat="43.9009067" lon="8.07656"><ele>16.0</ele><time>2026-04-08T09:48:41.242Z</time></trkpt><trkpt lat="43.9008417" lon="8.076595"><ele>16.0</ele><time>2026-04-08T09:48:43.239Z</time></trkpt><trkpt lat="43.9007683" lon="8.07665"><ele>15.999999999999998</ele><time>2026-04-08T09:48:45.253Z</time></trkpt><trkpt lat="43.9007017" lon="8.0767117"><ele>16.0</ele><time>2026-04-08T09:48:47.255Z</time></trkpt><trkpt lat="43.900625" lon="8.076765"><ele>15.333333333333332</ele><time>2026-04-08T09:48:49.261Z</time></trkpt><trkpt lat="43.900545" lon="8.0768233"><ele>14.666666666666666</ele><time>2026-04-08T09:48:51.259Z</time></trkpt><trkpt lat="43.9004667" lon="8.0768683"><ele>14.0</ele><time>2026-04-08T09:48:53.243Z</time></trkpt><trkpt lat="43.900405" lon="8.0769183"><ele>13.333333333333332</ele><time>2026-04-08T09:48:55.266Z</time></trkpt><trkpt lat="43.9003417" lon="8.0769667"><ele>12.666666666666666</ele><time>2026-04-08T09:48:57.26Z</time></trkpt><trkpt lat="43.9002717" lon="8.07703"><ele>12.0</ele><time>2026-04-08T09:49:00.234Z</time></trkpt><trkpt lat="43.9002133" lon="8.0770783"><ele>12.0</ele><time>2026-04-08T09:49:02.247Z</time></trkpt><trkpt lat="43.9001233" lon="8.0771233"><ele>12.0</ele><time>2026-04-08T09:49:04.239Z</time></trkpt><trkpt lat="43.90005" lon="8.0772367"><ele>12.0</ele><time>2026-04-08T09:49:38.33Z</time></trkpt><trkpt lat="43.8999767" lon="8.0772883"><ele>12.0</ele><time>2026-04-08T09:49:43.245Z</time></trkpt><trkpt lat="43.8999183" lon="8.0773467"><ele>12.0</ele><time>2026-04-08T09:49:45.235Z</time></trkpt><trkpt lat="43.899845" lon="8.0774033"><ele>12.0</ele><time>2026-04-08T09:49:48.274Z</time></trkpt><trkpt lat="43.89977" lon="8.0774717"><ele>11.5</ele><time>2026-04-08T09:49:51.257Z</time></trkpt><trkpt lat="43.8997" lon="8.07755"><ele>11.0</ele><time>2026-04-08T09:49:54.264Z</time></trkpt><trkpt lat="43.8996433" lon="8.0776083"><ele>10.5</ele><time>2026-04-08T09:49:56.306Z</time></trkpt><trkpt lat="43.8995867" lon="8.0776883"><ele>10.0</ele><time>2026-04-08T09:49:59.236Z</time></trkpt><trkpt lat="43.8995083" lon="8.0777617"><ele>9.5</ele><time>2026-04-08T09:50:02.289Z</time></trkpt><trkpt lat="43.899455" lon="8.0778117"><ele>9.0</ele><time>2026-04-08T09:50:04.218Z</time></trkpt><trkpt lat="43.89939" lon="8.0778683"><ele>9.0</ele><time>2026-04-08T09:50:06.244Z</time></trkpt><trkpt lat="43.8993183" lon="8.0779417"><ele>9.0</ele><time>2026-04-08T09:50:08.285Z</time></trkpt><trkpt lat="43.8992483" lon="8.0779983"><ele>9.0</ele><time>2026-04-08T09:50:10.238Z</time></trkpt><trkpt lat="43.899175" lon="8.0780583"><ele>9.0</ele><time>2026-04-08T09:50:12.326Z</time></trkpt><trkpt lat="43.89909" lon="8.0781233"><ele>9.0</ele><time>2026-04-08T09:50:14.294Z</time></trkpt><trkpt lat="43.8990033" lon="8.0782233"><ele>13.166666666666668</ele><time>2026-04-08T09:50:16.238Z</time></trkpt><trkpt lat="43.8989217" lon="8.078235"><ele>17.333333333333336</ele><time>2026-04-08T09:50:19.224Z</time></trkpt><trkpt lat="43.8988583" lon="8.0782367"><ele>21.5</ele><time>2026-04-08T09:50:22.213Z</time></trkpt><trkpt lat="43.8987983" lon="8.07818"><ele>25.666666666666668</ele><time>2026-04-08T09:50:32.335Z</time></trkpt><trkpt lat="43.8988667" lon="8.078145"><ele>29.833333333333336</ele><time>2026-04-08T09:50:58.248Z</time></trkpt><trkpt lat="43.8989617" lon="8.0780867"><ele>34.0</ele><time>2026-04-08T09:52:25.26Z</time></trkpt><trkpt lat="43.899045" lon="8.0780733"><ele>34.0</ele><time>2026-04-08T09:52:58.245Z</time></trkpt><trkpt lat="43.8991417" lon="8.0780333"><ele>34.0</ele><time>2026-04-08T09:53:02.286Z</time></trkpt><trkpt lat="43.8992183" lon="8.0779583"><ele>34.0</ele><time>2026-04-08T09:53:04.254Z</time></trkpt><trkpt lat="43.8992867" lon="8.0778783"><ele>34.0</ele><time>2026-04-08T09:53:06.247Z</time></trkpt><trkpt lat="43.8993533" lon="8.077795"><ele>34.0</ele><time>2026-04-08T09:53:08.285Z</time></trkpt><trkpt lat="43.8994183" lon="8.0776883"><ele>30.8</ele><time>2026-04-08T09:53:10.284Z</time></trkpt><trkpt lat="43.8994783" lon="8.077575"><ele>27.599999999999998</ele><time>2026-04-08T09:53:12.243Z</time></trkpt><trkpt lat="43.89953" lon="8.077455"><ele>24.4</ele><time>2026-04-08T09:53:14.294Z</time></trkpt><trkpt lat="43.899565" lon="8.0773267"><ele>21.2</ele><time>2026-04-08T09:53:16.218Z</time></trkpt><trkpt lat="43.8995967" lon="8.07719"><ele>18.0</ele><time>2026-04-08T09:53:18.23Z</time></trkpt><trkpt lat="43.8996383" lon="8.0770383"><ele>18.0</ele><time>2026-04-08T09:53:20.27Z</time></trkpt><trkpt lat="43.899685" lon="8.076905"><ele>18.0</ele><time>2026-04-08T09:53:22.238Z</time></trkpt><trkpt lat="43.89973" lon="8.0768133"><ele>18.0</ele><time>2026-04-08T09:53:24.22Z</time></trkpt><trkpt lat="43.89978" lon="8.0767283"><ele>18.0</ele><time>2026-04-08T09:53:26.237Z</time></trkpt><trkpt lat="43.899835" lon="8.0766517"><ele>18.0</ele><time>2026-04-08T09:53:28.242Z</time></trkpt><trkpt lat="43.8998917" lon="8.0765867"><ele>18.0</ele><time>2026-04-08T09:53:30.307Z</time></trkpt><trkpt lat="43.899955" lon="8.0765333"><ele>19.5</ele><time>2026-04-08T09:53:32.247Z</time></trkpt><trkpt lat="43.9000183" lon="8.07649"><ele>21.0</ele><time>2026-04-08T09:53:34.209Z</time></trkpt><trkpt lat="43.9000833" lon="8.0764517"><ele>22.5</ele><time>2026-04-08T09:53:36.23Z</time></trkpt><trkpt lat="43.9001517" lon="8.0764067"><ele>24.0</ele><time>2026-04-08T09:53:38.287Z</time></trkpt><trkpt lat="43.900225" lon="8.076365"><ele>25.5</ele><time>2026-04-08T09:53:40.243Z</time></trkpt><trkpt lat="43.900295" lon="8.0763183"><ele>27.0</ele><time>2026-04-08T09:53:42.259Z</time></trkpt><trkpt lat="43.900365" lon="8.0762767"><ele>27.0</ele><time>2026-04-08T09:53:44.273Z</time></trkpt><trkpt lat="43.900435" lon="8.076225"><ele>27.0</ele><time>2026-04-08T09:53:46.249Z</time></trkpt><trkpt lat="43.900505" lon="8.07615"><ele>27.0</ele><time>2026-04-08T09:53:48.261Z</time></trkpt><trkpt lat="43.900585" lon="8.0761083"><ele>27.0</ele><time>2026-04-08T09:53:50.281Z</time></trkpt><trkpt lat="43.9006617" lon="8.076085"><ele>27.0</ele><time>2026-04-08T09:53:52.212Z</time></trkpt><trkpt lat="43.9007367" lon="8.076065"><ele>27.0</ele><time>2026-04-08T09:53:54.227Z</time></trkpt><trkpt lat="43.90081" lon="8.0760283"><ele>27.0</ele><time>2026-04-08T09:53:56.281Z</time></trkpt><trkpt lat="43.9008783" lon="8.07599"><ele>27.0</ele><time>2026-04-08T09:53:58.265Z</time></trkpt><trkpt lat="43.900945" lon="8.0759283"><ele>27.0</ele><time>2026-04-08T09:54:00.275Z</time></trkpt><trkpt lat="43.90103" lon="8.0758583"><ele>27.0</ele><time>2026-04-08T09:54:02.296Z</time></trkpt><trkpt lat="43.901115" lon="8.0758333"><ele>27.0</ele><time>2026-04-08T09:54:04.28Z</time></trkpt><trkpt lat="43.9011933" lon="8.0758033"><ele>27.0</ele><time>2026-04-08T09:54:06.209Z</time></trkpt><trkpt lat="43.9012667" lon="8.0757633"><ele>25.8</ele><time>2026-04-08T09:54:08.315Z</time></trkpt><trkpt lat="43.9013283" lon="8.0757083"><ele>24.6</ele><time>2026-04-08T09:54:10.294Z</time></trkpt><trkpt lat="43.9014033" lon="8.0756283"><ele>23.400000000000002</ele><time>2026-04-08T09:54:12.22Z</time></trkpt><trkpt lat="43.901455" lon="8.0755283"><ele>22.200000000000003</ele><time>2026-04-08T09:54:14.285Z</time></trkpt><trkpt lat="43.901515" lon="8.075445"><ele>21.0</ele><time>2026-04-08T09:54:16.247Z</time></trkpt><trkpt lat="43.9015783" lon="8.0752883"><ele>21.0</ele><time>2026-04-08T09:54:19.414Z</time></trkpt><trkpt lat="43.9016267" lon="8.0751917"><ele>21.0</ele><time>2026-04-08T09:54:21.284Z</time></trkpt><trkpt lat="43.9016933" lon="8.07511"><ele>21.0</ele><time>2026-04-08T09:54:23.259Z</time></trkpt><trkpt lat="43.9017567" lon="8.0750433"><ele>21.0</ele><time>2026-04-08T09:54:25.276Z</time></trkpt><trkpt lat="43.9018183" lon="8.074985"><ele>21.0</ele><time>2026-04-08T09:54:27.287Z</time></trkpt><trkpt lat="43.9018567" lon="8.0749133"><ele>21.0</ele><time>2026-04-08T09:54:29.243Z</time></trkpt><trkpt lat="43.90193" lon="8.0748867"><ele>21.0</ele><time>2026-04-08T09:54:42.238Z</time></trkpt><trkpt lat="43.9019717" lon="8.0748183"><ele>21.0</ele><time>2026-04-08T09:54:45.259Z</time></trkpt><trkpt lat="43.9020333" lon="8.0748917"><ele>21.0</ele><time>2026-04-08T09:55:00.268Z</time></trkpt><trkpt lat="43.9020867" lon="8.0749683"><ele>21.0</ele><time>2026-04-08T09:55:03.213Z</time></trkpt><trkpt lat="43.9021767" lon="8.074955"><ele>21.0</ele><time>2026-04-08T09:55:13.278Z</time></trkpt><trkpt lat="43.902145" lon="8.0748533"><ele>21.0</ele><time>2026-04-08T09:55:17.244Z</time></trkpt><trkpt lat="43.9021" lon="8.0747733"><ele>22.666666666666668</ele><time>2026-04-08T09:55:20.314Z</time></trkpt><trkpt lat="43.9020583" lon="8.074685"><ele>24.333333333333336</ele><time>2026-04-08T09:55:23.217Z</time></trkpt><trkpt lat="43.9020017" lon="8.0745983"><ele>26.0</ele><time>2026-04-08T09:55:26.276Z</time></trkpt><trkpt lat="43.901925" lon="8.07453"><ele>27.666666666666668</ele><time>2026-04-08T09:55:29.236Z</time></trkpt><trkpt lat="43.9018633" lon="8.0744917"><ele>29.333333333333336</ele><time>2026-04-08T09:55:31.204Z</time></trkpt><trkpt lat="43.9017767" lon="8.0744433"><ele>31.0</ele><time>2026-04-08T09:55:34.238Z</time></trkpt><trkpt lat="43.9017133" lon="8.0744083"><ele>31.000000000000004</ele><time>2026-04-08T09:55:36.234Z</time></trkpt><trkpt lat="43.90162" lon="8.0743833"><ele>31.0</ele><time>2026-04-08T09:55:39.26Z</time></trkpt><trkpt lat="43.9015517" lon="8.07437"><ele>31.0</ele><time>2026-04-08T09:55:41.275Z</time></trkpt><trkpt lat="43.90147" lon="8.07435"><ele>31.0</ele><time>2026-04-08T09:55:44.307Z</time></trkpt><trkpt lat="43.9013867" lon="8.074405"><ele>31.000000000000004</ele><time>2026-04-08T09:55:46.241Z</time></trkpt><trkpt lat="43.90131" lon="8.0744417"><ele>31.0</ele><time>2026-04-08T09:55:48.263Z</time></trkpt><trkpt lat="43.9012417" lon="8.0744883"><ele>31.000000000000004</ele><time>2026-04-08T09:55:51.255Z</time></trkpt><trkpt lat="43.901215" lon="8.0746033"><ele>31.0</ele><time>2026-04-08T09:56:09.26Z</time></trkpt><trkpt lat="43.9012283" lon="8.07471"><ele>31.0</ele><time>2026-04-08T09:56:12.325Z</time></trkpt><trkpt lat="43.9012317" lon="8.0748017"><ele>31.0</ele><time>2026-04-08T09:56:14.295Z</time></trkpt><trkpt lat="43.9012267" lon="8.0749033"><ele>31.000000000000004</ele><time>2026-04-08T09:56:16.277Z</time></trkpt><trkpt lat="43.901225" lon="8.07503"><ele>31.0</ele><time>2026-04-08T09:56:19.246Z</time></trkpt><trkpt lat="43.90121" lon="8.0751283"><ele>32.0</ele><time>2026-04-08T09:56:21.268Z</time></trkpt><trkpt lat="43.9011567" lon="8.07523"><ele>33.0</ele><time>2026-04-08T09:56:24.244Z</time></trkpt><trkpt lat="43.9010883" lon="8.07529"><ele>34.0</ele><time>2026-04-08T09:56:26.305Z</time></trkpt><trkpt lat="43.9010167" lon="8.0753483"><ele>35.0</ele><time>2026-04-08T09:56:28.281Z</time></trkpt><trkpt lat="43.9009483" lon="8.0753917"><ele>36.0</ele><time>2026-04-08T09:56:30.271Z</time></trkpt><trkpt lat="43.9008817" lon="8.0754117"><ele>37.0</ele><time>2026-04-08T09:56:32.304Z</time></trkpt><trkpt lat="43.9008133" lon="8.0754183"><ele>37.0</ele><time>2026-04-08T09:56:34.251Z</time></trkpt><trkpt lat="43.9007367" lon="8.07543"><ele>37.0</ele><time>2026-04-08T09:56:36.261Z</time></trkpt><trkpt lat="43.9006617" lon="8.075425"><ele>37.0</ele><time>2026-04-08T09:56:38.339Z</time></trkpt><trkpt lat="43.900585" lon="8.075425"><ele>37.0</ele><time>2026-04-08T09:56:40.229Z</time></trkpt><trkpt lat="43.900495" lon="8.0754533"><ele>37.0</ele><time>2026-04-08T09:56:43.333Z</time></trkpt><trkpt lat="43.900415" lon="8.0755"><ele>37.0</ele><time>2026-04-08T09:56:46.255Z</time></trkpt><trkpt lat="43.90034" lon="8.0755283"><ele>37.0</ele><time>2026-04-08T09:56:49.27Z</time></trkpt><trkpt lat="43.90028" lon="8.07557"><ele>37.0</ele><time>2026-04-08T09:56:51.258Z</time></trkpt><trkpt lat="43.9002117" lon="8.0755833"><ele>37.0</ele><time>2026-04-08T09:56:53.248Z</time></trkpt><trkpt lat="43.9001417" lon="8.075585"><ele>37.0</ele><time>2026-04-08T09:56:55.279Z</time></trkpt><trkpt lat="43.9000733" lon="8.07558"><ele>37.0</ele><time>2026-04-08T09:56:57.262Z</time></trkpt><trkpt lat="43.9000033" lon="8.075555"><ele>37.0</ele><time>2026-04-08T09:56:59.304Z</time></trkpt><trkpt lat="43.8999283" lon="8.0755133"><ele>37.0</ele><time>2026-04-08T09:57:01.257Z</time></trkpt><trkpt lat="43.8998533" lon="8.0754433"><ele>39.8</ele><time>2026-04-08T09:57:03.275Z</time></trkpt><trkpt lat="43.8997817" lon="8.0753733"><ele>42.6</ele><time>2026-04-08T09:57:06.212Z</time></trkpt><trkpt lat="43.89973" lon="8.075315"><ele>45.4</ele><time>2026-04-08T09:57:08.294Z</time></trkpt><trkpt lat="43.8996633" lon="8.0752617"><ele>48.199999999999996</ele><time>2026-04-08T09:57:10.278Z</time></trkpt><trkpt lat="43.899605" lon="8.075225"><ele>51.0</ele><time>2026-04-08T09:57:12.261Z</time></trkpt><trkpt lat="43.8994233" lon="8.07515"><ele>51.0</ele><time>2026-04-08T09:57:17.218Z</time></trkpt><trkpt lat="43.89932" lon="8.0751333"><ele>51.0</ele><time>2026-04-08T09:57:19.267Z</time></trkpt><trkpt lat="43.8992217" lon="8.0750733"><ele>51.0</ele><time>2026-04-08T09:57:22.217Z</time></trkpt><trkpt lat="43.8991617" lon="8.075025"><ele>51.0</ele><time>2026-04-08T09:57:24.242Z</time></trkpt><trkpt lat="43.8990933" lon="8.074975"><ele>51.0</ele><time>2026-04-08T09:57:26.282Z</time></trkpt><trkpt lat="43.8990317" lon="8.0749283"><ele>51.0</ele><time>2026-04-08T09:57:28.359Z</time></trkpt><trkpt lat="43.898975" lon="8.074875"><ele>54.833333333333336</ele><time>2026-04-08T09:57:30.22Z</time></trkpt><trkpt lat="43.89892" lon="8.0748167"><ele>58.66666666666667</ele><time>2026-04-08T09:57:32.278Z</time></trkpt><trkpt lat="43.8988617" lon="8.0747383"><ele>62.5</ele><time>2026-04-08T09:57:35.246Z</time></trkpt><trkpt lat="43.8987917" lon="8.0746617"><ele>66.33333333333334</ele><time>2026-04-08T09:57:38.256Z</time></trkpt><trkpt lat="43.8987183" lon="8.074595"><ele>70.16666666666667</ele><time>2026-04-08T09:57:41.26Z</time></trkpt><trkpt lat="43.8986433" lon="8.0745483"><ele>74.0</ele><time>2026-04-08T09:57:44.304Z</time></trkpt><trkpt lat="43.8985767" lon="8.0745383"><ele>74.0</ele><time>2026-04-08T09:57:46.272Z</time></trkpt><trkpt lat="43.8984983" lon="8.07457"><ele>74.0</ele><time>2026-04-08T09:57:48.237Z</time></trkpt><trkpt lat="43.8984383" lon="8.0746233"><ele>74.0</ele><time>2026-04-08T09:57:50.337Z</time></trkpt><trkpt lat="43.8984117" lon="8.0747083"><ele>74.0</ele><time>2026-04-08T09:57:52.282Z</time></trkpt><trkpt lat="43.8984267" lon="8.0747933"><ele>74.0</ele><time>2026-04-08T09:57:54.258Z</time></trkpt><trkpt lat="43.8984583" lon="8.0748867"><ele>74.0</ele><time>2026-04-08T09:57:56.33Z</time></trkpt><trkpt lat="43.8984883" lon="8.07499"><ele>74.0</ele><time>2026-04-08T09:57:58.239Z</time></trkpt><trkpt lat="43.8985017" lon="8.0750917"><ele>71.14285714285714</ele><time>2026-04-08T09:58:00.235Z</time></trkpt><trkpt lat="43.898525" lon="8.0751783"><ele>68.28571428571428</ele><time>2026-04-08T09:58:02.294Z</time></trkpt><trkpt lat="43.89856" lon="8.0752583"><ele>65.42857142857143</ele><time>2026-04-08T09:58:04.259Z</time></trkpt><trkpt lat="43.8985917" lon="8.075365"><ele>62.57142857142857</ele><time>2026-04-08T09:58:06.26Z</time></trkpt><trkpt lat="43.8986133" lon="8.0754567"><ele>59.71428571428571</ele><time>2026-04-08T09:58:08.291Z</time></trkpt><trkpt lat="43.898645" lon="8.0755383"><ele>56.857142857142854</ele><time>2026-04-08T09:58:10.259Z</time></trkpt><trkpt lat="43.8986583" lon="8.0756517"><ele>54.0</ele><time>2026-04-08T09:58:13.274Z</time></trkpt><trkpt lat="43.8986717" lon="8.0757417"><ele>52.5</ele><time>2026-04-08T09:58:15.269Z</time></trkpt><trkpt lat="43.8986867" lon="8.0758517"><ele>51.0</ele><time>2026-04-08T09:58:17.285Z</time></trkpt><trkpt lat="43.89871" lon="8.0759567"><ele>49.5</ele><time>2026-04-08T09:58:19.298Z</time></trkpt><trkpt lat="43.8987317" lon="8.07606"><ele>48.0</ele><time>2026-04-08T09:58:21.254Z</time></trkpt><trkpt lat="43.89875" lon="8.0761683"><ele>46.5</ele><time>2026-04-08T09:58:23.255Z</time></trkpt><trkpt lat="43.8987583" lon="8.0762833"><ele>45.0</ele><time>2026-04-08T09:58:25.293Z</time></trkpt><trkpt lat="43.8987717" lon="8.0764083"><ele>45.0</ele><time>2026-04-08T09:58:27.247Z</time></trkpt><trkpt lat="43.8987667" lon="8.0765117"><ele>45.0</ele><time>2026-04-08T09:58:29.241Z</time></trkpt><trkpt lat="43.89872" lon="8.07661"><ele>45.0</ele><time>2026-04-08T09:58:31.246Z</time></trkpt><trkpt lat="43.8986683" lon="8.076675"><ele>45.0</ele><time>2026-04-08T09:58:33.243Z</time></trkpt><trkpt lat="43.8985983" lon="8.07671"><ele>45.0</ele><time>2026-04-08T09:58:35.329Z</time></trkpt><trkpt lat="43.8985217" lon="8.07671"><ele>45.0</ele><time>2026-04-08T09:58:37.222Z</time></trkpt><trkpt lat="43.898445" lon="8.0766933"><ele>48.5</ele><time>2026-04-08T09:58:39.318Z</time></trkpt><trkpt lat="43.89836" lon="8.0766483"><ele>52.0</ele><time>2026-04-08T09:58:41.245Z</time></trkpt><trkpt lat="43.8982917" lon="8.07659"><ele>55.5</ele><time>2026-04-08T09:58:43.259Z</time></trkpt><trkpt lat="43.8982333" lon="8.07654"><ele>59.0</ele><time>2026-04-08T09:58:45.241Z</time></trkpt><trkpt lat="43.8981833" lon="8.0764717"><ele>62.5</ele><time>2026-04-08T09:58:47.257Z</time></trkpt><trkpt lat="43.8981233" lon="8.0764033"><ele>66.0</ele><time>2026-04-08T09:58:49.252Z</time></trkpt><trkpt lat="43.8980617" lon="8.0763267"><ele>66.83333333333333</ele><time>2026-04-08T09:58:51.268Z</time></trkpt><trkpt lat="43.89801" lon="8.0762533"><ele>67.66666666666667</ele><time>2026-04-08T09:58:53.254Z</time></trkpt><trkpt lat="43.897955" lon="8.0761717"><ele>68.5</ele><time>2026-04-08T09:58:55.239Z</time></trkpt><trkpt lat="43.8979033" lon="8.0760867"><ele>69.33333333333334</ele><time>2026-04-08T09:58:57.262Z</time></trkpt><trkpt lat="43.8978667" lon="8.076"><ele>70.16666666666667</ele><time>2026-04-08T09:58:59.264Z</time></trkpt><trkpt lat="43.8978333" lon="8.0759083"><ele>71.0</ele><time>2026-04-08T09:59:01.25Z</time></trkpt><trkpt lat="43.897795" lon="8.0758217"><ele>70.39999999999999</ele><time>2026-04-08T09:59:03.319Z</time></trkpt><trkpt lat="43.897775" lon="8.07572"><ele>69.8</ele><time>2026-04-08T09:59:05.238Z</time></trkpt><trkpt lat="43.8977283" lon="8.0754967"><ele>69.19999999999999</ele><time>2026-04-08T09:59:16.26Z</time></trkpt><trkpt lat="43.8976917" lon="8.0753933"><ele>68.6</ele><time>2026-04-08T10:02:44.32Z</time></trkpt><trkpt lat="43.89762" lon="8.0753533"><ele>68.0</ele><time>2026-04-08T10:03:16.271Z</time></trkpt><trkpt lat="43.8975567" lon="8.0752817"><ele>70.83333333333334</ele><time>2026-04-08T10:03:19.254Z</time></trkpt><trkpt lat="43.8974933" lon="8.075235"><ele>73.66666666666667</ele><time>2026-04-08T10:03:21.28Z</time></trkpt><trkpt lat="43.8974267" lon="8.075155"><ele>76.5</ele><time>2026-04-08T10:03:24.253Z</time></trkpt><trkpt lat="43.8973933" lon="8.07508"><ele>79.33333333333333</ele><time>2026-04-08T10:03:26.317Z</time></trkpt><trkpt lat="43.8973383" lon="8.0749783"><ele>82.16666666666666</ele><time>2026-04-08T10:03:29.246Z</time></trkpt><trkpt lat="43.8972783" lon="8.074895"><ele>85.0</ele><time>2026-04-08T10:03:31.246Z</time></trkpt><trkpt lat="43.89721" lon="8.074815"><ele>85.66666666666666</ele><time>2026-04-08T10:03:33.256Z</time></trkpt><trkpt lat="43.8971583" lon="8.0747433"><ele>86.33333333333333</ele><time>2026-04-08T10:03:36.279Z</time></trkpt><trkpt lat="43.8970983" lon="8.0746883"><ele>87.0</ele><time>2026-04-08T10:03:39.263Z</time></trkpt><trkpt lat="43.8970267" lon="8.0746183"><ele>87.66666666666667</ele><time>2026-04-08T10:03:42.259Z</time></trkpt><trkpt lat="43.8969617" lon="8.0745917"><ele>88.33333333333334</ele><time>2026-04-08T10:03:44.282Z</time></trkpt><trkpt lat="43.89689" lon="8.074555"><ele>89.0</ele><time>2026-04-08T10:03:47.252Z</time></trkpt><trkpt lat="43.8967933" lon="8.0745317"><ele>90.83333333333334</ele><time>2026-04-08T10:03:50.263Z</time></trkpt><trkpt lat="43.8967067" lon="8.0745567"><ele>92.66666666666667</ele><time>2026-04-08T10:03:53.282Z</time></trkpt><trkpt lat="43.8966217" lon="8.0746017"><ele>94.5</ele><time>2026-04-08T10:03:56.376Z</time></trkpt><trkpt lat="43.89657" lon="8.07466"><ele>96.33333333333334</ele><time>2026-04-08T10:03:58.24Z</time></trkpt><trkpt lat="43.8964933" lon="8.07479"><ele>98.16666666666667</ele><time>2026-04-08T10:04:19.248Z</time></trkpt><trkpt lat="43.896495" lon="8.0748833"><ele>100.0</ele><time>2026-04-08T10:04:23.239Z</time></trkpt><trkpt lat="43.896535" lon="8.0747317"><ele>100.00000000000001</ele><time>2026-04-08T10:05:00.298Z</time></trkpt><trkpt lat="43.8965833" lon="8.0746617"><ele>100.0</ele><time>2026-04-08T10:05:05.289Z</time></trkpt><trkpt lat="43.89664" lon="8.074515"><ele>100.0</ele><time>2026-04-08T10:12:22.275Z</time></trkpt><trkpt lat="43.8967117" lon="8.074505"><ele>100.0</ele><time>2026-04-08T10:12:29.242Z</time></trkpt><trkpt lat="43.8967833" lon="8.0745367"><ele>100.00000000000001</ele><time>2026-04-08T10:13:34.271Z</time></trkpt><trkpt lat="43.8968233" lon="8.0746067"><ele>100.0</ele><time>2026-04-08T10:13:36.264Z</time></trkpt><trkpt lat="43.896885" lon="8.0746583"><ele>98.16666666666667</ele><time>2026-04-08T10:13:38.281Z</time></trkpt><trkpt lat="43.896955" lon="8.0747033"><ele>96.33333333333334</ele><time>2026-04-08T10:13:40.263Z</time></trkpt><trkpt lat="43.8970183" lon="8.0747517"><ele>94.5</ele><time>2026-04-08T10:13:42.301Z</time></trkpt><trkpt lat="43.8970867" lon="8.0748083"><ele>92.66666666666667</ele><time>2026-04-08T10:13:44.253Z</time></trkpt><trkpt lat="43.89715" lon="8.07488"><ele>90.83333333333334</ele><time>2026-04-08T10:13:46.229Z</time></trkpt><trkpt lat="43.8972083" lon="8.0749433"><ele>89.0</ele><time>2026-04-08T10:13:48.254Z</time></trkpt><trkpt lat="43.897265" lon="8.0750067"><ele>88.33333333333334</ele><time>2026-04-08T10:13:50.27Z</time></trkpt><trkpt lat="43.89732" lon="8.075075"><ele>87.66666666666667</ele><time>2026-04-08T10:13:52.249Z</time></trkpt><trkpt lat="43.8973833" lon="8.0751533"><ele>87.0</ele><time>2026-04-08T10:13:54.218Z</time></trkpt><trkpt lat="43.8974483" lon="8.07524"><ele>86.33333333333333</ele><time>2026-04-08T10:13:56.342Z</time></trkpt><trkpt lat="43.89751" lon="8.0753317"><ele>85.66666666666666</ele><time>2026-04-08T10:13:58.218Z</time></trkpt><trkpt lat="43.8975717" lon="8.07542"><ele>85.0</ele><time>2026-04-08T10:14:00.327Z</time></trkpt><trkpt lat="43.8976333" lon="8.07552"><ele>82.2</ele><time>2026-04-08T10:14:02.317Z</time></trkpt><trkpt lat="43.8976883" lon="8.0756317"><ele>79.4</ele><time>2026-04-08T10:14:04.23Z</time></trkpt><trkpt lat="43.897735" lon="8.075745"><ele>76.6</ele><time>2026-04-08T10:14:06.241Z</time></trkpt><trkpt lat="43.897785" lon="8.0758567"><ele>73.8</ele><time>2026-04-08T10:14:08.267Z</time></trkpt><trkpt lat="43.897835" lon="8.075975"><ele>71.0</ele><time>2026-04-08T10:14:10.204Z</time></trkpt><trkpt lat="43.897885" lon="8.0760833"><ele>71.0</ele><time>2026-04-08T10:14:12.234Z</time></trkpt><trkpt lat="43.8979383" lon="8.0761833"><ele>71.0</ele><time>2026-04-08T10:14:14.298Z</time></trkpt><trkpt lat="43.8979933" lon="8.0762817"><ele>71.0</ele><time>2026-04-08T10:14:16.209Z</time></trkpt><trkpt lat="43.898055" lon="8.07637"><ele>71.0</ele><time>2026-04-08T10:14:18.244Z</time></trkpt><trkpt lat="43.898115" lon="8.0764567"><ele>71.0</ele><time>2026-04-08T10:14:20.289Z</time></trkpt><trkpt lat="43.8981767" lon="8.0765433"><ele>71.0</ele><time>2026-04-08T10:14:22.226Z</time></trkpt><trkpt lat="43.8982383" lon="8.0766517"><ele>70.16666666666667</ele><time>2026-04-08T10:14:24.279Z</time></trkpt><trkpt lat="43.8983017" lon="8.076765"><ele>69.33333333333334</ele><time>2026-04-08T10:14:26.296Z</time></trkpt><trkpt lat="43.8983817" lon="8.0768167"><ele>68.5</ele><time>2026-04-08T10:14:28.217Z</time></trkpt><trkpt lat="43.8984617" lon="8.076835"><ele>67.66666666666667</ele><time>2026-04-08T10:14:30.244Z</time></trkpt><trkpt lat="43.8985417" lon="8.07685"><ele>66.83333333333333</ele><time>2026-04-08T10:14:32.395Z</time></trkpt><trkpt lat="43.89862" lon="8.0768067"><ele>66.0</ele><time>2026-04-08T10:14:34.246Z</time></trkpt><trkpt lat="43.898685" lon="8.0767417"><ele>61.8</ele><time>2026-04-08T10:14:36.243Z</time></trkpt><trkpt lat="43.898745" lon="8.0766467"><ele>57.599999999999994</ele><time>2026-04-08T10:14:38.275Z</time></trkpt><trkpt lat="43.8987867" lon="8.07653"><ele>53.4</ele><time>2026-04-08T10:14:40.248Z</time></trkpt><trkpt lat="43.89881" lon="8.07639"><ele>49.2</ele><time>2026-04-08T10:14:42.248Z</time></trkpt><trkpt lat="43.8988133" lon="8.0762617"><ele>45.0</ele><time>2026-04-08T10:14:44.273Z</time></trkpt><trkpt lat="43.8988017" lon="8.0761317"><ele>45.0</ele><time>2026-04-08T10:14:46.229Z</time></trkpt><trkpt lat="43.89878" lon="8.0760167"><ele>45.0</ele><time>2026-04-08T10:14:48.217Z</time></trkpt><trkpt lat="43.8987617" lon="8.0759067"><ele>45.0</ele><time>2026-04-08T10:14:50.259Z</time></trkpt><trkpt lat="43.8987333" lon="8.0757683"><ele>45.0</ele><time>2026-04-08T10:14:52.242Z</time></trkpt><trkpt lat="43.8987083" lon="8.075635"><ele>45.0</ele><time>2026-04-08T10:14:54.215Z</time></trkpt><trkpt lat="43.8986833" lon="8.0755267"><ele>46.5</ele><time>2026-04-08T10:14:56.275Z</time></trkpt><trkpt lat="43.8986567" lon="8.0754333"><ele>48.0</ele><time>2026-04-08T10:14:58.241Z</time></trkpt><trkpt lat="43.8986133" lon="8.075325"><ele>49.5</ele><time>2026-04-08T10:15:00.209Z</time></trkpt><trkpt lat="43.8985817" lon="8.0751983"><ele>51.0</ele><time>2026-04-08T10:15:02.295Z</time></trkpt><trkpt lat="43.8985583" lon="8.0750817"><ele>52.5</ele><time>2026-04-08T10:15:04.211Z</time></trkpt><trkpt lat="43.8985433" lon="8.074975"><ele>54.0</ele><time>2026-04-08T10:15:06.234Z</time></trkpt><trkpt lat="43.8985183" lon="8.0748867"><ele>57.333333333333336</ele><time>2026-04-08T10:15:08.323Z</time></trkpt><trkpt lat="43.8985583" lon="8.0748133"><ele>60.66666666666667</ele><time>2026-04-08T10:15:10.203Z</time></trkpt><trkpt lat="43.8986217" lon="8.0747217"><ele>64.0</ele><time>2026-04-08T10:15:12.223Z</time></trkpt><trkpt lat="43.8986933" lon="8.0747117"><ele>67.33333333333334</ele><time>2026-04-08T10:15:14.265Z</time></trkpt><trkpt lat="43.8987733" lon="8.0747517"><ele>70.66666666666667</ele><time>2026-04-08T10:15:16.235Z</time></trkpt><trkpt lat="43.8988567" lon="8.0748333"><ele>74.0</ele><time>2026-04-08T10:15:18.25Z</time></trkpt><trkpt lat="43.89894" lon="8.0749133"><ele>70.66666666666667</ele><time>2026-04-08T10:15:20.306Z</time></trkpt><trkpt lat="43.89902" lon="8.0749933"><ele>67.33333333333334</ele><time>2026-04-08T10:15:22.249Z</time></trkpt><trkpt lat="43.8991033" lon="8.075065"><ele>64.0</ele><time>2026-04-08T10:15:24.234Z</time></trkpt><trkpt lat="43.8991867" lon="8.0751133"><ele>60.66666666666667</ele><time>2026-04-08T10:15:26.275Z</time></trkpt><trkpt lat="43.89925" lon="8.07516"><ele>57.333333333333336</ele><time>2026-04-08T10:15:28.301Z</time></trkpt><trkpt lat="43.8993317" lon="8.0751733"><ele>54.0</ele><time>2026-04-08T10:15:58.259Z</time></trkpt><trkpt lat="43.8994017" lon="8.0751983"><ele>53.5</ele><time>2026-04-08T10:16:09.252Z</time></trkpt><trkpt lat="43.8994683" lon="8.07523"><ele>53.0</ele><time>2026-04-08T10:16:11.235Z</time></trkpt><trkpt lat="43.8995467" lon="8.0752667"><ele>52.5</ele><time>2026-04-08T10:16:13.287Z</time></trkpt><trkpt lat="43.8996167" lon="8.075315"><ele>52.0</ele><time>2026-04-08T10:16:15.24Z</time></trkpt><trkpt lat="43.8996867" lon="8.0753767"><ele>51.5</ele><time>2026-04-08T10:16:17.24Z</time></trkpt><trkpt lat="43.8997583" lon="8.0754533"><ele>51.0</ele><time>2026-04-08T10:16:19.279Z</time></trkpt><trkpt lat="43.8998283" lon="8.0755383"><ele>51.0</ele><time>2026-04-08T10:16:21.21Z</time></trkpt><trkpt lat="43.8998917" lon="8.0756167"><ele>51.0</ele><time>2026-04-08T10:16:23.267Z</time></trkpt><trkpt lat="43.899955" lon="8.0756933"><ele>51.0</ele><time>2026-04-08T10:16:25.28Z</time></trkpt><trkpt lat="43.9000183" lon="8.07575"><ele>51.0</ele><time>2026-04-08T10:16:27.224Z</time></trkpt><trkpt lat="43.9000917" lon="8.0757483"><ele>51.0</ele><time>2026-04-08T10:16:29.233Z</time></trkpt><trkpt lat="43.9001667" lon="8.0757417"><ele>51.0</ele><time>2026-04-08T10:16:31.251Z</time></trkpt><trkpt lat="43.9002417" lon="8.0757133"><ele>48.666666666666664</ele><time>2026-04-08T10:16:33.256Z</time></trkpt><trkpt lat="43.9003183" lon="8.075665"><ele>46.333333333333336</ele><time>2026-04-08T10:16:35.265Z</time></trkpt><trkpt lat="43.9004" lon="8.0756183"><ele>44.0</ele><time>2026-04-08T10:16:37.261Z</time></trkpt><trkpt lat="43.9004817" lon="8.0755833"><ele>41.66666666666667</ele><time>2026-04-08T10:16:39.24Z</time></trkpt><trkpt lat="43.9005633" lon="8.0755483"><ele>39.333333333333336</ele><time>2026-04-08T10:16:41.254Z</time></trkpt><trkpt lat="43.9006467" lon="8.075525"><ele>37.0</ele><time>2026-04-08T10:16:43.246Z</time></trkpt><trkpt lat="43.900735" lon="8.0755067"><ele>37.0</ele><time>2026-04-08T10:16:45.212Z</time></trkpt><trkpt lat="43.9008283" lon="8.07549"><ele>37.0</ele><time>2026-04-08T10:16:47.257Z</time></trkpt><trkpt lat="43.900925" lon="8.0754833"><ele>37.0</ele><time>2026-04-08T10:16:49.209Z</time></trkpt><trkpt lat="43.9010067" lon="8.0754467"><ele>37.0</ele><time>2026-04-08T10:16:51.231Z</time></trkpt><trkpt lat="43.9010633" lon="8.0754067"><ele>37.0</ele><time>2026-04-08T10:16:53.251Z</time></trkpt><trkpt lat="43.9011317" lon="8.075325"><ele>37.0</ele><time>2026-04-08T10:16:55.204Z</time></trkpt><trkpt lat="43.9011983" lon="8.0752267"><ele>35.800000000000004</ele><time>2026-04-08T10:16:57.254Z</time></trkpt><trkpt lat="43.901245" lon="8.075105"><ele>34.6</ele><time>2026-04-08T10:16:59.23Z</time></trkpt><trkpt lat="43.9012683" lon="8.07498"><ele>33.400000000000006</ele><time>2026-04-08T10:17:01.219Z</time></trkpt><trkpt lat="43.90127" lon="8.0748417"><ele>32.2</ele><time>2026-04-08T10:17:03.243Z</time></trkpt><trkpt lat="43.9012733" lon="8.07471"><ele>31.0</ele><time>2026-04-08T10:17:05.237Z</time></trkpt><trkpt lat="43.9012817" lon="8.0745917"><ele>31.000000000000004</ele><time>2026-04-08T10:17:07.212Z</time></trkpt><trkpt lat="43.9013067" lon="8.074495"><ele>31.0</ele><time>2026-04-08T10:17:09.246Z</time></trkpt><trkpt lat="43.9013617" lon="8.0744333"><ele>31.0</ele><time>2026-04-08T10:17:11.257Z</time></trkpt><trkpt lat="43.90144" lon="8.074415"><ele>31.0</ele><time>2026-04-08T10:17:13.31Z</time></trkpt><trkpt lat="43.9015317" lon="8.0744333"><ele>31.000000000000004</ele><time>2026-04-08T10:17:15.207Z</time></trkpt><trkpt lat="43.90162" lon="8.0744667"><ele>31.0</ele><time>2026-04-08T10:17:17.241Z</time></trkpt><trkpt lat="43.9017083" lon="8.0745017"><ele>32.0</ele><time>2026-04-08T10:17:19.243Z</time></trkpt><trkpt lat="43.9017917" lon="8.0745417"><ele>33.0</ele><time>2026-04-08T10:17:21.212Z</time></trkpt><trkpt lat="43.9018533" lon="8.0746"><ele>34.0</ele><time>2026-04-08T10:17:23.242Z</time></trkpt><trkpt lat="43.90189" lon="8.0746833"><ele>35.0</ele><time>2026-04-08T10:17:25.241Z</time></trkpt><trkpt lat="43.9019167" lon="8.07477"><ele>36.0</ele><time>2026-04-08T10:17:27.25Z</time></trkpt><trkpt lat="43.90191" lon="8.07488"><ele>37.0</ele><time>2026-04-08T10:17:30.238Z</time></trkpt><trkpt lat="43.9018067" lon="8.074925"><ele>34.333333333333336</ele><time>2026-04-08T10:17:32.304Z</time></trkpt><trkpt lat="43.901715" lon="8.0749733"><ele>31.666666666666668</ele><time>2026-04-08T10:17:34.223Z</time></trkpt><trkpt lat="43.901645" lon="8.07504"><ele>29.0</ele><time>2026-04-08T10:17:36.271Z</time></trkpt><trkpt lat="43.9016" lon="8.0751283"><ele>26.333333333333336</ele><time>2026-04-08T10:17:38.26Z</time></trkpt><trkpt lat="43.9015567" lon="8.075215"><ele>23.666666666666668</ele><time>2026-04-08T10:17:40.249Z</time></trkpt><trkpt lat="43.901515" lon="8.0753133"><ele>21.0</ele><time>2026-04-08T10:17:42.255Z</time></trkpt><trkpt lat="43.9014767" lon="8.0754183"><ele>21.0</ele><time>2026-04-08T10:17:44.262Z</time></trkpt><trkpt lat="43.9014367" lon="8.0755117"><ele>21.0</ele><time>2026-04-08T10:17:46.211Z</time></trkpt><trkpt lat="43.9013917" lon="8.075595"><ele>21.0</ele><time>2026-04-08T10:17:48.231Z</time></trkpt><trkpt lat="43.9013417" lon="8.075675"><ele>21.0</ele><time>2026-04-08T10:17:50.29Z</time></trkpt><trkpt lat="43.9012833" lon="8.0757317"><ele>21.0</ele><time>2026-04-08T10:17:52.208Z</time></trkpt><trkpt lat="43.9012117" lon="8.0757783"><ele>21.0</ele><time>2026-04-08T10:17:54.24Z</time></trkpt><trkpt lat="43.9011433" lon="8.0758217"><ele>20.166666666666668</ele><time>2026-04-08T10:17:56.315Z</time></trkpt><trkpt lat="43.901065" lon="8.07585"><ele>19.333333333333332</ele><time>2026-04-08T10:17:58.235Z</time></trkpt><trkpt lat="43.9009867" lon="8.07589"><ele>18.5</ele><time>2026-04-08T10:18:00.238Z</time></trkpt><trkpt lat="43.9009083" lon="8.0759317"><ele>17.666666666666664</ele><time>2026-04-08T10:18:02.375Z</time></trkpt><trkpt lat="43.900835" lon="8.0759583"><ele>16.833333333333332</ele><time>2026-04-08T10:18:04.212Z</time></trkpt><trkpt lat="43.9007733" lon="8.075995"><ele>16.0</ele><time>2026-04-08T10:18:06.232Z</time></trkpt><trkpt lat="43.9007017" lon="8.076045"><ele>17.833333333333332</ele><time>2026-04-08T10:18:08.359Z</time></trkpt><trkpt lat="43.9006283" lon="8.0760933"><ele>19.666666666666664</ele><time>2026-04-08T10:18:10.244Z</time></trkpt><trkpt lat="43.9005383" lon="8.0761417"><ele>21.5</ele><time>2026-04-08T10:18:12.25Z</time></trkpt><trkpt lat="43.9004533" lon="8.076185"><ele>23.333333333333332</ele><time>2026-04-08T10:18:14.296Z</time></trkpt><trkpt lat="43.9003817" lon="8.0762333"><ele>25.166666666666668</ele><time>2026-04-08T10:18:17.239Z</time></trkpt><trkpt lat="43.9003217" lon="8.07627"><ele>27.0</ele><time>2026-04-08T10:18:20.329Z</time></trkpt><trkpt lat="43.9002383" lon="8.0762967"><ele>27.0</ele><time>2026-04-08T10:18:23.247Z</time></trkpt><trkpt lat="43.900155" lon="8.0763183"><ele>27.0</ele><time>2026-04-08T10:18:25.225Z</time></trkpt><trkpt lat="43.9000717" lon="8.0763467"><ele>27.0</ele><time>2026-04-08T10:18:27.227Z</time></trkpt><trkpt lat="43.9000083" lon="8.0763883"><ele>27.0</ele><time>2026-04-08T10:18:29.253Z</time></trkpt><trkpt lat="43.8999417" lon="8.076425"><ele>27.0</ele><time>2026-04-08T10:18:31.262Z</time></trkpt><trkpt lat="43.8998717" lon="8.0764933"><ele>27.0</ele><time>2026-04-08T10:18:33.305Z</time></trkpt><trkpt lat="43.899795" lon="8.0765917"><ele>25.5</ele><time>2026-04-08T10:18:35.229Z</time></trkpt><trkpt lat="43.8997417" lon="8.0766967"><ele>24.0</ele><time>2026-04-08T10:18:37.208Z</time></trkpt><trkpt lat="43.8996917" lon="8.0767933"><ele>22.5</ele><time>2026-04-08T10:18:39.254Z</time></trkpt><trkpt lat="43.899645" lon="8.0769317"><ele>21.0</ele><time>2026-04-08T10:18:41.228Z</time></trkpt><trkpt lat="43.8996183" lon="8.07705"><ele>19.5</ele><time>2026-04-08T10:18:43.207Z</time></trkpt><trkpt lat="43.8995817" lon="8.07713"><ele>18.0</ele><time>2026-04-08T10:18:45.235Z</time></trkpt><trkpt lat="43.899535" lon="8.07723"><ele>18.000000000000004</ele><time>2026-04-08T10:18:48.309Z</time></trkpt><trkpt lat="43.8995133" lon="8.0773233"><ele>18.0</ele><time>2026-04-08T10:18:50.333Z</time></trkpt><trkpt lat="43.899485" lon="8.077415"><ele>18.0</ele><time>2026-04-08T10:18:52.243Z</time></trkpt><trkpt lat="43.8994567" lon="8.0775083"><ele>18.0</ele><time>2026-04-08T10:18:54.27Z</time></trkpt><trkpt lat="43.89942" lon="8.0776083"><ele>18.0</ele><time>2026-04-08T10:18:56.282Z</time></trkpt><trkpt lat="43.8993817" lon="8.077695"><ele>18.000000000000004</ele><time>2026-04-08T10:18:58.224Z</time></trkpt><trkpt lat="43.8993383" lon="8.077775"><ele>18.0</ele><time>2026-04-08T10:19:00.258Z</time></trkpt><trkpt lat="43.8992983" lon="8.0778517"><ele>20.666666666666668</ele><time>2026-04-08T10:19:02.339Z</time></trkpt><trkpt lat="43.899235" lon="8.0779167"><ele>23.333333333333336</ele><time>2026-04-08T10:19:05.235Z</time></trkpt><trkpt lat="43.8991767" lon="8.0779817"><ele>26.0</ele><time>2026-04-08T10:19:07.225Z</time></trkpt><trkpt lat="43.89911" lon="8.0780267"><ele>28.666666666666668</ele><time>2026-04-08T10:19:09.245Z</time></trkpt><trkpt lat="43.8990433" lon="8.07806"><ele>31.333333333333336</ele><time>2026-04-08T10:19:11.218Z</time></trkpt><trkpt lat="43.8989767" lon="8.07809"><ele>34.0</ele><time>2026-04-08T10:19:13.235Z</time></trkpt><trkpt lat="43.8988967" lon="8.07813"><ele>34.0</ele><time>2026-04-08T10:19:16.268Z</time></trkpt><trkpt lat="43.898835" lon="8.0781767"><ele>34.0</ele><time>2026-04-08T10:19:20.289Z</time></trkpt><trkpt lat="43.8988383" lon="8.07827"><ele>34.0</ele><time>2026-04-08T10:19:24.229Z</time></trkpt><trkpt lat="43.8989033" lon="8.0782583"><ele>34.0</ele><time>2026-04-08T10:19:29.222Z</time></trkpt><trkpt lat="43.8989867" lon="8.0781967"><ele>34.0</ele><time>2026-04-08T10:19:32.288Z</time></trkpt><trkpt lat="43.8990617" lon="8.0781533"><ele>34.0</ele><time>2026-04-08T10:19:34.215Z</time></trkpt><trkpt lat="43.8991267" lon="8.0780933"><ele>34.0</ele><time>2026-04-08T10:19:37.298Z</time></trkpt><trkpt lat="43.8991817" lon="8.0780333"><ele>34.0</ele><time>2026-04-08T10:19:39.248Z</time></trkpt><trkpt lat="43.8992417" lon="8.0779567"><ele>34.0</ele><time>2026-04-08T10:19:41.264Z</time></trkpt><trkpt lat="43.8993" lon="8.07787"><ele>34.0</ele><time>2026-04-08T10:19:43.272Z</time></trkpt><trkpt lat="43.89937" lon="8.0777883"><ele>34.0</ele><time>2026-04-08T10:19:45.247Z</time></trkpt><trkpt lat="43.8994133" lon="8.0777217"><ele>34.0</ele><time>2026-04-08T10:19:47.229Z</time></trkpt><trkpt lat="43.8994783" lon="8.0776617"><ele>31.333333333333336</ele><time>2026-04-08T10:19:49.277Z</time></trkpt><trkpt lat="43.899545" lon="8.0776117"><ele>28.666666666666668</ele><time>2026-04-08T10:19:51.271Z</time></trkpt><trkpt lat="43.89963" lon="8.077565"><ele>26.0</ele><time>2026-04-08T10:19:53.256Z</time></trkpt><trkpt lat="43.899705" lon="8.077515"><ele>23.333333333333336</ele><time>2026-04-08T10:19:55.252Z</time></trkpt><trkpt lat="43.89978" lon="8.07746"><ele>20.666666666666668</ele><time>2026-04-08T10:19:57.266Z</time></trkpt><trkpt lat="43.8998517" lon="8.077405"><ele>18.0</ele><time>2026-04-08T10:19:59.24Z</time></trkpt><trkpt lat="43.8999267" lon="8.0773533"><ele>18.000000000000004</ele><time>2026-04-08T10:20:01.269Z</time></trkpt><trkpt lat="43.8999933" lon="8.0773133"><ele>18.0</ele><time>2026-04-08T10:20:03.251Z</time></trkpt><trkpt lat="43.9000433" lon="8.0772483"><ele>18.0</ele><time>2026-04-08T10:20:05.234Z</time></trkpt><trkpt lat="43.9000783" lon="8.0771717"><ele>18.0</ele><time>2026-04-08T10:20:07.255Z</time></trkpt><trkpt lat="43.9001533" lon="8.0771033"><ele>18.0</ele><time>2026-04-08T10:20:10.247Z</time></trkpt><trkpt lat="43.9002167" lon="8.0770633"><ele>18.000000000000004</ele><time>2026-04-08T10:20:12.285Z</time></trkpt><trkpt lat="43.9002733" lon="8.07702"><ele>18.0</ele><time>2026-04-08T10:20:14.264Z</time></trkpt><trkpt lat="43.9003317" lon="8.0769783"><ele>17.0</ele><time>2026-04-08T10:20:16.246Z</time></trkpt><trkpt lat="43.9004133" lon="8.076915"><ele>16.0</ele><time>2026-04-08T10:20:19.25Z</time></trkpt><trkpt lat="43.9004767" lon="8.0768517"><ele>15.0</ele><time>2026-04-08T10:20:22.249Z</time></trkpt><trkpt lat="43.9005283" lon="8.0767983"><ele>14.0</ele><time>2026-04-08T10:20:25.246Z</time></trkpt><trkpt lat="43.9005933" lon="8.0767433"><ele>13.0</ele><time>2026-04-08T10:20:28.24Z</time></trkpt><trkpt lat="43.9006817" lon="8.076695"><ele>12.0</ele><time>2026-04-08T10:20:31.238Z</time></trkpt><trkpt lat="43.900795" lon="8.0765783"><ele>12.666666666666666</ele><time>2026-04-08T10:20:45.265Z</time></trkpt><trkpt lat="43.900875" lon="8.0765767"><ele>13.333333333333332</ele><time>2026-04-08T10:20:49.227Z</time></trkpt><trkpt lat="43.90094" lon="8.0765533"><ele>14.0</ele><time>2026-04-08T10:20:52.232Z</time></trkpt><trkpt lat="43.90101" lon="8.0765"><ele>14.666666666666666</ele><time>2026-04-08T10:20:55.246Z</time></trkpt><trkpt lat="43.90108" lon="8.0764617"><ele>15.333333333333332</ele><time>2026-04-08T10:20:58.225Z</time></trkpt><trkpt lat="43.901165" lon="8.0764217"><ele>16.0</ele><time>2026-04-08T10:21:01.217Z</time></trkpt><trkpt lat="43.9012533" lon="8.076405"><ele>15.999999999999998</ele><time>2026-04-08T10:21:04.219Z</time></trkpt><trkpt lat="43.9013367" lon="8.0763383"><ele>16.0</ele><time>2026-04-08T10:21:07.228Z</time></trkpt><trkpt lat="43.901405" lon="8.0763017"><ele>16.0</ele><time>2026-04-08T10:21:09.257Z</time></trkpt><trkpt lat="43.9014733" lon="8.07629"><ele>16.0</ele><time>2026-04-08T10:21:11.245Z</time></trkpt><trkpt lat="43.9015517" lon="8.0762717"><ele>15.999999999999998</ele><time>2026-04-08T10:21:13.217Z</time></trkpt><trkpt lat="43.901625" lon="8.0762633"><ele>16.0</ele><time>2026-04-08T10:21:15.239Z</time></trkpt><trkpt lat="43.9017017" lon="8.0762633"><ele>14.833333333333332</ele><time>2026-04-08T10:21:17.217Z</time></trkpt><trkpt lat="43.90178" lon="8.0762533"><ele>13.666666666666666</ele><time>2026-04-08T10:21:19.257Z</time></trkpt><trkpt lat="43.90185" lon="8.0762417"><ele>12.5</ele><time>2026-04-08T10:21:21.225Z</time></trkpt><trkpt lat="43.90194" lon="8.0762233"><ele>11.333333333333332</ele><time>2026-04-08T10:21:23.241Z</time></trkpt><trkpt lat="43.9020167" lon="8.0761683"><ele>10.166666666666666</ele><time>2026-04-08T10:21:25.22Z</time></trkpt><trkpt lat="43.9021067" lon="8.0761217"><ele>9.0</ele><time>2026-04-08T10:21:28.207Z</time></trkpt><trkpt lat="43.9021817" lon="8.0761183"><ele>9.000000000000002</ele><time>2026-04-08T10:21:30.25Z</time></trkpt><trkpt lat="43.9022467" lon="8.0761133"><ele>9.0</ele><time>2026-04-08T10:21:32.292Z</time></trkpt><trkpt lat="43.9023183" lon="8.0761133"><ele>9.0</ele><time>2026-04-08T10:21:34.207Z</time></trkpt><trkpt lat="43.9023867" lon="8.0761133"><ele>9.0</ele><time>2026-04-08T10:21:36.232Z</time></trkpt><trkpt lat="43.9024517" lon="8.0761117"><ele>9.0</ele><time>2026-04-08T10:21:38.259Z</time></trkpt><trkpt lat="43.9025267" lon="8.0761167"><ele>9.000000000000002</ele><time>2026-04-08T10:21:40.221Z</time></trkpt><trkpt lat="43.9026" lon="8.0761317"><ele>9.0</ele><time>2026-04-08T10:21:42.231Z</time></trkpt><trkpt lat="43.9026767" lon="8.0761417"><ele>9.0</ele><time>2026-04-08T10:21:44.271Z</time></trkpt><trkpt lat="43.9027483" lon="8.07614"><ele>9.0</ele><time>2026-04-08T10:21:46.205Z</time></trkpt><trkpt lat="43.902825" lon="8.0761367"><ele>9.0</ele><time>2026-04-08T10:21:48.234Z</time></trkpt><trkpt lat="43.9029" lon="8.0761483"><ele>9.0</ele><time>2026-04-08T10:21:50.252Z</time></trkpt><trkpt lat="43.9029767" lon="8.0761517"><ele>9.0</ele><time>2026-04-08T10:21:52.235Z</time></trkpt><trkpt lat="43.9030533" lon="8.0761533"><ele>9.0</ele><time>2026-04-08T10:21:54.225Z</time></trkpt><trkpt lat="43.9031267" lon="8.0761617"><ele>9.000000000000002</ele><time>2026-04-08T10:21:56.281Z</time></trkpt><trkpt lat="43.9031933" lon="8.0761717"><ele>9.0</ele><time>2026-04-08T10:21:58.217Z</time></trkpt><trkpt lat="43.9032617" lon="8.0761817"><ele>9.0</ele><time>2026-04-08T10:22:00.233Z</time></trkpt><trkpt lat="43.9033317" lon="8.0762017"><ele>9.0</ele><time>2026-04-08T10:22:02.325Z</time></trkpt><trkpt lat="43.9034133" lon="8.07623"><ele>9.0</ele><time>2026-04-08T10:22:04.21Z</time></trkpt><trkpt lat="43.903485" lon="8.07625"><ele>9.000000000000002</ele><time>2026-04-08T10:22:06.225Z</time></trkpt><trkpt lat="43.9035633" lon="8.0762583"><ele>9.0</ele><time>2026-04-08T10:22:08.271Z</time></trkpt><trkpt lat="43.903645" lon="8.076255"><ele>9.6</ele><time>2026-04-08T10:22:10.21Z</time></trkpt><trkpt lat="43.9037367" lon="8.0762883"><ele>10.2</ele><time>2026-04-08T10:22:13.208Z</time></trkpt><trkpt lat="43.9038533" lon="8.0763167"><ele>10.799999999999999</ele><time>2026-04-08T10:22:17.295Z</time></trkpt><trkpt lat="43.9039433" lon="8.0763433"><ele>11.4</ele><time>2026-04-08T10:22:20.334Z</time></trkpt><trkpt lat="43.904005" lon="8.0763167"><ele>12.0</ele><time>2026-04-08T10:22:24.238Z</time></trkpt><trkpt lat="43.904095" lon="8.0763217"><ele>12.0</ele><time>2026-04-08T10:22:28.217Z</time></trkpt><trkpt lat="43.9041867" lon="8.0763467"><ele>12.0</ele><time>2026-04-08T10:22:30.23Z</time></trkpt><trkpt lat="43.90426" lon="8.0763817"><ele>12.0</ele><time>2026-04-08T10:22:32.29Z</time></trkpt><trkpt lat="43.90433" lon="8.076405"><ele>12.0</ele><time>2026-04-08T10:22:34.208Z</time></trkpt><trkpt lat="43.904425" lon="8.07643"><ele>12.0</ele><time>2026-04-08T10:22:37.221Z</time></trkpt><trkpt lat="43.9045317" lon="8.0764433"><ele>12.0</ele><time>2026-04-08T10:22:40.208Z</time></trkpt><trkpt lat="43.9046067" lon="8.0764733"><ele>12.8</ele><time>2026-04-08T10:22:42.231Z</time></trkpt><trkpt lat="43.90467" lon="8.07649"><ele>13.6</ele><time>2026-04-08T10:22:44.288Z</time></trkpt><trkpt lat="43.90477" lon="8.0765233"><ele>14.400000000000002</ele><time>2026-04-08T10:23:55.402Z</time></trkpt><trkpt lat="43.9048867" lon="8.0765283"><ele>15.200000000000001</ele><time>2026-04-08T10:23:58.261Z</time></trkpt><trkpt lat="43.905" lon="8.076545"><ele>16.0</ele><time>2026-04-08T10:24:00.311Z</time></trkpt><trkpt lat="43.905065" lon="8.076555"><ele>15.142857142857142</ele><time>2026-04-08T10:24:01.28Z</time></trkpt><trkpt lat="43.9051317" lon="8.0765667"><ele>14.285714285714285</ele><time>2026-04-08T10:24:02.334Z</time></trkpt><trkpt lat="43.9052033" lon="8.076575"><ele>13.428571428571427</ele><time>2026-04-08T10:24:03.257Z</time></trkpt><trkpt lat="43.9052783" lon="8.0765883"><ele>12.571428571428571</ele><time>2026-04-08T10:24:04.266Z</time></trkpt><trkpt lat="43.90535" lon="8.0766"><ele>11.714285714285715</ele><time>2026-04-08T10:24:05.253Z</time></trkpt><trkpt lat="43.9054183" lon="8.0766117"><ele>10.857142857142858</ele><time>2026-04-08T10:24:06.279Z</time></trkpt><trkpt lat="43.905485" lon="8.07662"><ele>10.0</ele><time>2026-04-08T10:24:07.248Z</time></trkpt><trkpt lat="43.9055533" lon="8.0766317"><ele>9.285714285714285</ele><time>2026-04-08T10:24:08.269Z</time></trkpt><trkpt lat="43.9056217" lon="8.0766433"><ele>8.571428571428571</ele><time>2026-04-08T10:24:09.239Z</time></trkpt><trkpt lat="43.9056867" lon="8.0766583"><ele>7.857142857142858</ele><time>2026-04-08T10:24:10.199Z</time></trkpt><trkpt lat="43.9057517" lon="8.076675"><ele>7.142857142857142</ele><time>2026-04-08T10:24:11.232Z</time></trkpt><trkpt lat="43.9058183" lon="8.0766933"><ele>6.428571428571429</ele><time>2026-04-08T10:24:12.228Z</time></trkpt><trkpt lat="43.9058867" lon="8.0767083"><ele>5.714285714285714</ele><time>2026-04-08T10:24:13.212Z</time></trkpt><trkpt lat="43.9059567" lon="8.0767217"><ele>5.0</ele><time>2026-04-08T10:24:14.286Z</time></trkpt><trkpt lat="43.9060217" lon="8.076735"><ele>5.0</ele><time>2026-04-08T10:24:15.231Z</time></trkpt><trkpt lat="43.90609" lon="8.0767517"><ele>5.0</ele><time>2026-04-08T10:24:16.215Z</time></trkpt><trkpt lat="43.9061583" lon="8.0767633"><ele>5.0</ele><time>2026-04-08T10:24:17.227Z</time></trkpt><trkpt lat="43.9062317" lon="8.076775"><ele>5.0</ele><time>2026-04-08T10:24:18.2Z</time></trkpt><trkpt lat="43.9063017" lon="8.0767917"><ele>5.0</ele><time>2026-04-08T10:24:19.206Z</time></trkpt><trkpt lat="43.90637" lon="8.0768017"><ele>5.0</ele><time>2026-04-08T10:24:20.268Z</time></trkpt><trkpt lat="43.90644" lon="8.0768133"><ele>5.0</ele><time>2026-04-08T10:24:21.201Z</time></trkpt><trkpt lat="43.9065083" lon="8.0768267"><ele>5.0</ele><time>2026-04-08T10:24:22.204Z</time></trkpt><trkpt lat="43.906575" lon="8.0768383"><ele>5.0</ele><time>2026-04-08T10:24:23.226Z</time></trkpt><trkpt lat="43.90664" lon="8.076845"><ele>5.0</ele><time>2026-04-08T10:24:24.209Z</time></trkpt><trkpt lat="43.9067517" lon="8.0768617"><ele>5.0</ele><time>2026-04-08T10:24:26.273Z</time></trkpt><trkpt lat="43.90685" lon="8.0768767"><ele>5.0</ele><time>2026-04-08T10:24:28.203Z</time></trkpt><trkpt lat="43.906935" lon="8.0769033"><ele>5.0</ele><time>2026-04-08T10:24:30.227Z</time></trkpt><trkpt lat="43.907" lon="8.07695"><ele>5.166666666666667</ele><time>2026-04-08T10:24:32.324Z</time></trkpt><trkpt lat="43.9070517" lon="8.077005"><ele>5.333333333333334</ele><time>2026-04-08T10:24:34.221Z</time></trkpt><trkpt lat="43.9071367" lon="8.07703"><ele>5.5</ele><time>2026-04-08T10:24:37.223Z</time></trkpt><trkpt lat="43.9072017" lon="8.0770383"><ele>5.666666666666667</ele><time>2026-04-08T10:24:39.261Z</time></trkpt><trkpt lat="43.90729" lon="8.0770633"><ele>5.833333333333333</ele><time>2026-04-08T10:24:42.222Z</time></trkpt><trkpt lat="43.9073733" lon="8.0771017"><ele>6.0</ele><time>2026-04-08T10:24:44.44Z</time></trkpt><trkpt lat="43.9074783" lon="8.0771417"><ele>6.0</ele><time>2026-04-08T10:24:46.203Z</time></trkpt><trkpt lat="43.90758" lon="8.0771767"><ele>6.0</ele><time>2026-04-08T10:24:48.2Z</time></trkpt><trkpt lat="43.907675" lon="8.07722"><ele>6.0</ele><time>2026-04-08T10:24:50.254Z</time></trkpt><trkpt lat="43.9077683" lon="8.077265"><ele>6.0</ele><time>2026-04-08T10:24:52.213Z</time></trkpt><trkpt lat="43.9078533" lon="8.0773017"><ele>6.0</ele><time>2026-04-08T10:24:54.206Z</time></trkpt><trkpt lat="43.9079333" lon="8.0773483"><ele>5.999999999999999</ele><time>2026-04-08T10:24:56.288Z</time></trkpt><trkpt lat="43.9079967" lon="8.0773967"><ele>6.0</ele><time>2026-04-08T10:24:58.214Z</time></trkpt><trkpt lat="43.90806" lon="8.0774283"><ele>6.0</ele><time>2026-04-08T10:25:00.218Z</time></trkpt><trkpt lat="43.9081283" lon="8.0774533"><ele>6.0</ele><time>2026-04-08T10:25:02.305Z</time></trkpt><trkpt lat="43.9082033" lon="8.077485"><ele>6.0</ele><time>2026-04-08T10:25:04.281Z</time></trkpt><trkpt lat="43.9082717" lon="8.07752"><ele>5.999999999999999</ele><time>2026-04-08T10:25:06.268Z</time></trkpt><trkpt lat="43.908335" lon="8.077555"><ele>6.0</ele><time>2026-04-08T10:25:09.239Z</time></trkpt><trkpt lat="43.9083933" lon="8.0775917"><ele>6.166666666666667</ele><time>2026-04-08T10:25:14.248Z</time></trkpt><trkpt lat="43.9084667" lon="8.07765"><ele>6.333333333333334</ele><time>2026-04-08T10:25:18.206Z</time></trkpt><trkpt lat="43.90853" lon="8.0776767"><ele>6.5</ele><time>2026-04-08T10:25:20.377Z</time></trkpt><trkpt lat="43.9086167" lon="8.0777283"><ele>6.666666666666667</ele><time>2026-04-08T10:25:23.258Z</time></trkpt><trkpt lat="43.908705" lon="8.0777783"><ele>6.833333333333334</ele><time>2026-04-08T10:25:26.305Z</time></trkpt><trkpt lat="43.908765" lon="8.0778133"><ele>7.0</ele><time>2026-04-08T10:25:28.207Z</time></trkpt><trkpt lat="43.90885" lon="8.077875"><ele>7.0</ele><time>2026-04-08T10:25:31.204Z</time></trkpt><trkpt lat="43.90891" lon="8.0779217"><ele>7.0</ele><time>2026-04-08T10:25:33.215Z</time></trkpt><trkpt lat="43.9089733" lon="8.0779733"><ele>7.0</ele><time>2026-04-08T10:25:35.229Z</time></trkpt><trkpt lat="43.9090433" lon="8.07803"><ele>7.0</ele><time>2026-04-08T10:25:37.212Z</time></trkpt><trkpt lat="43.9091083" lon="8.0780833"><ele>7.0</ele><time>2026-04-08T10:25:39.216Z</time></trkpt><trkpt lat="43.9091733" lon="8.0781333"><ele>7.0</ele><time>2026-04-08T10:25:41.202Z</time></trkpt><trkpt lat="43.909235" lon="8.0781783"><ele>7.0</ele><time>2026-04-08T10:25:43.212Z</time></trkpt><trkpt lat="43.9093" lon="8.078215"><ele>6.666666666666667</ele><time>2026-04-08T10:25:45.335Z</time></trkpt><trkpt lat="43.90937" lon="8.078275"><ele>6.333333333333334</ele><time>2026-04-08T10:25:47.324Z</time></trkpt><trkpt lat="43.9094733" lon="8.07836"><ele>6.0</ele><time>2026-04-08T10:25:50.282Z</time></trkpt><trkpt lat="43.909535" lon="8.0784083"><ele>5.666666666666667</ele><time>2026-04-08T10:25:52.244Z</time></trkpt><trkpt lat="43.9096133" lon="8.0784783"><ele>5.333333333333334</ele><time>2026-04-08T10:25:55.224Z</time></trkpt><trkpt lat="43.909665" lon="8.0785433"><ele>5.0</ele><time>2026-04-08T10:25:57.207Z</time></trkpt><trkpt lat="43.9097283" lon="8.078595"><ele>5.0</ele><time>2026-04-08T10:25:59.203Z</time></trkpt><trkpt lat="43.909795" lon="8.0786517"><ele>5.0</ele><time>2026-04-08T10:26:01.211Z</time></trkpt><trkpt lat="43.9098517" lon="8.078715"><ele>5.0</ele><time>2026-04-08T10:26:03.214Z</time></trkpt><trkpt lat="43.9099167" lon="8.0787833"><ele>5.0</ele><time>2026-04-08T10:26:05.215Z</time></trkpt><trkpt lat="43.90998" lon="8.0788483"><ele>5.0</ele><time>2026-04-08T10:26:07.204Z</time></trkpt><trkpt lat="43.9100467" lon="8.0789067"><ele>5.0</ele><time>2026-04-08T10:26:09.236Z</time></trkpt><trkpt lat="43.91012" lon="8.078975"><ele>5.0</ele><time>2026-04-08T10:26:11.208Z</time></trkpt><trkpt lat="43.9101767" lon="8.0790383"><ele>5.0</ele><time>2026-04-08T10:26:13.22Z</time></trkpt><trkpt lat="43.9102267" lon="8.0791083"><ele>5.0</ele><time>2026-04-08T10:26:15.208Z</time></trkpt><trkpt lat="43.91027" lon="8.0792267"><ele>5.0</ele><time>2026-04-08T10:26:18.225Z</time></trkpt><trkpt lat="43.910315" lon="8.0792917"><ele>5.0</ele><time>2026-04-08T10:26:20.278Z</time></trkpt><trkpt lat="43.9103783" lon="8.0793483"><ele>5.0</ele><time>2026-04-08T10:26:22.245Z</time></trkpt><trkpt lat="43.9104367" lon="8.0794233"><ele>5.0</ele><time>2026-04-08T10:26:25.197Z</time></trkpt><trkpt lat="43.9104833" lon="8.079485"><ele>5.0</ele><time>2026-04-08T10:26:28.211Z</time></trkpt><trkpt lat="43.9105333" lon="8.0795717"><ele>5.0</ele><time>2026-04-08T10:26:32.258Z</time></trkpt><trkpt lat="43.91059" lon="8.0796383"><ele>5.0</ele><time>2026-04-08T10:26:35.303Z</time></trkpt><trkpt lat="43.9106333" lon="8.0797283"><ele>5.0</ele><time>2026-04-08T10:26:39.211Z</time></trkpt><trkpt lat="43.9106867" lon="8.0798"><ele>5.0</ele><time>2026-04-08T10:26:42.216Z</time></trkpt><trkpt lat="43.9107467" lon="8.0798833"><ele>5.166666666666667</ele><time>2026-04-08T10:26:45.217Z</time></trkpt><trkpt lat="43.9107917" lon="8.0799933"><ele>5.333333333333334</ele><time>2026-04-08T10:26:48.235Z</time></trkpt><trkpt lat="43.9108083" lon="8.080085"><ele>5.5</ele><time>2026-04-08T10:26:50.236Z</time></trkpt><trkpt lat="43.91083" lon="8.08018"><ele>5.666666666666667</ele><time>2026-04-08T10:26:52.228Z</time></trkpt><trkpt lat="43.9108583" lon="8.0802583"><ele>5.833333333333333</ele><time>2026-04-08T10:26:54.206Z</time></trkpt><trkpt lat="43.9109067" lon="8.080325"><ele>6.0</ele><time>2026-04-08T10:26:56.295Z</time></trkpt><trkpt lat="43.9109817" lon="8.0803867"><ele>6.0</ele><time>2026-04-08T10:26:59.215Z</time></trkpt><trkpt lat="43.9110533" lon="8.0804583"><ele>6.0</ele><time>2026-04-08T10:27:02.27Z</time></trkpt><trkpt lat="43.9110933" lon="8.0805283"><ele>6.0</ele><time>2026-04-08T10:27:04.242Z</time></trkpt><trkpt lat="43.911135" lon="8.0806"><ele>6.0</ele><time>2026-04-08T10:27:07.202Z</time></trkpt><trkpt lat="43.9112033" lon="8.0806683"><ele>6.0</ele><time>2026-04-08T10:27:11.216Z</time></trkpt><trkpt lat="43.9112683" lon="8.08075"><ele>6.0</ele><time>2026-04-08T10:27:14.239Z</time></trkpt><trkpt lat="43.9113" lon="8.0808367"><ele>6.0</ele><time>2026-04-08T10:27:17.205Z</time></trkpt><trkpt lat="43.9113383" lon="8.0809183"><ele>6.0</ele><time>2026-04-08T10:27:20.256Z</time></trkpt><trkpt lat="43.9113967" lon="8.08101"><ele>6.0</ele><time>2026-04-08T10:27:23.216Z</time></trkpt><trkpt lat="43.911445" lon="8.0810983"><ele>6.0</ele><time>2026-04-08T10:27:26.285Z</time></trkpt><trkpt lat="43.9114833" lon="8.081175"><ele>6.0</ele><time>2026-04-08T10:27:29.224Z</time></trkpt><trkpt lat="43.91152" lon="8.0812583"><ele>6.0</ele><time>2026-04-08T10:27:32.394Z</time></trkpt><trkpt lat="43.9116183" lon="8.0813933"><ele>6.0</ele><time>2026-04-08T10:27:42.247Z</time></trkpt><trkpt lat="43.9116933" lon="8.0814517"><ele>6.0</ele><time>2026-04-08T10:27:45.233Z</time></trkpt><trkpt lat="43.9117417" lon="8.0815217"><ele>6.0</ele><time>2026-04-08T10:27:47.228Z</time></trkpt><trkpt lat="43.9117983" lon="8.0815933"><ele>6.0</ele><time>2026-04-08T10:27:49.241Z</time></trkpt><trkpt lat="43.9118567" lon="8.0817"><ele>6.0</ele><time>2026-04-08T10:27:52.235Z</time></trkpt><trkpt lat="43.9119117" lon="8.0818017"><ele>6.0</ele><time>2026-04-08T10:27:55.221Z</time></trkpt><trkpt lat="43.911965" lon="8.08191"><ele>5.833333333333333</ele><time>2026-04-08T10:27:58.289Z</time></trkpt><trkpt lat="43.912015" lon="8.0820133"><ele>5.666666666666667</ele><time>2026-04-08T10:28:01.232Z</time></trkpt><trkpt lat="43.9120667" lon="8.0821183"><ele>5.5</ele><time>2026-04-08T10:28:04.205Z</time></trkpt><trkpt lat="43.912125" lon="8.0822267"><ele>5.333333333333334</ele><time>2026-04-08T10:28:07.227Z</time></trkpt><trkpt lat="43.9121667" lon="8.0822983"><ele>5.166666666666667</ele><time>2026-04-08T10:28:09.258Z</time></trkpt><trkpt lat="43.9122067" lon="8.08237"><ele>5.0</ele><time>2026-04-08T10:28:11.207Z</time></trkpt><trkpt lat="43.9122433" lon="8.0824433"><ele>5.0</ele><time>2026-04-08T10:28:13.234Z</time></trkpt><trkpt lat="43.9123017" lon="8.0825467"><ele>5.0</ele><time>2026-04-08T10:28:16.311Z</time></trkpt><trkpt lat="43.9123417" lon="8.0826183"><ele>5.0</ele><time>2026-04-08T10:28:18.219Z</time></trkpt><trkpt lat="43.91238" lon="8.082695"><ele>5.0</ele><time>2026-04-08T10:28:20.286Z</time></trkpt><trkpt lat="43.912435" lon="8.0827917"><ele>5.0</ele><time>2026-04-08T10:28:23.236Z</time></trkpt><trkpt lat="43.9124767" lon="8.0828617"><ele>5.0</ele><time>2026-04-08T10:28:25.298Z</time></trkpt><trkpt lat="43.9125183" lon="8.0829533"><ele>5.0</ele><time>2026-04-08T10:28:28.226Z</time></trkpt><trkpt lat="43.912565" lon="8.083035"><ele>5.0</ele><time>2026-04-08T10:28:32.265Z</time></trkpt><trkpt lat="43.9126117" lon="8.0831417"><ele>5.0</ele><time>2026-04-08T10:28:35.213Z</time></trkpt><trkpt lat="43.912665" lon="8.0832367"><ele>5.0</ele><time>2026-04-08T10:28:38.273Z</time></trkpt><trkpt lat="43.9127133" lon="8.0833383"><ele>5.0</ele><time>2026-04-08T10:28:41.237Z</time></trkpt><trkpt lat="43.9127517" lon="8.08341"><ele>5.0</ele><time>2026-04-08T10:28:43.237Z</time></trkpt><trkpt lat="43.912795" lon="8.0834867"><ele>5.142857142857142</ele><time>2026-04-08T10:28:45.239Z</time></trkpt><trkpt lat="43.9128367" lon="8.0835633"><ele>5.285714285714286</ele><time>2026-04-08T10:28:47.244Z</time></trkpt><trkpt lat="43.9128817" lon="8.083645"><ele>5.428571428571429</ele><time>2026-04-08T10:28:49.233Z</time></trkpt><trkpt lat="43.9129233" lon="8.0837183"><ele>5.571428571428571</ele><time>2026-04-08T10:28:51.229Z</time></trkpt><trkpt lat="43.9129683" lon="8.0837867"><ele>5.714285714285714</ele><time>2026-04-08T10:28:53.263Z</time></trkpt><trkpt lat="43.91302" lon="8.0838583"><ele>5.857142857142857</ele><time>2026-04-08T10:28:55.267Z</time></trkpt><trkpt lat="43.9130717" lon="8.08393"><ele>6.0</ele><time>2026-04-08T10:28:57.236Z</time></trkpt><trkpt lat="43.91312" lon="8.0840067"><ele>6.0</ele><time>2026-04-08T10:28:59.248Z</time></trkpt><trkpt lat="43.913165" lon="8.08408"><ele>6.0</ele><time>2026-04-08T10:29:01.304Z</time></trkpt><trkpt lat="43.913215" lon="8.0841567"><ele>6.0</ele><time>2026-04-08T10:29:03.267Z</time></trkpt><trkpt lat="43.9132683" lon="8.0842383"><ele>6.0</ele><time>2026-04-08T10:29:05.262Z</time></trkpt><trkpt lat="43.91333" lon="8.0843233"><ele>6.0</ele><time>2026-04-08T10:29:07.259Z</time></trkpt><trkpt lat="43.9134017" lon="8.0844183"><ele>6.0</ele><time>2026-04-08T10:29:09.255Z</time></trkpt><trkpt lat="43.9134583" lon="8.08447"><ele>6.0</ele><time>2026-04-08T10:29:10.253Z</time></trkpt><trkpt lat="43.9135067" lon="8.0845383"><ele>6.0</ele><time>2026-04-08T10:29:12.267Z</time></trkpt><trkpt lat="43.9135467" lon="8.0846367"><ele>6.0</ele><time>2026-04-08T10:29:16.259Z</time></trkpt><trkpt lat="43.91361" lon="8.0847233"><ele>6.0</ele><time>2026-04-08T10:29:19.27Z</time></trkpt><trkpt lat="43.913675" lon="8.0848117"><ele>6.0</ele><time>2026-04-08T10:29:22.264Z</time></trkpt><trkpt lat="43.9137217" lon="8.084885"><ele>6.0</ele><time>2026-04-08T10:29:24.252Z</time></trkpt><trkpt lat="43.91377" lon="8.0849583"><ele>5.999999999999999</ele><time>2026-04-08T10:29:26.367Z</time></trkpt><trkpt lat="43.9138233" lon="8.0850233"><ele>6.0</ele><time>2026-04-08T10:29:28.28Z</time></trkpt><trkpt lat="43.9138783" lon="8.0850917"><ele>6.0</ele><time>2026-04-08T10:29:30.242Z</time></trkpt><trkpt lat="43.9139267" lon="8.085165"><ele>6.0</ele><time>2026-04-08T10:29:32.317Z</time></trkpt><trkpt lat="43.9139717" lon="8.0852383"><ele>6.0</ele><time>2026-04-08T10:29:34.247Z</time></trkpt><trkpt lat="43.9140217" lon="8.0853117"><ele>5.999999999999999</ele><time>2026-04-08T10:29:36.248Z</time></trkpt><trkpt lat="43.91407" lon="8.0853767"><ele>6.0</ele><time>2026-04-08T10:29:38.295Z</time></trkpt><trkpt lat="43.9141217" lon="8.08544"><ele>5.999999999999999</ele><time>2026-04-08T10:29:40.31Z</time></trkpt><trkpt lat="43.9141733" lon="8.08551"><ele>6.0</ele><time>2026-04-08T10:29:42.267Z</time></trkpt><trkpt lat="43.91422" lon="8.0855783"><ele>6.0</ele><time>2026-04-08T10:29:44.3Z</time></trkpt><trkpt lat="43.9142683" lon="8.08565"><ele>6.0</ele><time>2026-04-08T10:29:46.249Z</time></trkpt><trkpt lat="43.914315" lon="8.08572"><ele>6.0</ele><time>2026-04-08T10:29:48.275Z</time></trkpt><trkpt lat="43.914365" lon="8.0857867"><ele>5.999999999999999</ele><time>2026-04-08T10:29:50.328Z</time></trkpt><trkpt lat="43.914415" lon="8.08586"><ele>6.0</ele><time>2026-04-08T10:29:52.266Z</time></trkpt><trkpt lat="43.9144633" lon="8.0859367"><ele>6.0</ele><time>2026-04-08T10:29:54.253Z</time></trkpt><trkpt lat="43.91452" lon="8.0860117"><ele>6.0</ele><time>2026-04-08T10:29:56.374Z</time></trkpt><trkpt lat="43.91458" lon="8.0860867"><ele>6.0</ele><time>2026-04-08T10:29:58.394Z</time></trkpt><trkpt lat="43.91464" lon="8.0861633"><ele>6.0</ele><time>2026-04-08T10:30:00.275Z</time></trkpt><trkpt lat="43.9146967" lon="8.0862383"><ele>6.0</ele><time>2026-04-08T10:30:02.359Z</time></trkpt><trkpt lat="43.9147567" lon="8.0863117"><ele>6.0</ele><time>2026-04-08T10:30:04.26Z</time></trkpt><trkpt lat="43.914815" lon="8.0863883"><ele>6.0</ele><time>2026-04-08T10:30:06.271Z</time></trkpt><trkpt lat="43.914875" lon="8.086465"><ele>6.0</ele><time>2026-04-08T10:30:08.404Z</time></trkpt><trkpt lat="43.9149317" lon="8.086545"><ele>6.0</ele><time>2026-04-08T10:30:10.271Z</time></trkpt><trkpt lat="43.91499" lon="8.0866283"><ele>6.0</ele><time>2026-04-08T10:30:12.268Z</time></trkpt><trkpt lat="43.91505" lon="8.0867083"><ele>6.0</ele><time>2026-04-08T10:30:14.339Z</time></trkpt><trkpt lat="43.9151067" lon="8.0867883"><ele>6.0</ele><time>2026-04-08T10:30:16.259Z</time></trkpt><trkpt lat="43.915165" lon="8.086865"><ele>6.0</ele><time>2026-04-08T10:30:18.288Z</time></trkpt><trkpt lat="43.915225" lon="8.0869417"><ele>6.0</ele><time>2026-04-08T10:30:20.343Z</time></trkpt><trkpt lat="43.9152817" lon="8.087015"><ele>6.0</ele><time>2026-04-08T10:30:22.31Z</time></trkpt><trkpt lat="43.91534" lon="8.0870917"><ele>6.0</ele><time>2026-04-08T10:30:24.26Z</time></trkpt><trkpt lat="43.9153983" lon="8.087165"><ele>6.0</ele><time>2026-04-08T10:30:26.425Z</time></trkpt><trkpt lat="43.91546" lon="8.08724"><ele>6.0</ele><time>2026-04-08T10:30:28.277Z</time></trkpt><trkpt lat="43.9155183" lon="8.0873183"><ele>6.0</ele><time>2026-04-08T10:30:30.299Z</time></trkpt><trkpt lat="43.9155783" lon="8.08739"><ele>6.0</ele><time>2026-04-08T10:30:32.393Z</time></trkpt><trkpt lat="43.9156433" lon="8.0874667"><ele>6.0</ele><time>2026-04-08T10:30:34.23Z</time></trkpt><trkpt lat="43.915685" lon="8.0875467"><ele>6.0</ele><time>2026-04-08T10:30:36.229Z</time></trkpt><trkpt lat="43.91573" lon="8.0876267"><ele>6.0</ele><time>2026-04-08T10:30:38.274Z</time></trkpt><trkpt lat="43.9157867" lon="8.0876983"><ele>6.0</ele><time>2026-04-08T10:30:40.214Z</time></trkpt><trkpt lat="43.9158333" lon="8.0877633"><ele>5.833333333333333</ele><time>2026-04-08T10:30:42.241Z</time></trkpt><trkpt lat="43.9158883" lon="8.0878367"><ele>5.666666666666667</ele><time>2026-04-08T10:30:45.248Z</time></trkpt><trkpt lat="43.91596" lon="8.0879067"><ele>5.5</ele><time>2026-04-08T10:30:48.21Z</time></trkpt><trkpt lat="43.9160083" lon="8.0879683"><ele>5.333333333333334</ele><time>2026-04-08T10:30:50.284Z</time></trkpt><trkpt lat="43.9160633" lon="8.0880433"><ele>5.166666666666667</ele><time>2026-04-08T10:30:52.259Z</time></trkpt><trkpt lat="43.9161233" lon="8.088125"><ele>5.0</ele><time>2026-04-08T10:30:54.258Z</time></trkpt><trkpt lat="43.9161833" lon="8.08821"><ele>5.0</ele><time>2026-04-08T10:30:56.262Z</time></trkpt><trkpt lat="43.9162417" lon="8.088295"><ele>5.0</ele><time>2026-04-08T10:30:58.254Z</time></trkpt><trkpt lat="43.9162983" lon="8.0883733"><ele>5.0</ele><time>2026-04-08T10:31:00.249Z</time></trkpt><trkpt lat="43.9163567" lon="8.0884533"><ele>5.0</ele><time>2026-04-08T10:31:02.268Z</time></trkpt><trkpt lat="43.9164167" lon="8.088545"><ele>5.0</ele><time>2026-04-08T10:31:04.238Z</time></trkpt><trkpt lat="43.9164833" lon="8.0886417"><ele>5.0</ele><time>2026-04-08T10:31:06.245Z</time></trkpt><trkpt lat="43.91655" lon="8.0887433"><ele>5.0</ele><time>2026-04-08T10:31:08.271Z</time></trkpt><trkpt lat="43.9166233" lon="8.0888367"><ele>5.0</ele><time>2026-04-08T10:31:10.276Z</time></trkpt><trkpt lat="43.9166883" lon="8.0889117"><ele>5.0</ele><time>2026-04-08T10:31:12.32Z</time></trkpt><trkpt lat="43.9167483" lon="8.0889917"><ele>5.0</ele><time>2026-04-08T10:31:14.294Z</time></trkpt><trkpt lat="43.9168017" lon="8.08907"><ele>5.0</ele><time>2026-04-08T10:31:16.244Z</time></trkpt><trkpt lat="43.91686" lon="8.08915"><ele>5.0</ele><time>2026-04-08T10:31:18.244Z</time></trkpt><trkpt lat="43.916915" lon="8.0892217"><ele>5.333333333333334</ele><time>2026-04-08T10:31:20.36Z</time></trkpt><trkpt lat="43.91697" lon="8.0892983"><ele>5.666666666666667</ele><time>2026-04-08T10:31:22.208Z</time></trkpt><trkpt lat="43.9170233" lon="8.089365"><ele>6.0</ele><time>2026-04-08T10:31:24.245Z</time></trkpt><trkpt lat="43.9170917" lon="8.0894533"><ele>6.333333333333334</ele><time>2026-04-08T10:31:27.264Z</time></trkpt><trkpt lat="43.91714" lon="8.0895217"><ele>6.666666666666667</ele><time>2026-04-08T10:31:29.234Z</time></trkpt><trkpt lat="43.9171967" lon="8.089605"><ele>7.0</ele><time>2026-04-08T10:31:31.237Z</time></trkpt><trkpt lat="43.91725" lon="8.089685"><ele>7.0</ele><time>2026-04-08T10:31:33.247Z</time></trkpt><trkpt lat="43.9173017" lon="8.0897717"><ele>6.999999999999999</ele><time>2026-04-08T10:31:35.26Z</time></trkpt><trkpt lat="43.91739" lon="8.0898833"><ele>6.999999999999999</ele><time>2026-04-08T10:31:38.346Z</time></trkpt><trkpt lat="43.9174467" lon="8.0899683"><ele>7.0</ele><time>2026-04-08T10:31:40.231Z</time></trkpt><trkpt lat="43.91752" lon="8.0901"><ele>7.0</ele><time>2026-04-08T10:31:43.242Z</time></trkpt><trkpt lat="43.9175767" lon="8.0901867"><ele>7.166666666666667</ele><time>2026-04-08T10:31:45.244Z</time></trkpt><trkpt lat="43.9176317" lon="8.090265"><ele>7.333333333333334</ele><time>2026-04-08T10:31:47.26Z</time></trkpt><trkpt lat="43.9176783" lon="8.0903383"><ele>7.5</ele><time>2026-04-08T10:31:49.228Z</time></trkpt><trkpt lat="43.91773" lon="8.0904217"><ele>7.666666666666666</ele><time>2026-04-08T10:31:51.244Z</time></trkpt><trkpt lat="43.917785" lon="8.090515"><ele>7.833333333333333</ele><time>2026-04-08T10:31:53.239Z</time></trkpt><trkpt lat="43.9178367" lon="8.0906017"><ele>8.0</ele><time>2026-04-08T10:31:55.241Z</time></trkpt><trkpt lat="43.917885" lon="8.0906933"><ele>7.999999999999999</ele><time>2026-04-08T10:31:57.238Z</time></trkpt><trkpt lat="43.9179367" lon="8.0907883"><ele>8.0</ele><time>2026-04-08T10:31:59.26Z</time></trkpt><trkpt lat="43.9179817" lon="8.0908733"><ele>8.0</ele><time>2026-04-08T10:32:01.261Z</time></trkpt><trkpt lat="43.9180267" lon="8.0909533"><ele>8.0</ele><time>2026-04-08T10:32:03.221Z</time></trkpt><trkpt lat="43.918075" lon="8.0910433"><ele>7.999999999999999</ele><time>2026-04-08T10:32:05.242Z</time></trkpt><trkpt lat="43.9181283" lon="8.0911467"><ele>8.0</ele><time>2026-04-08T10:32:07.246Z</time></trkpt><trkpt lat="43.9181817" lon="8.0912433"><ele>7.999999999999999</ele><time>2026-04-08T10:32:09.245Z</time></trkpt><trkpt lat="43.9182267" lon="8.0913333"><ele>8.0</ele><time>2026-04-08T10:32:11.246Z</time></trkpt><trkpt lat="43.9182767" lon="8.0914417"><ele>8.0</ele><time>2026-04-08T10:32:13.226Z</time></trkpt><trkpt lat="43.918325" lon="8.09155"><ele>8.0</ele><time>2026-04-08T10:32:15.241Z</time></trkpt><trkpt lat="43.9183767" lon="8.0916583"><ele>7.999999999999999</ele><time>2026-04-08T10:32:17.219Z</time></trkpt><trkpt lat="43.91842" lon="8.09176"><ele>8.0</ele><time>2026-04-08T10:32:19.21Z</time></trkpt><trkpt lat="43.9184633" lon="8.0918533"><ele>8.0</ele><time>2026-04-08T10:32:21.214Z</time></trkpt><trkpt lat="43.9185067" lon="8.09194"><ele>7.999999999999999</ele><time>2026-04-08T10:32:23.208Z</time></trkpt><trkpt lat="43.9185433" lon="8.0920333"><ele>8.0</ele><time>2026-04-08T10:32:25.211Z</time></trkpt><trkpt lat="43.9185867" lon="8.0921217"><ele>8.0</ele><time>2026-04-08T10:32:27.222Z</time></trkpt><trkpt lat="43.918625" lon="8.092205"><ele>7.999999999999999</ele><time>2026-04-08T10:32:29.242Z</time></trkpt><trkpt lat="43.9186617" lon="8.09229"><ele>8.0</ele><time>2026-04-08T10:32:31.211Z</time></trkpt><trkpt lat="43.9186983" lon="8.09237"><ele>8.0</ele><time>2026-04-08T10:32:33.225Z</time></trkpt><trkpt lat="43.9187333" lon="8.0924483"><ele>8.0</ele><time>2026-04-08T10:32:35.217Z</time></trkpt><trkpt lat="43.9187667" lon="8.0925267"><ele>7.999999999999999</ele><time>2026-04-08T10:32:37.213Z</time></trkpt><trkpt lat="43.9188" lon="8.09261"><ele>8.0</ele><time>2026-04-08T10:32:39.203Z</time></trkpt><trkpt lat="43.9188433" lon="8.0927217"><ele>8.0</ele><time>2026-04-08T10:32:42.212Z</time></trkpt><trkpt lat="43.9188817" lon="8.0928017"><ele>7.999999999999999</ele><time>2026-04-08T10:32:44.242Z</time></trkpt><trkpt lat="43.9189267" lon="8.0928867"><ele>8.0</ele><time>2026-04-08T10:32:46.217Z</time></trkpt><trkpt lat="43.91897" lon="8.0929733"><ele>8.0</ele><time>2026-04-08T10:32:48.2Z</time></trkpt><trkpt lat="43.9190183" lon="8.09307"><ele>7.999999999999999</ele><time>2026-04-08T10:32:50.247Z</time></trkpt><trkpt lat="43.9190683" lon="8.0931717"><ele>8.0</ele><time>2026-04-08T10:32:52.208Z</time></trkpt><trkpt lat="43.9191083" lon="8.093275"><ele>8.0</ele><time>2026-04-08T10:32:54.219Z</time></trkpt><trkpt lat="43.919145" lon="8.09337"><ele>8.0</ele><time>2026-04-08T10:32:56.292Z</time></trkpt><trkpt lat="43.9191817" lon="8.093455"><ele>7.999999999999999</ele><time>2026-04-08T10:32:58.249Z</time></trkpt><trkpt lat="43.9192183" lon="8.093545"><ele>8.0</ele><time>2026-04-08T10:33:00.26Z</time></trkpt><trkpt lat="43.9192483" lon="8.093645"><ele>8.571428571428571</ele><time>2026-04-08T10:33:02.282Z</time></trkpt><trkpt lat="43.919295" lon="8.0937283"><ele>9.142857142857142</ele><time>2026-04-08T10:33:04.225Z</time></trkpt><trkpt lat="43.9193333" lon="8.093815"><ele>9.714285714285714</ele><time>2026-04-08T10:33:06.228Z</time></trkpt><trkpt lat="43.919375" lon="8.0938883"><ele>10.285714285714285</ele><time>2026-04-08T10:33:08.289Z</time></trkpt><trkpt lat="43.9194183" lon="8.0939717"><ele>10.857142857142858</ele><time>2026-04-08T10:33:10.234Z</time></trkpt><trkpt lat="43.919465" lon="8.09406"><ele>11.428571428571427</ele><time>2026-04-08T10:33:12.268Z</time></trkpt><trkpt lat="43.919505" lon="8.0941417"><ele>12.0</ele><time>2026-04-08T10:33:14.287Z</time></trkpt><trkpt lat="43.9195433" lon="8.094215"><ele>12.0</ele><time>2026-04-08T10:33:16.273Z</time></trkpt><trkpt lat="43.9195867" lon="8.0943067"><ele>12.0</ele><time>2026-04-08T10:33:18.256Z</time></trkpt><trkpt lat="43.919635" lon="8.094405"><ele>12.0</ele><time>2026-04-08T10:33:20.283Z</time></trkpt><trkpt lat="43.919675" lon="8.0945083"><ele>12.0</ele><time>2026-04-08T10:33:22.241Z</time></trkpt><trkpt lat="43.919725" lon="8.09461"><ele>12.0</ele><time>2026-04-08T10:33:24.213Z</time></trkpt><trkpt lat="43.9197783" lon="8.094715"><ele>12.0</ele><time>2026-04-08T10:33:26.281Z</time></trkpt><trkpt lat="43.919825" lon="8.09482"><ele>12.0</ele><time>2026-04-08T10:33:28.253Z</time></trkpt><trkpt lat="43.9198733" lon="8.09492"><ele>12.0</ele><time>2026-04-08T10:33:30.282Z</time></trkpt><trkpt lat="43.9199183" lon="8.0950267"><ele>12.0</ele><time>2026-04-08T10:33:32.27Z</time></trkpt><trkpt lat="43.9199583" lon="8.0951117"><ele>12.0</ele><time>2026-04-08T10:33:34.224Z</time></trkpt><trkpt lat="43.9200033" lon="8.0952167"><ele>12.0</ele><time>2026-04-08T10:33:37.249Z</time></trkpt><trkpt lat="43.9200617" lon="8.0953133"><ele>12.0</ele><time>2026-04-08T10:33:40.212Z</time></trkpt><trkpt lat="43.9200983" lon="8.0953967"><ele>12.57142857142857</ele><time>2026-04-08T10:33:42.248Z</time></trkpt><trkpt lat="43.92012" lon="8.0954967"><ele>13.142857142857142</ele><time>2026-04-08T10:33:44.28Z</time></trkpt><trkpt lat="43.920165" lon="8.0955933"><ele>13.714285714285714</ele><time>2026-04-08T10:33:47.258Z</time></trkpt><trkpt lat="43.9202017" lon="8.0956667"><ele>14.285714285714285</ele><time>2026-04-08T10:33:49.234Z</time></trkpt><trkpt lat="43.9202417" lon="8.0957467"><ele>14.857142857142856</ele><time>2026-04-08T10:33:51.246Z</time></trkpt><trkpt lat="43.9202767" lon="8.0958233"><ele>15.428571428571427</ele><time>2026-04-08T10:33:53.312Z</time></trkpt><trkpt lat="43.9203067" lon="8.0959067"><ele>16.0</ele><time>2026-04-08T10:33:55.245Z</time></trkpt><trkpt lat="43.9203467" lon="8.095995"><ele>15.999999999999998</ele><time>2026-04-08T10:33:57.252Z</time></trkpt><trkpt lat="43.9203933" lon="8.0960883"><ele>16.0</ele><time>2026-04-08T10:33:59.254Z</time></trkpt><trkpt lat="43.9204317" lon="8.0961767"><ele>16.0</ele><time>2026-04-08T10:34:01.337Z</time></trkpt><trkpt lat="43.9204667" lon="8.0962533"><ele>16.0</ele><time>2026-04-08T10:34:03.28Z</time></trkpt><trkpt lat="43.9205183" lon="8.0963483"><ele>15.999999999999998</ele><time>2026-04-08T10:34:06.239Z</time></trkpt><trkpt lat="43.9205617" lon="8.0964283"><ele>16.0</ele><time>2026-04-08T10:34:08.293Z</time></trkpt><trkpt lat="43.92058" lon="8.096535"><ele>15.666666666666666</ele><time>2026-04-08T10:34:10.243Z</time></trkpt><trkpt lat="43.9206333" lon="8.0966167"><ele>15.333333333333332</ele><time>2026-04-08T10:34:12.211Z</time></trkpt><trkpt lat="43.92068" lon="8.0967217"><ele>15.0</ele><time>2026-04-08T10:34:15.209Z</time></trkpt><trkpt lat="43.9207217" lon="8.096805"><ele>14.666666666666668</ele><time>2026-04-08T10:34:17.253Z</time></trkpt><trkpt lat="43.9207733" lon="8.09689"><ele>14.333333333333334</ele><time>2026-04-08T10:34:19.234Z</time></trkpt><trkpt lat="43.9208183" lon="8.0969817"><ele>14.0</ele><time>2026-04-08T10:34:21.242Z</time></trkpt><trkpt lat="43.92086" lon="8.0970767"><ele>14.000000000000002</ele><time>2026-04-08T10:34:23.265Z</time></trkpt><trkpt lat="43.9208967" lon="8.0971667"><ele>14.0</ele><time>2026-04-08T10:34:25.233Z</time></trkpt><trkpt lat="43.92093" lon="8.09725"><ele>14.0</ele><time>2026-04-08T10:34:27.21Z</time></trkpt><trkpt lat="43.920965" lon="8.097335"><ele>14.0</ele><time>2026-04-08T10:34:29.228Z</time></trkpt><trkpt lat="43.921" lon="8.0974317"><ele>14.000000000000002</ele><time>2026-04-08T10:34:31.207Z</time></trkpt><trkpt lat="43.921025" lon="8.09755"><ele>14.0</ele><time>2026-04-08T10:34:33.234Z</time></trkpt><trkpt lat="43.9210617" lon="8.0976383"><ele>14.000000000000002</ele><time>2026-04-08T10:34:35.25Z</time></trkpt><trkpt lat="43.9210983" lon="8.0977233"><ele>14.0</ele><time>2026-04-08T10:34:37.243Z</time></trkpt><trkpt lat="43.9211417" lon="8.09786"><ele>14.0</ele><time>2026-04-08T10:34:40.213Z</time></trkpt><trkpt lat="43.9211717" lon="8.0979417"><ele>14.0</ele><time>2026-04-08T10:34:42.234Z</time></trkpt><trkpt lat="43.921205" lon="8.0980533"><ele>14.000000000000002</ele><time>2026-04-08T10:34:45.244Z</time></trkpt><trkpt lat="43.92123" lon="8.0981383"><ele>14.0</ele><time>2026-04-08T10:34:48.249Z</time></trkpt><trkpt lat="43.92125" lon="8.098225"><ele>13.166666666666668</ele><time>2026-04-08T10:34:51.209Z</time></trkpt><trkpt lat="43.921285" lon="8.0983417"><ele>12.333333333333334</ele><time>2026-04-08T10:34:54.216Z</time></trkpt><trkpt lat="43.9213083" lon="8.0984267"><ele>11.5</ele><time>2026-04-08T10:34:56.303Z</time></trkpt><trkpt lat="43.9213317" lon="8.0985367"><ele>10.666666666666668</ele><time>2026-04-08T10:34:58.24Z</time></trkpt><trkpt lat="43.92136" lon="8.0986533"><ele>9.833333333333334</ele><time>2026-04-08T10:35:00.23Z</time></trkpt><trkpt lat="43.9213867" lon="8.0987583"><ele>9.0</ele><time>2026-04-08T10:35:02.256Z</time></trkpt><trkpt lat="43.92141" lon="8.0988417"><ele>9.0</ele><time>2026-04-08T10:35:04.212Z</time></trkpt><trkpt lat="43.921445" lon="8.098975"><ele>9.0</ele><time>2026-04-08T10:35:07.245Z</time></trkpt><trkpt lat="43.9214717" lon="8.0990817"><ele>9.0</ele><time>2026-04-08T10:35:09.252Z</time></trkpt><trkpt lat="43.9215" lon="8.0991983"><ele>9.0</ele><time>2026-04-08T10:35:11.263Z</time></trkpt><trkpt lat="43.921525" lon="8.0993083"><ele>9.0</ele><time>2026-04-08T10:35:13.227Z</time></trkpt><trkpt lat="43.9215483" lon="8.0994133"><ele>9.0</ele><time>2026-04-08T10:35:15.237Z</time></trkpt><trkpt lat="43.9215783" lon="8.0995317"><ele>9.0</ele><time>2026-04-08T10:35:17.303Z</time></trkpt><trkpt lat="43.9216117" lon="8.0996467"><ele>9.0</ele><time>2026-04-08T10:35:19.247Z</time></trkpt><trkpt lat="43.9216433" lon="8.0997533"><ele>9.0</ele><time>2026-04-08T10:35:21.248Z</time></trkpt><trkpt lat="43.92167" lon="8.0998483"><ele>9.0</ele><time>2026-04-08T10:35:23.234Z</time></trkpt><trkpt lat="43.921695" lon="8.0999567"><ele>9.0</ele><time>2026-04-08T10:35:25.259Z</time></trkpt><trkpt lat="43.9217267" lon="8.10006"><ele>9.0</ele><time>2026-04-08T10:35:27.298Z</time></trkpt><trkpt lat="43.9217533" lon="8.100155"><ele>8.833333333333334</ele><time>2026-04-08T10:35:29.291Z</time></trkpt><trkpt lat="43.92178" lon="8.1002683"><ele>8.666666666666666</ele><time>2026-04-08T10:35:32.274Z</time></trkpt><trkpt lat="43.921805" lon="8.1003767"><ele>8.5</ele><time>2026-04-08T10:35:35.239Z</time></trkpt><trkpt lat="43.9218033" lon="8.10049"><ele>8.333333333333332</ele><time>2026-04-08T10:35:37.264Z</time></trkpt><trkpt lat="43.9218433" lon="8.1006133"><ele>8.166666666666666</ele><time>2026-04-08T10:35:40.244Z</time></trkpt><trkpt lat="43.9218717" lon="8.1006917"><ele>8.0</ele><time>2026-04-08T10:35:42.237Z</time></trkpt><trkpt lat="43.9219017" lon="8.1007867"><ele>8.0</ele><time>2026-04-08T10:35:44.271Z</time></trkpt><trkpt lat="43.921935" lon="8.10089"><ele>8.0</ele><time>2026-04-08T10:35:46.276Z</time></trkpt><trkpt lat="43.92196" lon="8.10101"><ele>8.0</ele><time>2026-04-08T10:35:48.256Z</time></trkpt><trkpt lat="43.9219867" lon="8.1011483"><ele>8.0</ele><time>2026-04-08T10:35:50.256Z</time></trkpt><trkpt lat="43.922015" lon="8.1012783"><ele>8.0</ele><time>2026-04-08T10:35:52.238Z</time></trkpt><trkpt lat="43.92205" lon="8.101385"><ele>7.999999999999999</ele><time>2026-04-08T10:35:54.217Z</time></trkpt><trkpt lat="43.9220817" lon="8.1015083"><ele>8.0</ele><time>2026-04-08T10:35:56.24Z</time></trkpt><trkpt lat="43.92212" lon="8.1016133"><ele>8.0</ele><time>2026-04-08T10:35:58.237Z</time></trkpt><trkpt lat="43.9221467" lon="8.1017083"><ele>8.0</ele><time>2026-04-08T10:36:00.223Z</time></trkpt><trkpt lat="43.922175" lon="8.101815"><ele>7.999999999999999</ele><time>2026-04-08T10:36:02.263Z</time></trkpt><trkpt lat="43.922205" lon="8.1019483"><ele>8.0</ele><time>2026-04-08T10:36:04.257Z</time></trkpt><trkpt lat="43.9222483" lon="8.1020817"><ele>8.0</ele><time>2026-04-08T10:36:06.207Z</time></trkpt><trkpt lat="43.922285" lon="8.10221"><ele>8.0</ele><time>2026-04-08T10:36:08.268Z</time></trkpt><trkpt lat="43.9223183" lon="8.10233"><ele>8.0</ele><time>2026-04-08T10:36:10.214Z</time></trkpt><trkpt lat="43.92235" lon="8.1024483"><ele>8.0</ele><time>2026-04-08T10:36:13.239Z</time></trkpt><trkpt lat="43.9223883" lon="8.102555"><ele>8.0</ele><time>2026-04-08T10:36:15.253Z</time></trkpt><trkpt lat="43.9224267" lon="8.1026683"><ele>7.999999999999999</ele><time>2026-04-08T10:36:17.278Z</time></trkpt><trkpt lat="43.9224517" lon="8.102805"><ele>8.0</ele><time>2026-04-08T10:36:19.208Z</time></trkpt><trkpt lat="43.92248" lon="8.102885"><ele>8.0</ele><time>2026-04-08T10:36:21.248Z</time></trkpt><trkpt lat="43.9225183" lon="8.1030083"><ele>8.0</ele><time>2026-04-08T10:36:24.301Z</time></trkpt><trkpt lat="43.9225417" lon="8.1030967"><ele>7.999999999999999</ele><time>2026-04-08T10:36:26.284Z</time></trkpt><trkpt lat="43.9225683" lon="8.1031933"><ele>8.0</ele><time>2026-04-08T10:36:28.208Z</time></trkpt><trkpt lat="43.9225967" lon="8.1032983"><ele>7.999999999999999</ele><time>2026-04-08T10:36:30.237Z</time></trkpt><trkpt lat="43.9226233" lon="8.103405"><ele>8.0</ele><time>2026-04-08T10:36:32.278Z</time></trkpt><trkpt lat="43.9226533" lon="8.103515"><ele>8.0</ele><time>2026-04-08T10:36:34.243Z</time></trkpt><trkpt lat="43.9226767" lon="8.1036433"><ele>8.0</ele><time>2026-04-08T10:36:36.253Z</time></trkpt><trkpt lat="43.9227067" lon="8.10377"><ele>7.999999999999999</ele><time>2026-04-08T10:36:38.314Z</time></trkpt><trkpt lat="43.922735" lon="8.10388"><ele>8.0</ele><time>2026-04-08T10:36:40.241Z</time></trkpt><trkpt lat="43.9227633" lon="8.1039883"><ele>7.666666666666666</ele><time>2026-04-08T10:36:42.231Z</time></trkpt><trkpt lat="43.9227917" lon="8.1041217"><ele>7.333333333333333</ele><time>2026-04-08T10:36:44.261Z</time></trkpt><trkpt lat="43.92282" lon="8.1042267"><ele>7.0</ele><time>2026-04-08T10:36:46.227Z</time></trkpt><trkpt lat="43.922845" lon="8.10433"><ele>6.666666666666666</ele><time>2026-04-08T10:36:48.217Z</time></trkpt><trkpt lat="43.9228683" lon="8.1044333"><ele>6.333333333333333</ele><time>2026-04-08T10:36:50.292Z</time></trkpt><trkpt lat="43.9228933" lon="8.104515"><ele>6.0</ele><time>2026-04-08T10:36:52.243Z</time></trkpt><trkpt lat="43.9229117" lon="8.104615"><ele>6.0</ele><time>2026-04-08T10:36:54.247Z</time></trkpt><trkpt lat="43.9229367" lon="8.1047267"><ele>6.0</ele><time>2026-04-08T10:36:56.293Z</time></trkpt><trkpt lat="43.922965" lon="8.104805"><ele>6.0</ele><time>2026-04-08T10:36:58.206Z</time></trkpt><trkpt lat="43.923" lon="8.1048967"><ele>6.0</ele><time>2026-04-08T10:37:00.238Z</time></trkpt><trkpt lat="43.9230283" lon="8.10501"><ele>6.0</ele><time>2026-04-08T10:37:02.257Z</time></trkpt><trkpt lat="43.923055" lon="8.1051133"><ele>6.0</ele><time>2026-04-08T10:37:04.245Z</time></trkpt><trkpt lat="43.9230733" lon="8.1052417"><ele>5.666666666666667</ele><time>2026-04-08T10:37:06.238Z</time></trkpt><trkpt lat="43.9231017" lon="8.1053533"><ele>5.333333333333333</ele><time>2026-04-08T10:37:08.284Z</time></trkpt><trkpt lat="43.923125" lon="8.10544"><ele>5.0</ele><time>2026-04-08T10:37:10.217Z</time></trkpt><trkpt lat="43.92316" lon="8.1055583"><ele>4.666666666666666</ele><time>2026-04-08T10:37:13.235Z</time></trkpt><trkpt lat="43.9231833" lon="8.10565"><ele>4.333333333333333</ele><time>2026-04-08T10:37:15.241Z</time></trkpt><trkpt lat="43.9232133" lon="8.1057483"><ele>4.0</ele><time>2026-04-08T10:37:17.255Z</time></trkpt><trkpt lat="43.9232383" lon="8.1058517"><ele>3.833333333333333</ele><time>2026-04-08T10:37:19.244Z</time></trkpt><trkpt lat="43.9232683" lon="8.1059483"><ele>3.6666666666666665</ele><time>2026-04-08T10:37:21.247Z</time></trkpt><trkpt lat="43.923295" lon="8.106045"><ele>3.5</ele><time>2026-04-08T10:37:23.258Z</time></trkpt><trkpt lat="43.9233217" lon="8.1061367"><ele>3.333333333333333</ele><time>2026-04-08T10:37:25.253Z</time></trkpt><trkpt lat="43.9233583" lon="8.1062883"><ele>3.1666666666666665</ele><time>2026-04-08T10:37:28.204Z</time></trkpt><trkpt lat="43.92338" lon="8.106375"><ele>3.0</ele><time>2026-04-08T10:37:30.239Z</time></trkpt><trkpt lat="43.9233933" lon="8.1064817"><ele>3.666666666666667</ele><time>2026-04-08T10:37:32.328Z</time></trkpt><trkpt lat="43.9234133" lon="8.1065883"><ele>4.333333333333334</ele><time>2026-04-08T10:37:34.248Z</time></trkpt><trkpt lat="43.923435" lon="8.1066967"><ele>5.0</ele><time>2026-04-08T10:37:36.248Z</time></trkpt><trkpt lat="43.92346" lon="8.1068083"><ele>5.666666666666667</ele><time>2026-04-08T10:37:38.277Z</time></trkpt><trkpt lat="43.923485" lon="8.106915"><ele>6.333333333333334</ele><time>2026-04-08T10:37:40.222Z</time></trkpt><trkpt lat="43.9235117" lon="8.1070217"><ele>7.0</ele><time>2026-04-08T10:37:42.239Z</time></trkpt><trkpt lat="43.923535" lon="8.1071233"><ele>7.000000000000001</ele><time>2026-04-08T10:37:44.258Z</time></trkpt><trkpt lat="43.9235533" lon="8.1072233"><ele>7.0</ele><time>2026-04-08T10:37:46.234Z</time></trkpt><trkpt lat="43.9235717" lon="8.1073317"><ele>7.0</ele><time>2026-04-08T10:37:48.239Z</time></trkpt><trkpt lat="43.9235917" lon="8.10743"><ele>7.0</ele><time>2026-04-08T10:37:50.259Z</time></trkpt><trkpt lat="43.923605" lon="8.1075367"><ele>7.000000000000001</ele><time>2026-04-08T10:37:52.226Z</time></trkpt><trkpt lat="43.92362" lon="8.1076467"><ele>7.0</ele><time>2026-04-08T10:37:54.244Z</time></trkpt><trkpt lat="43.9236367" lon="8.1077467"><ele>7.000000000000001</ele><time>2026-04-08T10:37:56.336Z</time></trkpt><trkpt lat="43.9236517" lon="8.1078483"><ele>7.0</ele><time>2026-04-08T10:37:58.228Z</time></trkpt><trkpt lat="43.9236583" lon="8.1079767"><ele>7.0</ele><time>2026-04-08T10:38:00.275Z</time></trkpt><trkpt lat="43.9236717" lon="8.1080833"><ele>7.0</ele><time>2026-04-08T10:38:02.289Z</time></trkpt><trkpt lat="43.9236933" lon="8.1081717"><ele>7.000000000000001</ele><time>2026-04-08T10:38:04.214Z</time></trkpt><trkpt lat="43.9237133" lon="8.1082783"><ele>7.0</ele><time>2026-04-08T10:38:06.244Z</time></trkpt><trkpt lat="43.9237333" lon="8.1083783"><ele>7.000000000000001</ele><time>2026-04-08T10:38:08.31Z</time></trkpt><trkpt lat="43.9237483" lon="8.108485"><ele>7.0</ele><time>2026-04-08T10:38:10.243Z</time></trkpt><trkpt lat="43.9237583" lon="8.1086267"><ele>7.0</ele><time>2026-04-08T10:38:12.248Z</time></trkpt><trkpt lat="43.9237833" lon="8.1087233"><ele>7.0</ele><time>2026-04-08T10:38:14.273Z</time></trkpt><trkpt lat="43.9237983" lon="8.1088133"><ele>7.000000000000001</ele><time>2026-04-08T10:38:16.24Z</time></trkpt><trkpt lat="43.9238167" lon="8.1089083"><ele>7.0</ele><time>2026-04-08T10:38:18.248Z</time></trkpt><trkpt lat="43.9238333" lon="8.10901"><ele>7.000000000000001</ele><time>2026-04-08T10:38:20.32Z</time></trkpt><trkpt lat="43.9238483" lon="8.1091133"><ele>7.0</ele><time>2026-04-08T10:38:22.25Z</time></trkpt><trkpt lat="43.923855" lon="8.109225"><ele>7.0</ele><time>2026-04-08T10:38:24.252Z</time></trkpt><trkpt lat="43.923845" lon="8.109355"><ele>7.0</ele><time>2026-04-08T10:38:26.271Z</time></trkpt><trkpt lat="43.923865" lon="8.1094533"><ele>7.000000000000001</ele><time>2026-04-08T10:38:28.228Z</time></trkpt><trkpt lat="43.9238767" lon="8.1095517"><ele>7.0</ele><time>2026-04-08T10:38:30.206Z</time></trkpt><trkpt lat="43.9238733" lon="8.109645"><ele>7.000000000000001</ele><time>2026-04-08T10:38:32.272Z</time></trkpt><trkpt lat="43.9238817" lon="8.1097583"><ele>7.0</ele><time>2026-04-08T10:38:34.251Z</time></trkpt><trkpt lat="43.9239017" lon="8.1098617"><ele>7.0</ele><time>2026-04-08T10:38:36.206Z</time></trkpt><trkpt lat="43.9239167" lon="8.10996"><ele>7.0</ele><time>2026-04-08T10:38:38.279Z</time></trkpt><trkpt lat="43.9239317" lon="8.110065"><ele>7.000000000000001</ele><time>2026-04-08T10:38:40.228Z</time></trkpt><trkpt lat="43.92394" lon="8.1101667"><ele>7.0</ele><time>2026-04-08T10:38:42.249Z</time></trkpt><trkpt lat="43.9239283" lon="8.11028"><ele>7.000000000000001</ele><time>2026-04-08T10:38:44.294Z</time></trkpt><trkpt lat="43.9239317" lon="8.1103767"><ele>7.0</ele><time>2026-04-08T10:38:46.23Z</time></trkpt><trkpt lat="43.9239467" lon="8.110475"><ele>7.0</ele><time>2026-04-08T10:38:48.324Z</time></trkpt><trkpt lat="43.9239533" lon="8.1105833"><ele>7.0</ele><time>2026-04-08T10:38:50.28Z</time></trkpt><trkpt lat="43.92396" lon="8.1106917"><ele>7.000000000000001</ele><time>2026-04-08T10:38:52.213Z</time></trkpt><trkpt lat="43.923965" lon="8.1108017"><ele>7.0</ele><time>2026-04-08T10:38:54.262Z</time></trkpt><trkpt lat="43.923955" lon="8.11093"><ele>7.000000000000001</ele><time>2026-04-08T10:38:56.306Z</time></trkpt><trkpt lat="43.92396" lon="8.1110367"><ele>7.0</ele><time>2026-04-08T10:38:58.234Z</time></trkpt><trkpt lat="43.9239733" lon="8.111145"><ele>7.0</ele><time>2026-04-08T10:39:00.264Z</time></trkpt><trkpt lat="43.9239833" lon="8.1112517"><ele>7.0</ele><time>2026-04-08T10:39:02.285Z</time></trkpt><trkpt lat="43.9239883" lon="8.1113483"><ele>7.000000000000001</ele><time>2026-04-08T10:39:04.265Z</time></trkpt><trkpt lat="43.924" lon="8.1114583"><ele>7.0</ele><time>2026-04-08T10:39:07.232Z</time></trkpt><trkpt lat="43.9240983" lon="8.1114583"><ele>7.000000000000001</ele><time>2026-04-08T10:41:57.285Z</time></trkpt><trkpt lat="43.9241817" lon="8.1115383"><ele>7.0</ele><time>2026-04-08T10:42:02.305Z</time></trkpt><trkpt lat="43.92423" lon="8.111605"><ele>7.0</ele><time>2026-04-08T10:42:06.25Z</time></trkpt><trkpt lat="43.92428" lon="8.1116717"><ele>7.0</ele><time>2026-04-08T10:42:10.247Z</time></trkpt><trkpt lat="43.9243233" lon="8.1117617"><ele>7.000000000000001</ele><time>2026-04-08T10:43:20.321Z</time></trkpt><trkpt lat="43.9243433" lon="8.1118617"><ele>7.0</ele><time>2026-04-08T10:43:23.23Z</time></trkpt><trkpt lat="43.924365" lon="8.1119833"><ele>8.5</ele><time>2026-04-08T10:43:26.289Z</time></trkpt><trkpt lat="43.9243733" lon="8.1121017"><ele>10.0</ele><time>2026-04-08T10:43:29.241Z</time></trkpt><trkpt lat="43.924365" lon="8.1122333"><ele>11.5</ele><time>2026-04-08T10:43:32.3Z</time></trkpt><trkpt lat="43.9243717" lon="8.11234"><ele>13.0</ele><time>2026-04-08T10:43:34.314Z</time></trkpt><trkpt lat="43.9243867" lon="8.1124467"><ele>14.499999999999998</ele><time>2026-04-08T10:43:36.237Z</time></trkpt><trkpt lat="43.9244167" lon="8.1125617"><ele>16.0</ele><time>2026-04-08T10:43:38.253Z</time></trkpt><trkpt lat="43.9244333" lon="8.1126733"><ele>15.999999999999998</ele><time>2026-04-08T10:43:40.256Z</time></trkpt><trkpt lat="43.9244617" lon="8.112775"><ele>16.0</ele><time>2026-04-08T10:43:42.227Z</time></trkpt><trkpt lat="43.9244767" lon="8.1128867"><ele>16.0</ele><time>2026-04-08T10:43:44.289Z</time></trkpt><trkpt lat="43.9245017" lon="8.112985"><ele>16.0</ele><time>2026-04-08T10:43:46.212Z</time></trkpt><trkpt lat="43.9245333" lon="8.113075"><ele>15.999999999999998</ele><time>2026-04-08T10:43:48.25Z</time></trkpt><trkpt lat="43.9245417" lon="8.11318"><ele>16.0</ele><time>2026-04-08T10:43:50.299Z</time></trkpt><trkpt lat="43.9245467" lon="8.1132967"><ele>15.999999999999998</ele><time>2026-04-08T10:43:52.24Z</time></trkpt><trkpt lat="43.9245633" lon="8.1134133"><ele>16.0</ele><time>2026-04-08T10:43:54.277Z</time></trkpt><trkpt lat="43.9245833" lon="8.113515"><ele>16.0</ele><time>2026-04-08T10:43:56.265Z</time></trkpt><trkpt lat="43.9246" lon="8.1136017"><ele>16.0</ele><time>2026-04-08T10:43:58.214Z</time></trkpt><trkpt lat="43.92461" lon="8.1137067"><ele>15.999999999999998</ele><time>2026-04-08T10:44:01.237Z</time></trkpt><trkpt lat="43.9246233" lon="8.1138067"><ele>16.0</ele><time>2026-04-08T10:44:04.21Z</time></trkpt><trkpt lat="43.92472" lon="8.1138383"><ele>15.999999999999998</ele><time>2026-04-08T10:44:16.263Z</time></trkpt><trkpt lat="43.92478" lon="8.1137833"><ele>16.0</ele><time>2026-04-08T10:44:18.242Z</time></trkpt><trkpt lat="43.9248617" lon="8.1137333"><ele>16.0</ele><time>2026-04-08T10:44:20.299Z</time></trkpt><trkpt lat="43.9249517" lon="8.1136883"><ele>16.0</ele><time>2026-04-08T10:44:22.232Z</time></trkpt><trkpt lat="43.9250217" lon="8.1136333"><ele>15.999999999999998</ele><time>2026-04-08T10:44:24.236Z</time></trkpt><trkpt lat="43.9250717" lon="8.1135433"><ele>16.0</ele><time>2026-04-08T10:44:26.3Z</time></trkpt><trkpt lat="43.9251133" lon="8.1134483"><ele>17.333333333333332</ele><time>2026-04-08T10:44:28.208Z</time></trkpt><trkpt lat="43.925165" lon="8.1133867"><ele>18.666666666666664</ele><time>2026-04-08T10:44:31.245Z</time></trkpt><trkpt lat="43.9252233" lon="8.11328"><ele>20.0</ele><time>2026-04-08T10:44:37.237Z</time></trkpt><trkpt lat="43.9252717" lon="8.1132083"><ele>21.333333333333332</ele><time>2026-04-08T10:44:39.231Z</time></trkpt><trkpt lat="43.9253617" lon="8.1131717"><ele>22.666666666666668</ele><time>2026-04-08T10:44:42.229Z</time></trkpt><trkpt lat="43.92543" lon="8.113155"><ele>24.0</ele><time>2026-04-08T10:44:44.299Z</time></trkpt><trkpt lat="43.9254933" lon="8.1131267"><ele>24.833333333333332</ele><time>2026-04-08T10:44:46.217Z</time></trkpt><trkpt lat="43.925565" lon="8.113105"><ele>25.666666666666664</ele><time>2026-04-08T10:44:48.24Z</time></trkpt><trkpt lat="43.9256367" lon="8.11307"><ele>26.5</ele><time>2026-04-08T10:44:50.291Z</time></trkpt><trkpt lat="43.925715" lon="8.1130317"><ele>27.333333333333332</ele><time>2026-04-08T10:44:52.207Z</time></trkpt><trkpt lat="43.925815" lon="8.113"><ele>28.166666666666664</ele><time>2026-04-08T10:44:54.329Z</time></trkpt><trkpt lat="43.9259117" lon="8.11296"><ele>29.0</ele><time>2026-04-08T10:44:56.311Z</time></trkpt><trkpt lat="43.9260117" lon="8.1129283"><ele>30.833333333333332</ele><time>2026-04-08T10:44:58.216Z</time></trkpt><trkpt lat="43.9261033" lon="8.1129033"><ele>32.666666666666664</ele><time>2026-04-08T10:45:00.273Z</time></trkpt><trkpt lat="43.9261833" lon="8.1128933"><ele>34.5</ele><time>2026-04-08T10:45:02.269Z</time></trkpt><trkpt lat="43.926255" lon="8.112885"><ele>36.333333333333336</ele><time>2026-04-08T10:45:04.249Z</time></trkpt><trkpt lat="43.926325" lon="8.1128867"><ele>38.16666666666667</ele><time>2026-04-08T10:45:06.212Z</time></trkpt><trkpt lat="43.926395" lon="8.112895"><ele>40.0</ele><time>2026-04-08T10:45:08.295Z</time></trkpt><trkpt lat="43.9264767" lon="8.1128983"><ele>40.0</ele><time>2026-04-08T10:45:10.246Z</time></trkpt><trkpt lat="43.9265633" lon="8.1128883"><ele>40.0</ele><time>2026-04-08T10:45:12.244Z</time></trkpt><trkpt lat="43.9266483" lon="8.112895"><ele>40.0</ele><time>2026-04-08T10:45:14.288Z</time></trkpt><trkpt lat="43.92677" lon="8.11293"><ele>40.0</ele><time>2026-04-08T10:45:21.242Z</time></trkpt><trkpt lat="43.926835" lon="8.112935"><ele>40.0</ele><time>2026-04-08T10:45:23.273Z</time></trkpt><trkpt lat="43.926935" lon="8.1129567"><ele>41.5</ele><time>2026-04-08T10:45:26.274Z</time></trkpt><trkpt lat="43.9270417" lon="8.11297"><ele>43.0</ele><time>2026-04-08T10:45:28.238Z</time></trkpt><trkpt lat="43.9271083" lon="8.11299"><ele>44.5</ele><time>2026-04-08T10:45:30.213Z</time></trkpt><trkpt lat="43.927175" lon="8.1129517"><ele>46.0</ele><time>2026-04-08T10:45:33.263Z</time></trkpt><trkpt lat="43.9272667" lon="8.11291"><ele>47.49999999999999</ele><time>2026-04-08T10:45:35.207Z</time></trkpt><trkpt lat="43.9273467" lon="8.1128867"><ele>49.0</ele><time>2026-04-08T10:45:37.235Z</time></trkpt><trkpt lat="43.927425" lon="8.11285"><ele>48.99999999999999</ele><time>2026-04-08T10:45:39.34Z</time></trkpt><trkpt lat="43.927515" lon="8.1128417"><ele>49.0</ele><time>2026-04-08T10:45:41.215Z</time></trkpt><trkpt lat="43.9275967" lon="8.1128233"><ele>49.0</ele><time>2026-04-08T10:45:43.233Z</time></trkpt><trkpt lat="43.9276817" lon="8.1128"><ele>49.0</ele><time>2026-04-08T10:45:45.23Z</time></trkpt><trkpt lat="43.9277533" lon="8.112785"><ele>48.99999999999999</ele><time>2026-04-08T10:45:47.247Z</time></trkpt><trkpt lat="43.9278367" lon="8.112755"><ele>49.0</ele><time>2026-04-08T10:45:49.253Z</time></trkpt><trkpt lat="43.92792" lon="8.11273"><ele>49.33333333333333</ele><time>2026-04-08T10:45:51.23Z</time></trkpt><trkpt lat="43.9279983" lon="8.1127183"><ele>49.666666666666664</ele><time>2026-04-08T10:45:53.296Z</time></trkpt><trkpt lat="43.9280717" lon="8.1127"><ele>50.0</ele><time>2026-04-08T10:45:55.224Z</time></trkpt><trkpt lat="43.9281383" lon="8.1126783"><ele>50.33333333333333</ele><time>2026-04-08T10:45:57.215Z</time></trkpt><trkpt lat="43.9282183" lon="8.1126433"><ele>50.666666666666664</ele><time>2026-04-08T10:45:59.233Z</time></trkpt><trkpt lat="43.9283067" lon="8.1126133"><ele>51.0</ele><time>2026-04-08T10:46:01.244Z</time></trkpt><trkpt lat="43.92841" lon="8.112595"><ele>51.0</ele><time>2026-04-08T10:46:03.238Z</time></trkpt><trkpt lat="43.92848" lon="8.1125533"><ele>51.0</ele><time>2026-04-08T10:46:05.289Z</time></trkpt><trkpt lat="43.9285733" lon="8.112545"><ele>51.0</ele><time>2026-04-08T10:46:07.207Z</time></trkpt><trkpt lat="43.92867" lon="8.1125433"><ele>51.0</ele><time>2026-04-08T10:46:09.303Z</time></trkpt><trkpt lat="43.9287583" lon="8.1125467"><ele>51.0</ele><time>2026-04-08T10:46:11.394Z</time></trkpt><trkpt lat="43.928875" lon="8.112545"><ele>51.0</ele><time>2026-04-08T10:46:14.407Z</time></trkpt><trkpt lat="43.92895" lon="8.1125433"><ele>51.0</ele><time>2026-04-08T10:46:16.215Z</time></trkpt><trkpt lat="43.9290317" lon="8.11255"><ele>51.0</ele><time>2026-04-08T10:46:18.245Z</time></trkpt><trkpt lat="43.92911" lon="8.1125383"><ele>51.0</ele><time>2026-04-08T10:46:20.289Z</time></trkpt><trkpt lat="43.9291817" lon="8.112525"><ele>51.0</ele><time>2026-04-08T10:46:22.234Z</time></trkpt><trkpt lat="43.92925" lon="8.1124933"><ele>51.0</ele><time>2026-04-08T10:46:24.224Z</time></trkpt><trkpt lat="43.9293267" lon="8.11244"><ele>53.833333333333336</ele><time>2026-04-08T10:46:26.292Z</time></trkpt><trkpt lat="43.92939" lon="8.11237"><ele>56.66666666666667</ele><time>2026-04-08T10:46:28.203Z</time></trkpt><trkpt lat="43.92944" lon="8.1123017"><ele>59.5</ele><time>2026-04-08T10:46:30.223Z</time></trkpt><trkpt lat="43.9294933" lon="8.112235"><ele>62.333333333333336</ele><time>2026-04-08T10:46:32.305Z</time></trkpt><trkpt lat="43.9295567" lon="8.1121733"><ele>65.16666666666667</ele><time>2026-04-08T10:46:34.231Z</time></trkpt><trkpt lat="43.929625" lon="8.1121167"><ele>68.0</ele><time>2026-04-08T10:46:36.239Z</time></trkpt><trkpt lat="43.9297033" lon="8.11206"><ele>68.0</ele><time>2026-04-08T10:46:38.268Z</time></trkpt><trkpt lat="43.9297867" lon="8.1120267"><ele>68.0</ele><time>2026-04-08T10:46:40.237Z</time></trkpt><trkpt lat="43.9298767" lon="8.112015"><ele>68.0</ele><time>2026-04-08T10:46:42.244Z</time></trkpt><trkpt lat="43.9299667" lon="8.112005"><ele>68.0</ele><time>2026-04-08T10:46:44.315Z</time></trkpt><trkpt lat="43.9300567" lon="8.1119967"><ele>68.0</ele><time>2026-04-08T10:46:46.244Z</time></trkpt><trkpt lat="43.9301517" lon="8.11199"><ele>69.4</ele><time>2026-04-08T10:46:48.238Z</time></trkpt><trkpt lat="43.9302433" lon="8.1119967"><ele>70.8</ele><time>2026-04-08T10:46:50.257Z</time></trkpt><trkpt lat="43.930335" lon="8.112"><ele>72.2</ele><time>2026-04-08T10:46:52.245Z</time></trkpt><trkpt lat="43.9304367" lon="8.1120167"><ele>73.6</ele><time>2026-04-08T10:46:54.213Z</time></trkpt><trkpt lat="43.9305367" lon="8.1120417"><ele>75.0</ele><time>2026-04-08T10:46:56.28Z</time></trkpt><trkpt lat="43.93063" lon="8.11207"><ele>75.0</ele><time>2026-04-08T10:46:58.225Z</time></trkpt><trkpt lat="43.9307" lon="8.1121033"><ele>75.0</ele><time>2026-04-08T10:47:00.265Z</time></trkpt><trkpt lat="43.9307617" lon="8.1121583"><ele>75.0</ele><time>2026-04-08T10:47:03.231Z</time></trkpt><trkpt lat="43.9307817" lon="8.1122517"><ele>75.0</ele><time>2026-04-08T10:47:12.331Z</time></trkpt><trkpt lat="43.93071" lon="8.1123717"><ele>75.0</ele><time>2026-04-08T10:47:16.216Z</time></trkpt><trkpt lat="43.9306333" lon="8.1123967"><ele>75.0</ele><time>2026-04-08T10:47:19.23Z</time></trkpt><trkpt lat="43.9305467" lon="8.1124133"><ele>74.16666666666667</ele><time>2026-04-08T10:47:22.201Z</time></trkpt><trkpt lat="43.9304783" lon="8.1124267"><ele>73.33333333333333</ele><time>2026-04-08T10:47:24.234Z</time></trkpt><trkpt lat="43.930405" lon="8.1124517"><ele>72.5</ele><time>2026-04-08T10:47:26.293Z</time></trkpt><trkpt lat="43.93032" lon="8.1124783"><ele>71.66666666666666</ele><time>2026-04-08T10:47:28.212Z</time></trkpt><trkpt lat="43.930245" lon="8.1125033"><ele>70.83333333333333</ele><time>2026-04-08T10:47:30.217Z</time></trkpt><trkpt lat="43.9301667" lon="8.11252"><ele>70.0</ele><time>2026-04-08T10:47:32.35Z</time></trkpt><trkpt lat="43.93009" lon="8.112545"><ele>68.66666666666666</ele><time>2026-04-08T10:47:34.252Z</time></trkpt><trkpt lat="43.9300267" lon="8.1126"><ele>67.33333333333333</ele><time>2026-04-08T10:47:37.21Z</time></trkpt><trkpt lat="43.929975" lon="8.112655"><ele>66.0</ele><time>2026-04-08T10:47:39.227Z</time></trkpt><trkpt lat="43.9299333" lon="8.11273"><ele>64.66666666666667</ele><time>2026-04-08T10:47:41.225Z</time></trkpt><trkpt lat="43.929885" lon="8.1128267"><ele>63.333333333333336</ele><time>2026-04-08T10:47:44.279Z</time></trkpt><trkpt lat="43.92982" lon="8.1129017"><ele>62.0</ele><time>2026-04-08T10:47:46.227Z</time></trkpt><trkpt lat="43.929775" lon="8.1129883"><ele>62.0</ele><time>2026-04-08T10:47:48.212Z</time></trkpt><trkpt lat="43.9297567" lon="8.11308"><ele>62.00000000000001</ele><time>2026-04-08T10:47:50.292Z</time></trkpt><trkpt lat="43.929755" lon="8.1131783"><ele>62.0</ele><time>2026-04-08T10:47:52.205Z</time></trkpt><trkpt lat="43.9297633" lon="8.113275"><ele>62.0</ele><time>2026-04-08T10:47:54.235Z</time></trkpt><trkpt lat="43.9297767" lon="8.1133767"><ele>62.00000000000001</ele><time>2026-04-08T10:47:56.302Z</time></trkpt><trkpt lat="43.9297933" lon="8.113485"><ele>62.0</ele><time>2026-04-08T10:47:58.231Z</time></trkpt><trkpt lat="43.9298017" lon="8.1135833"><ele>62.0</ele><time>2026-04-08T10:48:00.249Z</time></trkpt><trkpt lat="43.9297633" lon="8.1136883"><ele>64.33333333333334</ele><time>2026-04-08T10:48:03.241Z</time></trkpt><trkpt lat="43.92969" lon="8.1137633"><ele>66.66666666666667</ele><time>2026-04-08T10:48:06.251Z</time></trkpt><trkpt lat="43.9296267" lon="8.1137867"><ele>69.0</ele><time>2026-04-08T10:48:08.265Z</time></trkpt><trkpt lat="43.9295583" lon="8.1137967"><ele>71.33333333333333</ele><time>2026-04-08T10:48:10.248Z</time></trkpt><trkpt lat="43.9294867" lon="8.1138083"><ele>73.66666666666666</ele><time>2026-04-08T10:48:12.25Z</time></trkpt><trkpt lat="43.92941" lon="8.1138183"><ele>76.0</ele><time>2026-04-08T10:48:14.307Z</time></trkpt><trkpt lat="43.9293333" lon="8.1138283"><ele>76.0</ele><time>2026-04-08T10:48:16.203Z</time></trkpt><trkpt lat="43.929255" lon="8.1138433"><ele>76.0</ele><time>2026-04-08T10:48:18.232Z</time></trkpt><trkpt lat="43.9291783" lon="8.1138517"><ele>76.0</ele><time>2026-04-08T10:48:20.267Z</time></trkpt><trkpt lat="43.9291017" lon="8.1138633"><ele>76.0</ele><time>2026-04-08T10:48:22.241Z</time></trkpt><trkpt lat="43.9290183" lon="8.1138833"><ele>76.0</ele><time>2026-04-08T10:48:24.241Z</time></trkpt><trkpt lat="43.9289367" lon="8.1139183"><ele>76.0</ele><time>2026-04-08T10:48:26.268Z</time></trkpt><trkpt lat="43.9288617" lon="8.11396"><ele>76.33333333333333</ele><time>2026-04-08T10:48:28.22Z</time></trkpt><trkpt lat="43.9287967" lon="8.1139967"><ele>76.66666666666666</ele><time>2026-04-08T10:48:30.231Z</time></trkpt><trkpt lat="43.9287233" lon="8.1140417"><ele>77.0</ele><time>2026-04-08T10:48:32.284Z</time></trkpt><trkpt lat="43.928645" lon="8.1140833"><ele>77.33333333333333</ele><time>2026-04-08T10:48:34.23Z</time></trkpt><trkpt lat="43.9285933" lon="8.1141583"><ele>77.66666666666667</ele><time>2026-04-08T10:48:36.218Z</time></trkpt><trkpt lat="43.9285483" lon="8.1142267"><ele>78.0</ele><time>2026-04-08T10:48:38.275Z</time></trkpt><trkpt lat="43.928455" lon="8.1142867"><ele>78.0</ele><time>2026-04-08T10:48:40.309Z</time></trkpt><trkpt lat="43.9284" lon="8.114355"><ele>78.0</ele><time>2026-04-08T10:48:42.242Z</time></trkpt><trkpt lat="43.9283167" lon="8.1144217"><ele>78.0</ele><time>2026-04-08T10:48:44.287Z</time></trkpt><trkpt lat="43.9282517" lon="8.1144867"><ele>78.0</ele><time>2026-04-08T10:48:46.21Z</time></trkpt><trkpt lat="43.928185" lon="8.114535"><ele>78.0</ele><time>2026-04-08T10:48:48.272Z</time></trkpt><trkpt lat="43.9281133" lon="8.1145633"><ele>78.0</ele><time>2026-04-08T10:48:50.33Z</time></trkpt><trkpt lat="43.9280317" lon="8.1145733"><ele>76.5</ele><time>2026-04-08T10:48:52.225Z</time></trkpt><trkpt lat="43.9279633" lon="8.1145933"><ele>75.0</ele><time>2026-04-08T10:48:54.254Z</time></trkpt><trkpt lat="43.927875" lon="8.11461"><ele>73.5</ele><time>2026-04-08T10:48:56.307Z</time></trkpt><trkpt lat="43.92779" lon="8.1146217"><ele>72.0</ele><time>2026-04-08T10:48:58.209Z</time></trkpt><trkpt lat="43.9277" lon="8.1146333"><ele>70.5</ele><time>2026-04-08T10:49:00.255Z</time></trkpt><trkpt lat="43.92761" lon="8.1146567"><ele>69.0</ele><time>2026-04-08T10:49:02.293Z</time></trkpt><trkpt lat="43.927515" lon="8.1146967"><ele>67.83333333333333</ele><time>2026-04-08T10:49:04.23Z</time></trkpt><trkpt lat="43.92744" lon="8.1147467"><ele>66.66666666666667</ele><time>2026-04-08T10:49:06.213Z</time></trkpt><trkpt lat="43.9273833" lon="8.1147883"><ele>65.5</ele><time>2026-04-08T10:49:10.213Z</time></trkpt><trkpt lat="43.9273533" lon="8.1148667"><ele>64.33333333333334</ele><time>2026-04-08T10:49:21.311Z</time></trkpt><trkpt lat="43.9272867" lon="8.11488"><ele>63.16666666666667</ele><time>2026-04-08T10:49:26.302Z</time></trkpt><trkpt lat="43.9271683" lon="8.1148883"><ele>62.0</ele><time>2026-04-08T10:53:22.247Z</time></trkpt><trkpt lat="43.9270617" lon="8.11484"><ele>65.8</ele><time>2026-04-08T10:53:25.259Z</time></trkpt><trkpt lat="43.927175" lon="8.115015"><ele>69.6</ele><time>2026-04-08T10:53:39.219Z</time></trkpt><trkpt lat="43.9271669" lon="8.1151027"><ele>73.39999999999999</ele><time>2026-04-08T10:54:02.323Z</time></trkpt><trkpt lat="43.9271601" lon="8.1152074"><ele>77.2</ele><time>2026-04-08T10:54:03.246Z</time></trkpt><trkpt lat="43.9271901" lon="8.1153304"><ele>81.0</ele><time>2026-04-08T10:54:06.202Z</time></trkpt><trkpt lat="43.9272219" lon="8.1154128"><ele>81.0</ele><time>2026-04-08T10:54:08.289Z</time></trkpt><trkpt lat="43.9272798" lon="8.1154964"><ele>81.0</ele><time>2026-04-08T10:54:11.256Z</time></trkpt><trkpt lat="43.9272866" lon="8.1156259"><ele>81.0</ele><time>2026-04-08T10:54:14.271Z</time></trkpt><trkpt lat="43.927257" lon="8.115458"><ele>81.0</ele><time>2026-04-08T10:54:17.219Z</time></trkpt><trkpt lat="43.927237" lon="8.1153737"><ele>81.0</ele><time>2026-04-08T10:54:18.268Z</time></trkpt><trkpt lat="43.9272154" lon="8.115289"><ele>81.0</ele><time>2026-04-08T10:54:21.255Z</time></trkpt><trkpt lat="43.9271684" lon="8.1151957"><ele>81.0</ele><time>2026-04-08T10:54:31.264Z</time></trkpt><trkpt lat="43.9271156" lon="8.1151399"><ele>81.0</ele><time>2026-04-08T10:54:39.263Z</time></trkpt><trkpt lat="43.92705" lon="8.1151593"><ele>81.0</ele><time>2026-04-08T10:54:51.371Z</time></trkpt><trkpt lat="43.9269917" lon="8.1151189"><ele>81.0</ele><time>2026-04-08T10:54:55.241Z</time></trkpt><trkpt lat="43.9268915" lon="8.1150806"><ele>81.0</ele><time>2026-04-08T10:55:25.216Z</time></trkpt><trkpt lat="43.9268273" lon="8.1151265"><ele>81.0</ele><time>2026-04-08T10:55:33.287Z</time></trkpt><trkpt lat="43.9267646" lon="8.1150787"><ele>81.0</ele><time>2026-04-08T10:55:35.219Z</time></trkpt><trkpt lat="43.9267012" lon="8.1151259"><ele>81.0</ele><time>2026-04-08T10:55:39.288Z</time></trkpt><trkpt lat="43.9267638" lon="8.1150077"><ele>81.0</ele><time>2026-04-08T10:57:04.268Z</time></trkpt><trkpt lat="43.9268767" lon="8.1150433"><ele>81.0</ele><time>2026-04-08T11:20:34.248Z</time></trkpt><trkpt lat="43.9268333" lon="8.11494"><ele>81.0</ele><time>2026-04-08T11:20:53.225Z</time></trkpt><trkpt lat="43.92695" lon="8.1149817"><ele>81.0</ele><time>2026-04-08T11:21:00.243Z</time></trkpt><trkpt lat="43.9270167" lon="8.1149683"><ele>81.0</ele><time>2026-04-08T11:21:04.222Z</time></trkpt><trkpt lat="43.9270967" lon="8.1149617"><ele>81.0</ele><time>2026-04-08T11:21:07.218Z</time></trkpt><trkpt lat="43.9270532" lon="8.1148885"><ele>81.0</ele><time>2026-04-08T11:21:12.273Z</time></trkpt><trkpt lat="43.9269745" lon="8.1149195"><ele>81.0</ele><time>2026-04-08T11:21:15.272Z</time></trkpt><trkpt lat="43.9270371" lon="8.1149483"><ele>81.0</ele><time>2026-04-08T11:21:38.28Z</time></trkpt><trkpt lat="43.9270889" lon="8.1148984"><ele>81.0</ele><time>2026-04-08T11:21:58.138Z</time></trkpt><trkpt lat="43.9269867" lon="8.11489"><ele>81.0</ele><time>2026-04-08T11:34:55.225Z</time></trkpt><trkpt lat="43.9270543" lon="8.1149156"><ele>81.0</ele><time>2026-04-08T11:35:38.321Z</time></trkpt><trkpt lat="43.9270846" lon="8.1150058"><ele>81.0</ele><time>2026-04-08T11:46:38.327Z</time></trkpt><trkpt lat="43.9270681" lon="8.1149209"><ele>81.0</ele><time>2026-04-08T11:47:13.238Z</time></trkpt><trkpt lat="43.9271271" lon="8.1149679"><ele>81.0</ele><time>2026-04-08T11:50:47.264Z</time></trkpt><trkpt lat="43.9270762" lon="8.1150582"><ele>81.0</ele><time>2026-04-08T11:52:25.271Z</time></trkpt><trkpt lat="43.9270741" lon="8.1149589"><ele>81.0</ele><time>2026-04-08T11:57:19.259Z</time></trkpt><trkpt lat="43.9271458" lon="8.1149237"><ele>81.0</ele><time>2026-04-08T12:11:54.26Z</time></trkpt><trkpt lat="43.9270945" lon="8.1149753"><ele>81.0</ele><time>2026-04-08T12:12:32.27Z</time></trkpt><trkpt lat="43.9270284" lon="8.1148887"><ele>81.0</ele><time>2026-04-08T12:20:05.226Z</time></trkpt><trkpt lat="43.927017" lon="8.1149932"><ele>81.0</ele><time>2026-04-08T12:23:06.249Z</time></trkpt><trkpt lat="43.9270521" lon="8.1150716"><ele>81.0</ele><time>2026-04-08T12:25:26.261Z</time></trkpt><trkpt lat="43.9270671" lon="8.1149857"><ele>81.0</ele><time>2026-04-08T12:26:16.229Z</time></trkpt><trkpt lat="43.9270416" lon="8.1148748"><ele>81.0</ele><time>2026-04-08T12:37:45.225Z</time></trkpt><trkpt lat="43.9271006" lon="8.1147848"><ele>81.0</ele><time>2026-04-08T12:39:21.249Z</time></trkpt><trkpt lat="43.9270932" lon="8.1148855"><ele>81.0</ele><time>2026-04-08T12:42:34.219Z</time></trkpt><trkpt lat="43.9270134" lon="8.1148715"><ele>81.0</ele><time>2026-04-08T12:46:39.237Z</time></trkpt><trkpt lat="43.9270729" lon="8.1148225"><ele>81.0</ele><time>2026-04-08T13:04:17.226Z</time></trkpt><trkpt lat="43.9270903" lon="8.1149226"><ele>81.0</ele><time>2026-04-08T13:05:57.242Z</time></trkpt><trkpt lat="43.927031" lon="8.1149788"><ele>81.0</ele><time>2026-04-08T13:06:11.241Z</time></trkpt><trkpt lat="43.9270085" lon="8.1150687"><ele>81.0</ele><time>2026-04-08T13:06:20.301Z</time></trkpt><trkpt lat="43.9269758" lon="8.1151532"><ele>81.0</ele><time>2026-04-08T13:06:30.202Z</time></trkpt><trkpt lat="43.9269281" lon="8.1152149"><ele>81.0</ele><time>2026-04-08T13:06:38.292Z</time></trkpt><trkpt lat="43.9269087" lon="8.1153031"><ele>81.0</ele><time>2026-04-08T13:06:50.347Z</time></trkpt><trkpt lat="43.9269448" lon="8.1153833"><ele>81.0</ele><time>2026-04-08T13:07:01.277Z</time></trkpt><trkpt lat="43.9270683" lon="8.1154133"><ele>81.0</ele><time>2026-04-08T13:07:21.238Z</time></trkpt><trkpt lat="43.9271042" lon="8.1154894"><ele>81.0</ele><time>2026-04-08T13:07:55.264Z</time></trkpt><trkpt lat="43.9270462" lon="8.115419"><ele>81.0</ele><time>2026-04-08T13:09:45.24Z</time></trkpt><trkpt lat="43.9270396" lon="8.1155082"><ele>81.0</ele><time>2026-04-08T13:12:15.264Z</time></trkpt><trkpt lat="43.9270023" lon="8.115425"><ele>81.0</ele><time>2026-04-08T13:15:27.355Z</time></trkpt><trkpt lat="43.9269816" lon="8.1153372"><ele>81.0</ele><time>2026-04-08T13:15:34.322Z</time></trkpt><trkpt lat="43.9270052" lon="8.1152472"><ele>81.0</ele><time>2026-04-08T13:15:53.247Z</time></trkpt><trkpt lat="43.9270546" lon="8.1151854"><ele>81.0</ele><time>2026-04-08T13:16:06.266Z</time></trkpt><trkpt lat="43.9270857" lon="8.1151092"><ele>81.0</ele><time>2026-04-08T13:16:15.289Z</time></trkpt><trkpt lat="43.9271072" lon="8.1150247"><ele>81.0</ele><time>2026-04-08T13:16:52.256Z</time></trkpt><trkpt lat="43.9271293" lon="8.114928"><ele>81.0</ele><time>2026-04-08T13:18:17.175Z</time></trkpt><trkpt lat="43.9270864" lon="8.1149922"><ele>81.0</ele><time>2026-04-08T13:18:45.221Z</time></trkpt><trkpt lat="43.9269739" lon="8.1150299"><ele>81.0</ele><time>2026-04-08T13:19:07.237Z</time></trkpt><trkpt lat="43.9269056" lon="8.1149991"><ele>81.0</ele><time>2026-04-08T13:19:23.154Z</time></trkpt><trkpt lat="43.9268459" lon="8.1149472"><ele>81.0</ele><time>2026-04-08T13:19:25.252Z</time></trkpt><trkpt lat="43.9267848" lon="8.1149154"><ele>80.25</ele><time>2026-04-08T13:19:39.516Z</time></trkpt><trkpt lat="43.92672" lon="8.1148964"><ele>79.5</ele><time>2026-04-08T13:19:47.068Z</time></trkpt><trkpt lat="43.9265929" lon="8.1151802"><ele>78.75</ele><time>2026-04-08T13:19:57.219Z</time></trkpt><trkpt lat="43.9265668" lon="8.1150617"><ele>78.0</ele><time>2026-04-08T13:20:24.237Z</time></trkpt><trkpt lat="43.9264996" lon="8.1150251"><ele>78.0</ele><time>2026-04-08T13:20:45.281Z</time></trkpt><trkpt lat="43.9264287" lon="8.1150254"><ele>78.0</ele><time>2026-04-08T13:20:58.537Z</time></trkpt><trkpt lat="43.9263633" lon="8.115001"><ele>78.0</ele><time>2026-04-08T13:21:06.191Z</time></trkpt><trkpt lat="43.9263" lon="8.1149426"><ele>78.0</ele><time>2026-04-08T13:21:11.256Z</time></trkpt><trkpt lat="43.9262418" lon="8.1149053"><ele>78.0</ele><time>2026-04-08T13:21:16.361Z</time></trkpt><trkpt lat="43.9262215" lon="8.1148206"><ele>78.0</ele><time>2026-04-08T13:21:29.958Z</time></trkpt><trkpt lat="43.9261552" lon="8.1147943"><ele>78.0</ele><time>2026-04-08T13:21:37.316Z</time></trkpt><trkpt lat="43.9261156" lon="8.1148957"><ele>78.0</ele><time>2026-04-08T13:21:40.224Z</time></trkpt><trkpt lat="43.926051" lon="8.1148874"><ele>78.0</ele><time>2026-04-08T13:21:46.893Z</time></trkpt><trkpt lat="43.9259916" lon="8.114921"><ele>78.0</ele><time>2026-04-08T13:22:03.23Z</time></trkpt><trkpt lat="43.9259048" lon="8.1150681"><ele>78.0</ele><time>2026-04-08T13:22:21.243Z</time></trkpt><trkpt lat="43.9259231" lon="8.1149808"><ele>78.0</ele><time>2026-04-08T13:23:37.155Z</time></trkpt><trkpt lat="43.9258537" lon="8.1149765"><ele>78.0</ele><time>2026-04-08T13:24:37.246Z</time></trkpt><trkpt lat="43.9258022" lon="8.1150447"><ele>78.0</ele><time>2026-04-08T13:24:56.298Z</time></trkpt><trkpt lat="43.9258686" lon="8.1150942"><ele>78.0</ele><time>2026-04-08T13:29:05.285Z</time></trkpt><trkpt lat="43.9259305" lon="8.115161"><ele>78.0</ele><time>2026-04-08T13:29:08.318Z</time></trkpt><trkpt lat="43.925977" lon="8.1152253"><ele>78.0</ele><time>2026-04-08T13:29:13.213Z</time></trkpt><trkpt lat="43.9260058" lon="8.1153064"><ele>78.0</ele><time>2026-04-08T13:29:29.338Z</time></trkpt><trkpt lat="43.9260236" lon="8.1153996"><ele>78.0</ele><time>2026-04-08T13:29:34.279Z</time></trkpt><trkpt lat="43.9260877" lon="8.1153986"><ele>78.0</ele><time>2026-04-08T13:29:40.27Z</time></trkpt><trkpt lat="43.9261423" lon="8.115454"><ele>78.0</ele><time>2026-04-08T13:29:48.214Z</time></trkpt><trkpt lat="43.9261941" lon="8.1155133"><ele>78.0</ele><time>2026-04-08T13:29:56.354Z</time></trkpt><trkpt lat="43.9262579" lon="8.115559"><ele>78.0</ele><time>2026-04-08T13:30:26.169Z</time></trkpt><trkpt lat="43.9262716" lon="8.1154734"><ele>78.0</ele><time>2026-04-08T13:30:37.278Z</time></trkpt><trkpt lat="43.9262537" lon="8.1153848"><ele>78.0</ele><time>2026-04-08T13:30:40.22Z</time></trkpt><trkpt lat="43.9263382" lon="8.1153333"><ele>78.0</ele><time>2026-04-08T13:31:25.257Z</time></trkpt><trkpt lat="43.926418" lon="8.1153739"><ele>78.0</ele><time>2026-04-08T13:31:53.98Z</time></trkpt><trkpt lat="43.9265004" lon="8.1152538"><ele>78.0</ele><time>2026-04-08T13:32:26.287Z</time></trkpt><trkpt lat="43.9265665" lon="8.1151856"><ele>78.0</ele><time>2026-04-08T13:32:31.26Z</time></trkpt><trkpt lat="43.9266754" lon="8.1151323"><ele>78.0</ele><time>2026-04-08T13:32:55.238Z</time></trkpt><trkpt lat="43.926739" lon="8.1151031"><ele>78.0</ele><time>2026-04-08T13:33:00.277Z</time></trkpt><trkpt lat="43.9267962" lon="8.1151698"><ele>78.0</ele><time>2026-04-08T13:33:27.266Z</time></trkpt><trkpt lat="43.9268075" lon="8.1150822"><ele>78.0</ele><time>2026-04-08T13:33:50.438Z</time></trkpt><trkpt lat="43.926874" lon="8.1150881"><ele>78.5</ele><time>2026-04-08T13:33:55.275Z</time></trkpt><trkpt lat="43.9270135" lon="8.1150765"><ele>79.0</ele><time>2026-04-08T13:34:24.246Z</time></trkpt><trkpt lat="43.9270595" lon="8.1149548"><ele>79.5</ele><time>2026-04-08T13:35:32.345Z</time></trkpt><trkpt lat="43.9271063" lon="8.1148961"><ele>80.0</ele><time>2026-04-08T13:36:08.36Z</time></trkpt><trkpt lat="43.9271283" lon="8.114814"><ele>80.5</ele><time>2026-04-08T13:36:18.252Z</time></trkpt><trkpt lat="43.927091" lon="8.1148857"><ele>81.0</ele><time>2026-04-08T13:36:42.277Z</time></trkpt><trkpt lat="43.9271133" lon="8.1149927"><ele>81.0</ele><time>2026-04-08T13:36:57.211Z</time></trkpt><trkpt lat="43.9271826" lon="8.1149566"><ele>81.0</ele><time>2026-04-08T13:37:10.263Z</time></trkpt><trkpt lat="43.9272327" lon="8.114894"><ele>81.0</ele><time>2026-04-08T13:37:19.238Z</time></trkpt><trkpt lat="43.9271636" lon="8.1148666"><ele>81.0</ele><time>2026-04-08T13:37:54.327Z</time></trkpt><trkpt lat="43.9270626" lon="8.1148854"><ele>81.0</ele><time>2026-04-08T13:39:20.301Z</time></trkpt><trkpt lat="43.9271195" lon="8.1148406"><ele>81.0</ele><time>2026-04-08T13:39:57.24Z</time></trkpt><trkpt lat="43.9271993" lon="8.1148295"><ele>81.0</ele><time>2026-04-08T13:41:56.146Z</time></trkpt><trkpt lat="43.9272781" lon="8.1148925"><ele>81.0</ele><time>2026-04-08T13:43:53.238Z</time></trkpt><trkpt lat="43.9273231" lon="8.1149856"><ele>81.0</ele><time>2026-04-08T13:45:53.283Z</time></trkpt><trkpt lat="43.9273503" lon="8.1150645"><ele>81.0</ele><time>2026-04-08T13:45:56.322Z</time></trkpt><trkpt lat="43.9271992" lon="8.1151061"><ele>81.0</ele><time>2026-04-08T13:46:03.265Z</time></trkpt><trkpt lat="43.9274222" lon="8.1151853"><ele>81.0</ele><time>2026-04-08T13:46:11.279Z</time></trkpt><trkpt lat="43.927536" lon="8.1152292"><ele>81.0</ele><time>2026-04-08T13:46:12.234Z</time></trkpt><trkpt lat="43.9276263" lon="8.1152644"><ele>81.0</ele><time>2026-04-08T13:46:13.256Z</time></trkpt><trkpt lat="43.9277036" lon="8.115284"><ele>81.0</ele><time>2026-04-08T13:46:14.317Z</time></trkpt><trkpt lat="43.9277682" lon="8.1152899"><ele>81.0</ele><time>2026-04-08T13:46:15.251Z</time></trkpt><trkpt lat="43.927865" lon="8.115295"><ele>81.33333333333333</ele><time>2026-04-08T13:46:17.275Z</time></trkpt><trkpt lat="43.9279567" lon="8.115295"><ele>81.66666666666667</ele><time>2026-04-08T13:46:20.275Z</time></trkpt><trkpt lat="43.928055" lon="8.1152833"><ele>82.0</ele><time>2026-04-08T13:46:23.267Z</time></trkpt><trkpt lat="43.9281433" lon="8.1152583"><ele>82.33333333333334</ele><time>2026-04-08T13:46:25.298Z</time></trkpt><trkpt lat="43.92823" lon="8.115255"><ele>82.66666666666667</ele><time>2026-04-08T13:46:28.233Z</time></trkpt><trkpt lat="43.92831" lon="8.1152583"><ele>83.0</ele><time>2026-04-08T13:46:31.288Z</time></trkpt><trkpt lat="43.9283967" lon="8.1152617"><ele>85.0</ele><time>2026-04-08T13:46:34.284Z</time></trkpt><trkpt lat="43.9284733" lon="8.1152633"><ele>87.0</ele><time>2026-04-08T13:46:37.272Z</time></trkpt><trkpt lat="43.9285667" lon="8.115295"><ele>89.0</ele><time>2026-04-08T13:46:41.229Z</time></trkpt><trkpt lat="43.9286367" lon="8.11529"><ele>91.0</ele><time>2026-04-08T13:46:43.24Z</time></trkpt><trkpt lat="43.9286983" lon="8.1152583"><ele>93.0</ele><time>2026-04-08T13:46:45.266Z</time></trkpt><trkpt lat="43.9287533" lon="8.1152117"><ele>95.0</ele><time>2026-04-08T13:46:48.231Z</time></trkpt><trkpt lat="43.9288067" lon="8.1151633"><ele>97.0</ele><time>2026-04-08T13:46:53.265Z</time></trkpt><trkpt lat="43.9288717" lon="8.11508"><ele>97.0</ele><time>2026-04-08T13:46:57.248Z</time></trkpt><trkpt lat="43.9289317" lon="8.1150017"><ele>97.0</ele><time>2026-04-08T13:47:00.294Z</time></trkpt><trkpt lat="43.9289883" lon="8.1149167"><ele>97.0</ele><time>2026-04-08T13:47:03.297Z</time></trkpt><trkpt lat="43.929055" lon="8.1148433"><ele>97.0</ele><time>2026-04-08T13:47:06.276Z</time></trkpt><trkpt lat="43.9291533" lon="8.1147683"><ele>97.0</ele><time>2026-04-08T13:47:09.284Z</time></trkpt><trkpt lat="43.9292383" lon="8.114715"><ele>95.57142857142857</ele><time>2026-04-08T13:47:12.253Z</time></trkpt><trkpt lat="43.9293217" lon="8.114675"><ele>94.14285714285715</ele><time>2026-04-08T13:47:15.261Z</time></trkpt><trkpt lat="43.9294083" lon="8.1146367"><ele>92.71428571428572</ele><time>2026-04-08T13:47:18.285Z</time></trkpt><trkpt lat="43.9294717" lon="8.1146117"><ele>91.28571428571428</ele><time>2026-04-08T13:47:20.334Z</time></trkpt><trkpt lat="43.9295367" lon="8.1145883"><ele>89.85714285714286</ele><time>2026-04-08T13:47:22.267Z</time></trkpt><trkpt lat="43.9296" lon="8.1145683"><ele>88.42857142857143</ele><time>2026-04-08T13:47:24.277Z</time></trkpt><trkpt lat="43.9296683" lon="8.11455"><ele>87.0</ele><time>2026-04-08T13:47:26.26Z</time></trkpt><trkpt lat="43.9297733" lon="8.1145183"><ele>87.0</ele><time>2026-04-08T13:47:29.314Z</time></trkpt><trkpt lat="43.92987" lon="8.114495"><ele>87.0</ele><time>2026-04-08T13:47:32.337Z</time></trkpt><trkpt lat="43.9299383" lon="8.11449"><ele>87.0</ele><time>2026-04-08T13:47:34.255Z</time></trkpt><trkpt lat="43.9300217" lon="8.1144867"><ele>87.0</ele><time>2026-04-08T13:47:37.286Z</time></trkpt><trkpt lat="43.93009" lon="8.1144767"><ele>87.0</ele><time>2026-04-08T13:47:40.288Z</time></trkpt><trkpt lat="43.930155" lon="8.1144233"><ele>87.0</ele><time>2026-04-08T13:47:43.222Z</time></trkpt><trkpt lat="43.9301167" lon="8.114335"><ele>87.0</ele><time>2026-04-08T13:47:47.291Z</time></trkpt><trkpt lat="43.9300467" lon="8.1142917"><ele>87.0</ele><time>2026-04-08T13:47:50.354Z</time></trkpt><trkpt lat="43.92997" lon="8.114225"><ele>87.0</ele><time>2026-04-08T13:47:53.254Z</time></trkpt><trkpt lat="43.92987" lon="8.1142017"><ele>87.0</ele><time>2026-04-08T13:47:55.292Z</time></trkpt><trkpt lat="43.9297533" lon="8.11418"><ele>87.0</ele><time>2026-04-08T13:47:57.291Z</time></trkpt><trkpt lat="43.929645" lon="8.1141567"><ele>87.0</ele><time>2026-04-08T13:47:59.246Z</time></trkpt><trkpt lat="43.92954" lon="8.11414"><ele>87.0</ele><time>2026-04-08T13:48:01.259Z</time></trkpt><trkpt lat="43.9294433" lon="8.1141267"><ele>87.0</ele><time>2026-04-08T13:48:03.288Z</time></trkpt><trkpt lat="43.92935" lon="8.1141117"><ele>87.0</ele><time>2026-04-08T13:48:05.266Z</time></trkpt><trkpt lat="43.92926" lon="8.1141017"><ele>87.0</ele><time>2026-04-08T13:48:07.273Z</time></trkpt><trkpt lat="43.9291883" lon="8.1140933"><ele>81.83333333333333</ele><time>2026-04-08T13:48:09.295Z</time></trkpt><trkpt lat="43.9291217" lon="8.114055"><ele>76.66666666666667</ele><time>2026-04-08T13:48:12.311Z</time></trkpt><trkpt lat="43.9290517" lon="8.1140583"><ele>71.5</ele><time>2026-04-08T13:48:14.355Z</time></trkpt><trkpt lat="43.9289883" lon="8.114065"><ele>66.33333333333334</ele><time>2026-04-08T13:48:16.207Z</time></trkpt><trkpt lat="43.928915" lon="8.1140517"><ele>61.16666666666667</ele><time>2026-04-08T13:48:19.271Z</time></trkpt><trkpt lat="43.9289833" lon="8.1139767"><ele>56.0</ele><time>2026-04-08T13:48:47.29Z</time></trkpt><trkpt lat="43.9290683" lon="8.1139383"><ele>56.00000000000001</ele><time>2026-04-08T13:48:53.302Z</time></trkpt><trkpt lat="43.92914" lon="8.1139133"><ele>56.0</ele><time>2026-04-08T13:48:57.258Z</time></trkpt><trkpt lat="43.9292117" lon="8.1138867"><ele>56.0</ele><time>2026-04-08T13:49:01.295Z</time></trkpt><trkpt lat="43.9293033" lon="8.1138583"><ele>56.0</ele><time>2026-04-08T13:49:04.282Z</time></trkpt><trkpt lat="43.9293667" lon="8.1138483"><ele>56.00000000000001</ele><time>2026-04-08T13:49:06.29Z</time></trkpt><trkpt lat="43.92946" lon="8.11383"><ele>56.0</ele><time>2026-04-08T13:49:09.281Z</time></trkpt><trkpt lat="43.9295483" lon="8.1138183"><ele>59.333333333333336</ele><time>2026-04-08T13:49:12.27Z</time></trkpt><trkpt lat="43.929615" lon="8.1138117"><ele>62.66666666666667</ele><time>2026-04-08T13:49:15.255Z</time></trkpt><trkpt lat="43.9296833" lon="8.1138167"><ele>66.0</ele><time>2026-04-08T13:49:27.277Z</time></trkpt><trkpt lat="43.9297833" lon="8.1137283"><ele>69.33333333333333</ele><time>2026-04-08T13:49:31.282Z</time></trkpt><trkpt lat="43.9298167" lon="8.1136283"><ele>72.66666666666666</ele><time>2026-04-08T13:49:34.272Z</time></trkpt><trkpt lat="43.929805" lon="8.11351"><ele>76.0</ele><time>2026-04-08T13:49:39.347Z</time></trkpt><trkpt lat="43.9297867" lon="8.1134167"><ele>76.0</ele><time>2026-04-08T13:49:41.229Z</time></trkpt><trkpt lat="43.9297667" lon="8.113305"><ele>76.0</ele><time>2026-04-08T13:49:43.249Z</time></trkpt><trkpt lat="43.9297533" lon="8.1132067"><ele>76.0</ele><time>2026-04-08T13:49:45.229Z</time></trkpt><trkpt lat="43.9297717" lon="8.1131117"><ele>76.0</ele><time>2026-04-08T13:49:47.273Z</time></trkpt><trkpt lat="43.9297967" lon="8.113015"><ele>76.0</ele><time>2026-04-08T13:49:49.252Z</time></trkpt><trkpt lat="43.9298233" lon="8.11291"><ele>76.0</ele><time>2026-04-08T13:49:53.298Z</time></trkpt><trkpt lat="43.929865" lon="8.1128367"><ele>76.0</ele><time>2026-04-08T13:49:55.316Z</time></trkpt><trkpt lat="43.9299783" lon="8.112715"><ele>74.5</ele><time>2026-04-08T13:49:58.218Z</time></trkpt><trkpt lat="43.93012" lon="8.1126233"><ele>73.0</ele><time>2026-04-08T13:50:01.306Z</time></trkpt><trkpt lat="43.930215" lon="8.1125717"><ele>71.5</ele><time>2026-04-08T13:50:03.286Z</time></trkpt><trkpt lat="43.9303083" lon="8.11253"><ele>70.0</ele><time>2026-04-08T13:50:05.261Z</time></trkpt><trkpt lat="43.930405" lon="8.1124917"><ele>70.0</ele><time>2026-04-08T13:50:07.265Z</time></trkpt><trkpt lat="43.9305033" lon="8.1124433"><ele>70.0</ele><time>2026-04-08T13:50:09.249Z</time></trkpt><trkpt lat="43.9305883" lon="8.1124133"><ele>70.0</ele><time>2026-04-08T13:50:11.207Z</time></trkpt><trkpt lat="43.9306617" lon="8.1124017"><ele>70.0</ele><time>2026-04-08T13:50:13.297Z</time></trkpt><trkpt lat="43.9307383" lon="8.11238"><ele>70.0</ele><time>2026-04-08T13:50:15.275Z</time></trkpt><trkpt lat="43.9307933" lon="8.112325"><ele>70.0</ele><time>2026-04-08T13:50:18.257Z</time></trkpt><trkpt lat="43.9308333" lon="8.1122483"><ele>71.0</ele><time>2026-04-08T13:50:24.266Z</time></trkpt><trkpt lat="43.9307617" lon="8.11218"><ele>72.0</ele><time>2026-04-08T13:50:27.302Z</time></trkpt><trkpt lat="43.930675" lon="8.11207"><ele>73.0</ele><time>2026-04-08T13:50:32.339Z</time></trkpt><trkpt lat="43.9306" lon="8.112045"><ele>74.0</ele><time>2026-04-08T13:50:34.288Z</time></trkpt><trkpt lat="43.9305133" lon="8.1120317"><ele>75.0</ele><time>2026-04-08T13:50:36.285Z</time></trkpt><trkpt lat="43.9304" lon="8.1119883"><ele>75.0</ele><time>2026-04-08T13:50:38.292Z</time></trkpt><trkpt lat="43.9303317" lon="8.1119567"><ele>75.0</ele><time>2026-04-08T13:50:39.225Z</time></trkpt><trkpt lat="43.9302683" lon="8.111935"><ele>75.0</ele><time>2026-04-08T13:50:40.341Z</time></trkpt><trkpt lat="43.93017" lon="8.1119367"><ele>75.0</ele><time>2026-04-08T13:50:42.236Z</time></trkpt><trkpt lat="43.9300883" lon="8.11197"><ele>75.0</ele><time>2026-04-08T13:50:44.283Z</time></trkpt><trkpt lat="43.93001" lon="8.11199"><ele>75.0</ele><time>2026-04-08T13:50:46.24Z</time></trkpt><trkpt lat="43.9299433" lon="8.1120067"><ele>73.6</ele><time>2026-04-08T13:50:48.283Z</time></trkpt><trkpt lat="43.9298567" lon="8.1120433"><ele>72.2</ele><time>2026-04-08T13:50:50.329Z</time></trkpt><trkpt lat="43.9297633" lon="8.1121333"><ele>70.8</ele><time>2026-04-08T13:50:53.201Z</time></trkpt><trkpt lat="43.929685" lon="8.1122033"><ele>69.4</ele><time>2026-04-08T13:50:56.361Z</time></trkpt><trkpt lat="43.9296017" lon="8.1122733"><ele>68.0</ele><time>2026-04-08T13:50:58.359Z</time></trkpt><trkpt lat="43.9295417" lon="8.1123367"><ele>68.0</ele><time>2026-04-08T13:51:00.286Z</time></trkpt><trkpt lat="43.9294483" lon="8.1123867"><ele>68.0</ele><time>2026-04-08T13:51:03.281Z</time></trkpt><trkpt lat="43.92938" lon="8.1124117"><ele>68.0</ele><time>2026-04-08T13:51:05.289Z</time></trkpt><trkpt lat="43.929315" lon="8.112425"><ele>68.0</ele><time>2026-04-08T13:51:07.238Z</time></trkpt><trkpt lat="43.9292283" lon="8.1124267"><ele>68.0</ele><time>2026-04-08T13:51:10.259Z</time></trkpt><trkpt lat="43.9291483" lon="8.1124333"><ele>68.0</ele><time>2026-04-08T13:51:13.276Z</time></trkpt><trkpt lat="43.9290783" lon="8.1124367"><ele>65.16666666666667</ele><time>2026-04-08T13:51:15.27Z</time></trkpt><trkpt lat="43.929015" lon="8.1124417"><ele>62.333333333333336</ele><time>2026-04-08T13:51:17.29Z</time></trkpt><trkpt lat="43.928925" lon="8.1124683"><ele>59.5</ele><time>2026-04-08T13:51:20.311Z</time></trkpt><trkpt lat="43.9288433" lon="8.112485"><ele>56.66666666666667</ele><time>2026-04-08T13:51:22.247Z</time></trkpt><trkpt lat="43.9287567" lon="8.112515"><ele>53.833333333333336</ele><time>2026-04-08T13:51:24.251Z</time></trkpt><trkpt lat="43.9286717" lon="8.1125633"><ele>51.0</ele><time>2026-04-08T13:51:26.363Z</time></trkpt><trkpt lat="43.9285917" lon="8.1125983"><ele>51.0</ele><time>2026-04-08T13:51:28.255Z</time></trkpt><trkpt lat="43.9285083" lon="8.1126083"><ele>51.0</ele><time>2026-04-08T13:51:30.228Z</time></trkpt><trkpt lat="43.92842" lon="8.1126233"><ele>51.0</ele><time>2026-04-08T13:51:32.343Z</time></trkpt><trkpt lat="43.9282667" lon="8.1126667"><ele>51.0</ele><time>2026-04-08T13:51:35.297Z</time></trkpt><trkpt lat="43.928175" lon="8.1127"><ele>51.0</ele><time>2026-04-08T13:51:37.272Z</time></trkpt><trkpt lat="43.92811" lon="8.1127217"><ele>51.0</ele><time>2026-04-08T13:51:39.257Z</time></trkpt><trkpt lat="43.928045" lon="8.1127367"><ele>51.0</ele><time>2026-04-08T13:51:41.3Z</time></trkpt><trkpt lat="43.9279267" lon="8.1127417"><ele>51.0</ele><time>2026-04-08T13:51:43.256Z</time></trkpt><trkpt lat="43.9278367" lon="8.1127733"><ele>51.0</ele><time>2026-04-08T13:51:45.281Z</time></trkpt><trkpt lat="43.92776" lon="8.112785"><ele>51.0</ele><time>2026-04-08T13:51:47.223Z</time></trkpt><trkpt lat="43.9276683" lon="8.1128017"><ele>51.0</ele><time>2026-04-08T13:51:49.259Z</time></trkpt><trkpt lat="43.9275817" lon="8.1128333"><ele>50.599999999999994</ele><time>2026-04-08T13:51:51.307Z</time></trkpt><trkpt lat="43.9274917" lon="8.1128667"><ele>50.2</ele><time>2026-04-08T13:51:53.347Z</time></trkpt><trkpt lat="43.927405" lon="8.1128833"><ele>49.8</ele><time>2026-04-08T13:51:55.269Z</time></trkpt><trkpt lat="43.927265" lon="8.1128917"><ele>49.400000000000006</ele><time>2026-04-08T13:51:58.286Z</time></trkpt><trkpt lat="43.927195" lon="8.1128533"><ele>49.0</ele><time>2026-04-08T13:52:00.268Z</time></trkpt><trkpt lat="43.9271283" lon="8.1128183"><ele>49.0</ele><time>2026-04-08T13:52:02.361Z</time></trkpt><trkpt lat="43.9270183" lon="8.1127983"><ele>49.0</ele><time>2026-04-08T13:52:05.28Z</time></trkpt><trkpt lat="43.9269267" lon="8.11279"><ele>49.0</ele><time>2026-04-08T13:52:07.303Z</time></trkpt><trkpt lat="43.9268367" lon="8.112775"><ele>49.0</ele><time>2026-04-08T13:52:09.259Z</time></trkpt><trkpt lat="43.92674" lon="8.1127733"><ele>49.0</ele><time>2026-04-08T13:52:11.225Z</time></trkpt><trkpt lat="43.926615" lon="8.1128117"><ele>47.2</ele><time>2026-04-08T13:52:12.24Z</time></trkpt><trkpt lat="43.9264583" lon="8.1127833"><ele>45.400000000000006</ele><time>2026-04-08T13:52:15.262Z</time></trkpt><trkpt lat="43.9263667" lon="8.1127817"><ele>43.6</ele><time>2026-04-08T13:52:17.279Z</time></trkpt><trkpt lat="43.9262783" lon="8.1127767"><ele>41.8</ele><time>2026-04-08T13:52:19.257Z</time></trkpt><trkpt lat="43.9261817" lon="8.1127967"><ele>40.0</ele><time>2026-04-08T13:52:21.279Z</time></trkpt><trkpt lat="43.9260767" lon="8.1128267"><ele>40.0</ele><time>2026-04-08T13:52:23.265Z</time></trkpt><trkpt lat="43.9259933" lon="8.1128667"><ele>40.0</ele><time>2026-04-08T13:52:25.243Z</time></trkpt><trkpt lat="43.9259167" lon="8.11291"><ele>40.0</ele><time>2026-04-08T13:52:27.233Z</time></trkpt><trkpt lat="43.9258683" lon="8.1129667"><ele>40.0</ele><time>2026-04-08T13:52:30.269Z</time></trkpt><trkpt lat="43.9257967" lon="8.113015"><ele>40.0</ele><time>2026-04-08T13:52:33.242Z</time></trkpt><trkpt lat="43.925715" lon="8.113075"><ele>40.0</ele><time>2026-04-08T13:52:36.248Z</time></trkpt><trkpt lat="43.925655" lon="8.1131217"><ele>38.16666666666667</ele><time>2026-04-08T13:52:38.263Z</time></trkpt><trkpt lat="43.92558" lon="8.1131317"><ele>36.333333333333336</ele><time>2026-04-08T13:52:40.27Z</time></trkpt><trkpt lat="43.9255117" lon="8.1131183"><ele>34.5</ele><time>2026-04-08T13:52:42.259Z</time></trkpt><trkpt lat="43.92543" lon="8.1131133"><ele>32.666666666666664</ele><time>2026-04-08T13:52:44.26Z</time></trkpt><trkpt lat="43.925365" lon="8.1131133"><ele>30.833333333333332</ele><time>2026-04-08T13:52:45.263Z</time></trkpt><trkpt lat="43.9252667" lon="8.1131117"><ele>29.0</ele><time>2026-04-08T13:52:47.214Z</time></trkpt><trkpt lat="43.9252033" lon="8.1130817"><ele>28.999999999999996</ele><time>2026-04-08T13:52:49.222Z</time></trkpt><trkpt lat="43.9251467" lon="8.11304"><ele>29.0</ele><time>2026-04-08T13:52:51.27Z</time></trkpt><trkpt lat="43.925055" lon="8.113035"><ele>29.0</ele><time>2026-04-08T13:52:54.248Z</time></trkpt><trkpt lat="43.924985" lon="8.1130333"><ele>29.0</ele><time>2026-04-08T13:52:57.269Z</time></trkpt><trkpt lat="43.924905" lon="8.1130533"><ele>28.999999999999996</ele><time>2026-04-08T13:53:00.249Z</time></trkpt><trkpt lat="43.9248233" lon="8.1130383"><ele>29.0</ele><time>2026-04-08T13:53:03.259Z</time></trkpt><trkpt lat="43.924755" lon="8.112975"><ele>27.2</ele><time>2026-04-08T13:53:06.243Z</time></trkpt><trkpt lat="43.924705" lon="8.1128267"><ele>25.4</ele><time>2026-04-08T13:53:09.214Z</time></trkpt><trkpt lat="43.9246617" lon="8.1126983"><ele>23.6</ele><time>2026-04-08T13:53:16.219Z</time></trkpt><trkpt lat="43.9246067" lon="8.1126117"><ele>21.8</ele><time>2026-04-08T13:53:19.28Z</time></trkpt><trkpt lat="43.9245283" lon="8.112575"><ele>20.0</ele><time>2026-04-08T13:53:21.234Z</time></trkpt><trkpt lat="43.9244583" lon="8.1126067"><ele>20.0</ele><time>2026-04-08T13:53:23.263Z</time></trkpt><trkpt lat="43.924395" lon="8.1126083"><ele>20.0</ele><time>2026-04-08T13:53:26.355Z</time></trkpt><trkpt lat="43.9243433" lon="8.1125267"><ele>20.0</ele><time>2026-04-08T13:53:29.238Z</time></trkpt><trkpt lat="43.92431" lon="8.112415"><ele>20.0</ele><time>2026-04-08T13:53:32.304Z</time></trkpt><trkpt lat="43.924295" lon="8.11233"><ele>20.0</ele><time>2026-04-08T13:53:34.369Z</time></trkpt><trkpt lat="43.9242617" lon="8.1122467"><ele>20.0</ele><time>2026-04-08T13:53:40.283Z</time></trkpt><trkpt lat="43.9243283" lon="8.1120717"><ele>19.333333333333336</ele><time>2026-04-08T13:53:47.211Z</time></trkpt><trkpt lat="43.924285" lon="8.111985"><ele>18.666666666666668</ele><time>2026-04-08T13:53:50.257Z</time></trkpt><trkpt lat="43.9242333" lon="8.1119067"><ele>18.0</ele><time>2026-04-08T13:53:52.206Z</time></trkpt><trkpt lat="43.924145" lon="8.1118033"><ele>17.333333333333332</ele><time>2026-04-08T13:53:54.233Z</time></trkpt><trkpt lat="43.9240917" lon="8.1117117"><ele>16.666666666666664</ele><time>2026-04-08T13:53:55.216Z</time></trkpt><trkpt lat="43.924055" lon="8.1116"><ele>16.0</ele><time>2026-04-08T13:53:57.225Z</time></trkpt><trkpt lat="43.92401" lon="8.111525"><ele>14.499999999999998</ele><time>2026-04-08T13:53:59.278Z</time></trkpt><trkpt lat="43.9239767" lon="8.1114183"><ele>13.0</ele><time>2026-04-08T13:54:02.322Z</time></trkpt><trkpt lat="43.9239433" lon="8.111305"><ele>11.5</ele><time>2026-04-08T13:54:05.26Z</time></trkpt><trkpt lat="43.9239217" lon="8.1112017"><ele>10.0</ele><time>2026-04-08T13:54:07.283Z</time></trkpt><trkpt lat="43.9239067" lon="8.1111"><ele>8.5</ele><time>2026-04-08T13:54:09.301Z</time></trkpt><trkpt lat="43.9238933" lon="8.110995"><ele>7.0</ele><time>2026-04-08T13:54:11.301Z</time></trkpt><trkpt lat="43.9238817" lon="8.1109067"><ele>7.000000000000001</ele><time>2026-04-08T13:54:13.36Z</time></trkpt><trkpt lat="43.923855" lon="8.1107733"><ele>7.0</ele><time>2026-04-08T13:54:16.223Z</time></trkpt><trkpt lat="43.9238267" lon="8.1106767"><ele>7.0</ele><time>2026-04-08T13:54:19.269Z</time></trkpt><trkpt lat="43.923805" lon="8.1105883"><ele>7.0</ele><time>2026-04-08T13:54:21.287Z</time></trkpt><trkpt lat="43.9237867" lon="8.1105017"><ele>7.000000000000001</ele><time>2026-04-08T13:54:23.29Z</time></trkpt><trkpt lat="43.923765" lon="8.1104"><ele>7.0</ele><time>2026-04-08T13:54:27.238Z</time></trkpt><trkpt lat="43.9237383" lon="8.110305"><ele>7.0</ele><time>2026-04-08T13:54:30.274Z</time></trkpt><trkpt lat="43.92367" lon="8.11012"><ele>6.999999999999999</ele><time>2026-04-08T13:54:51.26Z</time></trkpt><trkpt lat="43.9236517" lon="8.110035"><ele>6.999999999999999</ele><time>2026-04-08T13:54:53.308Z</time></trkpt><trkpt lat="43.9236583" lon="8.1098933"><ele>7.0</ele><time>2026-04-08T13:54:58.247Z</time></trkpt><trkpt lat="43.9236383" lon="8.1097733"><ele>7.0</ele><time>2026-04-08T13:55:00.283Z</time></trkpt><trkpt lat="43.9236267" lon="8.1096817"><ele>7.000000000000001</ele><time>2026-04-08T13:55:02.342Z</time></trkpt><trkpt lat="43.9235883" lon="8.109555"><ele>7.0</ele><time>2026-04-08T13:55:05.329Z</time></trkpt><trkpt lat="43.9235567" lon="8.1094717"><ele>7.0</ele><time>2026-04-08T13:55:07.292Z</time></trkpt><trkpt lat="43.9234883" lon="8.1093583"><ele>7.0</ele><time>2026-04-08T13:55:26.343Z</time></trkpt><trkpt lat="43.923455" lon="8.1094833"><ele>7.000000000000001</ele><time>2026-04-08T13:55:29.345Z</time></trkpt><trkpt lat="43.9234183" lon="8.1095683"><ele>7.0</ele><time>2026-04-08T13:55:32.347Z</time></trkpt><trkpt lat="43.9233683" lon="8.1096517"><ele>7.199999999999999</ele><time>2026-04-08T13:55:38.282Z</time></trkpt><trkpt lat="43.92339" lon="8.1098333"><ele>7.3999999999999995</ele><time>2026-04-08T13:55:53.287Z</time></trkpt><trkpt lat="43.92334" lon="8.109975"><ele>7.6000000000000005</ele><time>2026-04-08T13:59:08.292Z</time></trkpt><trkpt lat="43.92342" lon="8.1099167"><ele>7.800000000000001</ele><time>2026-04-08T14:01:47.262Z</time></trkpt><trkpt lat="43.9234183" lon="8.1100367"><ele>8.0</ele><time>2026-04-08T14:04:25.258Z</time></trkpt><trkpt lat="43.9234617" lon="8.1099433"><ele>8.0</ele><time>2026-04-08T14:11:28.283Z</time></trkpt><trkpt lat="43.92349" lon="8.11003"><ele>8.0</ele><time>2026-04-08T14:19:39.244Z</time></trkpt><trkpt lat="43.9234667" lon="8.1099417"><ele>8.0</ele><time>2026-04-08T14:23:26.281Z</time></trkpt><trkpt lat="43.9234" lon="8.110005"><ele>8.0</ele><time>2026-04-08T15:00:10.257Z</time></trkpt><trkpt lat="43.9234" lon="8.110005"><ele>8.0</ele><time>2026-04-08T15:00:10.257Z</time></trkpt><trkpt lat="43.9234" lon="8.110005"><ele>8.0</ele><time>2026-04-08T15:00:10.257Z</time></trkpt><trkpt lat="43.9234" lon="8.110005"><ele>8.0</ele><time>2026-04-08T15:00:10.257Z</time></trkpt><trkpt lat="43.9234" lon="8.110005"><ele>8.0</ele><time>2026-04-08T15:00:10.257Z</time></trkpt></trkseg></trk></gpx>